<?xml version="1.0" encoding="UTF-8" standalone="no" ?>
<gpx xmlns="http://www.topografix.com/GPX/1/1" xmlns:xsi="http://www.w3.org/2001/XMLSchema-instance" xsi:schemaLocation="http://www.topografix.com/GPX/1/1 http://www.topografix.com/GPX/1/1/gpx.xsd" version="1.1" creator="VisuGPX - https://www.visugpx.com">
  <metadata>
    <name>Tour intérieur des monts d\'or</name>
    <desc><![CDATA[Tour intérieur des monts d\'or]]></desc>
  </metadata>
  <trk>
    <name><![CDATA[TOUR INTERIEUR 04/13]]></name>
    <trkseg>
      <trkpt lat="45.82712" lon="4.79525">
        <ele>441.86</ele>
        <time>2013-04-06T09:09:50Z</time>
      </trkpt>
      <trkpt lat="45.82714" lon="4.7957">
        <ele>439.94</ele>
        <time>2013-04-06T09:09:58Z</time>
      </trkpt>
      <trkpt lat="45.82717" lon="4.79599">
        <ele>439.94</ele>
        <time>2013-04-06T09:10:06Z</time>
      </trkpt>
      <trkpt lat="45.82721" lon="4.79612">
        <ele>439.94</ele>
        <time>2013-04-06T09:10:32Z</time>
      </trkpt>
      <trkpt lat="45.82721" lon="4.79638">
        <ele>438.02</ele>
        <time>2013-04-06T09:10:40Z</time>
      </trkpt>
      <trkpt lat="45.82734" lon="4.79643">
        <ele>438.02</ele>
        <time>2013-04-06T09:10:46Z</time>
      </trkpt>
      <trkpt lat="45.82741" lon="4.79641">
        <ele>437.54</ele>
        <time>2013-04-06T09:10:49Z</time>
      </trkpt>
      <trkpt lat="45.82725" lon="4.79654">
        <ele>437.54</ele>
        <time>2013-04-06T09:10:56Z</time>
      </trkpt>
      <trkpt lat="45.82698" lon="4.79664">
        <ele>434.17</ele>
        <time>2013-04-06T09:11:05Z</time>
      </trkpt>
      <trkpt lat="45.82676" lon="4.79673">
        <ele>433.21</ele>
        <time>2013-04-06T09:11:11Z</time>
      </trkpt>
      <trkpt lat="45.82651" lon="4.7968">
        <ele>432.25</ele>
        <time>2013-04-06T09:11:18Z</time>
      </trkpt>
      <trkpt lat="45.82626" lon="4.79694">
        <ele>429.85</ele>
        <time>2013-04-06T09:11:26Z</time>
      </trkpt>
      <trkpt lat="45.82616" lon="4.79717">
        <ele>428.4</ele>
        <time>2013-04-06T09:11:31Z</time>
      </trkpt>
      <trkpt lat="45.8261" lon="4.79747">
        <ele>426.48</ele>
        <time>2013-04-06T09:11:37Z</time>
      </trkpt>
      <trkpt lat="45.82607" lon="4.79789">
        <ele>423.6</ele>
        <time>2013-04-06T09:11:46Z</time>
      </trkpt>
      <trkpt lat="45.82602" lon="4.7982">
        <ele>421.68</ele>
        <time>2013-04-06T09:11:53Z</time>
      </trkpt>
      <trkpt lat="45.82598" lon="4.79857">
        <ele>419.75</ele>
        <time>2013-04-06T09:12:01Z</time>
      </trkpt>
      <trkpt lat="45.82592" lon="4.79885">
        <ele>417.83</ele>
        <time>2013-04-06T09:12:08Z</time>
      </trkpt>
      <trkpt lat="45.82588" lon="4.79894">
        <ele>416.39</ele>
        <time>2013-04-06T09:12:14Z</time>
      </trkpt>
      <trkpt lat="45.82586" lon="4.79916">
        <ele>414.47</ele>
        <time>2013-04-06T09:12:19Z</time>
      </trkpt>
      <trkpt lat="45.82583" lon="4.79952">
        <ele>413.5</ele>
        <time>2013-04-06T09:12:27Z</time>
      </trkpt>
      <trkpt lat="45.82574" lon="4.79973">
        <ele>413.98</ele>
        <time>2013-04-06T09:12:32Z</time>
      </trkpt>
      <trkpt lat="45.82567" lon="4.80001">
        <ele>412.54</ele>
        <time>2013-04-06T09:12:39Z</time>
      </trkpt>
      <trkpt lat="45.8256" lon="4.80036">
        <ele>412.54</ele>
        <time>2013-04-06T09:12:47Z</time>
      </trkpt>
      <trkpt lat="45.82555" lon="4.80067">
        <ele>413.02</ele>
        <time>2013-04-06T09:12:54Z</time>
      </trkpt>
      <trkpt lat="45.82545" lon="4.80088">
        <ele>413.02</ele>
        <time>2013-04-06T09:13:00Z</time>
      </trkpt>
      <trkpt lat="45.82523" lon="4.80116">
        <ele>413.5</ele>
        <time>2013-04-06T09:13:08Z</time>
      </trkpt>
      <trkpt lat="45.82502" lon="4.80138">
        <ele>412.06</ele>
        <time>2013-04-06T09:13:16Z</time>
      </trkpt>
      <trkpt lat="45.82485" lon="4.80162">
        <ele>412.06</ele>
        <time>2013-04-06T09:13:23Z</time>
      </trkpt>
      <trkpt lat="45.82468" lon="4.80181">
        <ele>411.58</ele>
        <time>2013-04-06T09:13:29Z</time>
      </trkpt>
      <trkpt lat="45.82452" lon="4.80204">
        <ele>410.14</ele>
        <time>2013-04-06T09:13:36Z</time>
      </trkpt>
      <trkpt lat="45.82447" lon="4.80231">
        <ele>410.14</ele>
        <time>2013-04-06T09:13:43Z</time>
      </trkpt>
      <trkpt lat="45.82438" lon="4.80256">
        <ele>411.1</ele>
        <time>2013-04-06T09:13:51Z</time>
      </trkpt>
      <trkpt lat="45.8243" lon="4.80279">
        <ele>413.5</ele>
        <time>2013-04-06T09:13:58Z</time>
      </trkpt>
      <trkpt lat="45.8242" lon="4.80303">
        <ele>416.39</ele>
        <time>2013-04-06T09:14:06Z</time>
      </trkpt>
      <trkpt lat="45.82415" lon="4.80327">
        <ele>417.83</ele>
        <time>2013-04-06T09:14:13Z</time>
      </trkpt>
      <trkpt lat="45.82409" lon="4.80349">
        <ele>419.27</ele>
        <time>2013-04-06T09:14:20Z</time>
      </trkpt>
      <trkpt lat="45.82405" lon="4.8037">
        <ele>420.23</ele>
        <time>2013-04-06T09:14:28Z</time>
      </trkpt>
      <trkpt lat="45.824" lon="4.80397">
        <ele>421.68</ele>
        <time>2013-04-06T09:14:38Z</time>
      </trkpt>
      <trkpt lat="45.82392" lon="4.80421">
        <ele>422.16</ele>
        <time>2013-04-06T09:14:45Z</time>
      </trkpt>
      <trkpt lat="45.82388" lon="4.80448">
        <ele>420.71</ele>
        <time>2013-04-06T09:14:52Z</time>
      </trkpt>
      <trkpt lat="45.8238" lon="4.80485">
        <ele>420.71</ele>
        <time>2013-04-06T09:15:00Z</time>
      </trkpt>
      <trkpt lat="45.82373" lon="4.80523">
        <ele>420.23</ele>
        <time>2013-04-06T09:15:07Z</time>
      </trkpt>
      <trkpt lat="45.82362" lon="4.80558">
        <ele>418.31</ele>
        <time>2013-04-06T09:15:14Z</time>
      </trkpt>
      <trkpt lat="45.82354" lon="4.80596">
        <ele>416.87</ele>
        <time>2013-04-06T09:15:22Z</time>
      </trkpt>
      <trkpt lat="45.82348" lon="4.80632">
        <ele>414.95</ele>
        <time>2013-04-06T09:15:30Z</time>
      </trkpt>
      <trkpt lat="45.82342" lon="4.80671">
        <ele>411.58</ele>
        <time>2013-04-06T09:15:39Z</time>
      </trkpt>
      <trkpt lat="45.82344" lon="4.80687">
        <ele>409.66</ele>
        <time>2013-04-06T09:15:45Z</time>
      </trkpt>
      <trkpt lat="45.82353" lon="4.80697">
        <ele>409.18</ele>
        <time>2013-04-06T09:15:51Z</time>
      </trkpt>
      <trkpt lat="45.82366" lon="4.80698">
        <ele>408.22</ele>
        <time>2013-04-06T09:15:57Z</time>
      </trkpt>
      <trkpt lat="45.82381" lon="4.80678">
        <ele>406.77</ele>
        <time>2013-04-06T09:16:09Z</time>
      </trkpt>
      <trkpt lat="45.82394" lon="4.80674">
        <ele>406.29</ele>
        <time>2013-04-06T09:16:19Z</time>
      </trkpt>
      <trkpt lat="45.82404" lon="4.80667">
        <ele>404.85</ele>
        <time>2013-04-06T09:16:28Z</time>
      </trkpt>
      <trkpt lat="45.8242" lon="4.80662">
        <ele>403.41</ele>
        <time>2013-04-06T09:16:39Z</time>
      </trkpt>
      <trkpt lat="45.82436" lon="4.80662">
        <ele>402.93</ele>
        <time>2013-04-06T09:16:50Z</time>
      </trkpt>
      <trkpt lat="45.82453" lon="4.80661">
        <ele>405.33</ele>
        <time>2013-04-06T09:17:01Z</time>
      </trkpt>
      <trkpt lat="45.8246" lon="4.80661">
        <ele>405.81</ele>
        <time>2013-04-06T09:17:09Z</time>
      </trkpt>
      <trkpt lat="45.82467" lon="4.8066">
        <ele>406.29</ele>
        <time>2013-04-06T09:17:17Z</time>
      </trkpt>
      <trkpt lat="45.82481" lon="4.80659">
        <ele>406.77</ele>
        <time>2013-04-06T09:17:27Z</time>
      </trkpt>
      <trkpt lat="45.82495" lon="4.80653">
        <ele>408.22</ele>
        <time>2013-04-06T09:17:39Z</time>
      </trkpt>
      <trkpt lat="45.82508" lon="4.80646">
        <ele>408.22</ele>
        <time>2013-04-06T09:17:49Z</time>
      </trkpt>
      <trkpt lat="45.82522" lon="4.80639">
        <ele>406.77</ele>
        <time>2013-04-06T09:17:59Z</time>
      </trkpt>
      <trkpt lat="45.8254" lon="4.80633">
        <ele>407.26</ele>
        <time>2013-04-06T09:18:11Z</time>
      </trkpt>
      <trkpt lat="45.82555" lon="4.80623">
        <ele>405.81</ele>
        <time>2013-04-06T09:18:21Z</time>
      </trkpt>
      <trkpt lat="45.82566" lon="4.80615">
        <ele>408.22</ele>
        <time>2013-04-06T09:18:31Z</time>
      </trkpt>
      <trkpt lat="45.82578" lon="4.80599">
        <ele>408.22</ele>
        <time>2013-04-06T09:18:43Z</time>
      </trkpt>
      <trkpt lat="45.82591" lon="4.8059">
        <ele>408.22</ele>
        <time>2013-04-06T09:18:52Z</time>
      </trkpt>
      <trkpt lat="45.82603" lon="4.80582">
        <ele>409.66</ele>
        <time>2013-04-06T09:19:02Z</time>
      </trkpt>
      <trkpt lat="45.82618" lon="4.80574">
        <ele>413.5</ele>
        <time>2013-04-06T09:19:11Z</time>
      </trkpt>
      <trkpt lat="45.82634" lon="4.8057">
        <ele>420.23</ele>
        <time>2013-04-06T09:19:21Z</time>
      </trkpt>
      <trkpt lat="45.82653" lon="4.80565">
        <ele>425.04</ele>
        <time>2013-04-06T09:19:33Z</time>
      </trkpt>
      <trkpt lat="45.82668" lon="4.80558">
        <ele>425.04</ele>
        <time>2013-04-06T09:19:44Z</time>
      </trkpt>
      <trkpt lat="45.82685" lon="4.80546">
        <ele>427.92</ele>
        <time>2013-04-06T09:19:56Z</time>
      </trkpt>
      <trkpt lat="45.82697" lon="4.80533">
        <ele>429.85</ele>
        <time>2013-04-06T09:20:06Z</time>
      </trkpt>
      <trkpt lat="45.8271" lon="4.80524">
        <ele>429.85</ele>
        <time>2013-04-06T09:20:16Z</time>
      </trkpt>
      <trkpt lat="45.82731" lon="4.80513">
        <ele>428.89</ele>
        <time>2013-04-06T09:20:29Z</time>
      </trkpt>
      <trkpt lat="45.8275" lon="4.80509">
        <ele>433.21</ele>
        <time>2013-04-06T09:20:40Z</time>
      </trkpt>
      <trkpt lat="45.82767" lon="4.80505">
        <ele>435.61</ele>
        <time>2013-04-06T09:20:51Z</time>
      </trkpt>
      <trkpt lat="45.82783" lon="4.80498">
        <ele>438.5</ele>
        <time>2013-04-06T09:21:01Z</time>
      </trkpt>
      <trkpt lat="45.82805" lon="4.80489">
        <ele>442.34</ele>
        <time>2013-04-06T09:21:14Z</time>
      </trkpt>
      <trkpt lat="45.82819" lon="4.8048">
        <ele>443.31</ele>
        <time>2013-04-06T09:21:25Z</time>
      </trkpt>
      <trkpt lat="45.82824" lon="4.80478">
        <ele>443.79</ele>
        <time>2013-04-06T09:21:29Z</time>
      </trkpt>
      <trkpt lat="45.82837" lon="4.80468">
        <ele>446.67</ele>
        <time>2013-04-06T09:21:38Z</time>
      </trkpt>
      <trkpt lat="45.82853" lon="4.80457">
        <ele>449.55</ele>
        <time>2013-04-06T09:21:48Z</time>
      </trkpt>
      <trkpt lat="45.82861" lon="4.80441">
        <ele>449.55</ele>
        <time>2013-04-06T09:21:57Z</time>
      </trkpt>
      <trkpt lat="45.82868" lon="4.8042">
        <ele>451</ele>
        <time>2013-04-06T09:22:08Z</time>
      </trkpt>
      <trkpt lat="45.82874" lon="4.80414">
        <ele>452.44</ele>
        <time>2013-04-06T09:22:16Z</time>
      </trkpt>
      <trkpt lat="45.82878" lon="4.804">
        <ele>454.84</ele>
        <time>2013-04-06T09:22:26Z</time>
      </trkpt>
      <trkpt lat="45.82884" lon="4.80383">
        <ele>457.72</ele>
        <time>2013-04-06T09:22:38Z</time>
      </trkpt>
      <trkpt lat="45.82888" lon="4.80377">
        <ele>459.17</ele>
        <time>2013-04-06T09:22:43Z</time>
      </trkpt>
      <trkpt lat="45.82899" lon="4.80374">
        <ele>463.97</ele>
        <time>2013-04-06T09:22:54Z</time>
      </trkpt>
      <trkpt lat="45.82907" lon="4.80367">
        <ele>467.34</ele>
        <time>2013-04-06T09:23:03Z</time>
      </trkpt>
      <trkpt lat="45.82919" lon="4.80352">
        <ele>467.34</ele>
        <time>2013-04-06T09:23:11Z</time>
      </trkpt>
      <trkpt lat="45.8294" lon="4.80324">
        <ele>468.3</ele>
        <time>2013-04-06T09:23:22Z</time>
      </trkpt>
      <trkpt lat="45.82953" lon="4.80303">
        <ele>468.78</ele>
        <time>2013-04-06T09:23:31Z</time>
      </trkpt>
      <trkpt lat="45.82974" lon="4.80281">
        <ele>469.26</ele>
        <time>2013-04-06T09:23:42Z</time>
      </trkpt>
      <trkpt lat="45.82992" lon="4.80256">
        <ele>469.26</ele>
        <time>2013-04-06T09:23:52Z</time>
      </trkpt>
      <trkpt lat="45.83011" lon="4.80226">
        <ele>469.74</ele>
        <time>2013-04-06T09:24:01Z</time>
      </trkpt>
      <trkpt lat="45.83025" lon="4.80204">
        <ele>470.22</ele>
        <time>2013-04-06T09:24:10Z</time>
      </trkpt>
      <trkpt lat="45.8303" lon="4.80196">
        <ele>470.7</ele>
        <time>2013-04-06T09:24:14Z</time>
      </trkpt>
      <trkpt lat="45.83051" lon="4.80173">
        <ele>470.7</ele>
        <time>2013-04-06T09:24:23Z</time>
      </trkpt>
      <trkpt lat="45.83076" lon="4.80159">
        <ele>472.14</ele>
        <time>2013-04-06T09:24:33Z</time>
      </trkpt>
      <trkpt lat="45.83088" lon="4.80148">
        <ele>472.63</ele>
        <time>2013-04-06T09:24:38Z</time>
      </trkpt>
      <trkpt lat="45.83109" lon="4.80117">
        <ele>473.11</ele>
        <time>2013-04-06T09:24:50Z</time>
      </trkpt>
      <trkpt lat="45.83126" lon="4.80105">
        <ele>474.55</ele>
        <time>2013-04-06T09:24:56Z</time>
      </trkpt>
      <trkpt lat="45.83135" lon="4.80105">
        <ele>476.47</ele>
        <time>2013-04-06T09:25:04Z</time>
      </trkpt>
      <trkpt lat="45.83141" lon="4.80107">
        <ele>478.87</ele>
        <time>2013-04-06T09:25:14Z</time>
      </trkpt>
      <trkpt lat="45.83146" lon="4.80104">
        <ele>482.72</ele>
        <time>2013-04-06T09:25:21Z</time>
      </trkpt>
      <trkpt lat="45.83156" lon="4.80097">
        <ele>485.12</ele>
        <time>2013-04-06T09:25:26Z</time>
      </trkpt>
      <trkpt lat="45.8317" lon="4.80083">
        <ele>487.05</ele>
        <time>2013-04-06T09:25:36Z</time>
      </trkpt>
      <trkpt lat="45.83191" lon="4.8006">
        <ele>487.53</ele>
        <time>2013-04-06T09:25:49Z</time>
      </trkpt>
      <trkpt lat="45.83209" lon="4.80047">
        <ele>489.45</ele>
        <time>2013-04-06T09:25:59Z</time>
      </trkpt>
      <trkpt lat="45.8321" lon="4.80057">
        <ele>491.37</ele>
        <time>2013-04-06T09:26:10Z</time>
      </trkpt>
      <trkpt lat="45.83211" lon="4.80058">
        <ele>491.37</ele>
        <time>2013-04-06T09:26:13Z</time>
      </trkpt>
      <trkpt lat="45.83214" lon="4.80074">
        <ele>490.89</ele>
        <time>2013-04-06T09:26:17Z</time>
      </trkpt>
      <trkpt lat="45.83203" lon="4.80104">
        <ele>491.37</ele>
        <time>2013-04-06T09:26:26Z</time>
      </trkpt>
      <trkpt lat="45.83192" lon="4.80128">
        <ele>491.37</ele>
        <time>2013-04-06T09:26:33Z</time>
      </trkpt>
      <trkpt lat="45.83172" lon="4.80162">
        <ele>492.33</ele>
        <time>2013-04-06T09:26:43Z</time>
      </trkpt>
      <trkpt lat="45.83155" lon="4.8018">
        <ele>494.26</ele>
        <time>2013-04-06T09:26:51Z</time>
      </trkpt>
      <trkpt lat="45.83134" lon="4.80187">
        <ele>496.66</ele>
        <time>2013-04-06T09:27:01Z</time>
      </trkpt>
      <trkpt lat="45.83127" lon="4.80193">
        <ele>497.14</ele>
        <time>2013-04-06T09:27:04Z</time>
      </trkpt>
      <trkpt lat="45.83126" lon="4.8021">
        <ele>497.14</ele>
        <time>2013-04-06T09:27:09Z</time>
      </trkpt>
      <trkpt lat="45.83133" lon="4.8024">
        <ele>495.22</ele>
        <time>2013-04-06T09:27:17Z</time>
      </trkpt>
      <trkpt lat="45.83136" lon="4.80265">
        <ele>493.77</ele>
        <time>2013-04-06T09:27:23Z</time>
      </trkpt>
      <trkpt lat="45.83137" lon="4.80269">
        <ele>493.29</ele>
        <time>2013-04-06T09:27:24Z</time>
      </trkpt>
      <trkpt lat="45.8315" lon="4.80282">
        <ele>492.33</ele>
        <time>2013-04-06T09:27:29Z</time>
      </trkpt>
      <trkpt lat="45.83172" lon="4.8028">
        <ele>491.85</ele>
        <time>2013-04-06T09:27:38Z</time>
      </trkpt>
      <trkpt lat="45.83197" lon="4.80284">
        <ele>490.41</ele>
        <time>2013-04-06T09:27:46Z</time>
      </trkpt>
      <trkpt lat="45.83224" lon="4.80298">
        <ele>488.97</ele>
        <time>2013-04-06T09:27:56Z</time>
      </trkpt>
      <trkpt lat="45.83244" lon="4.80305">
        <ele>487.05</ele>
        <time>2013-04-06T09:28:03Z</time>
      </trkpt>
      <trkpt lat="45.83246" lon="4.80306">
        <ele>487.05</ele>
        <time>2013-04-06T09:28:04Z</time>
      </trkpt>
      <trkpt lat="45.83248" lon="4.80316">
        <ele>486.56</ele>
        <time>2013-04-06T09:28:08Z</time>
      </trkpt>
      <trkpt lat="45.83238" lon="4.80347">
        <ele>484.16</ele>
        <time>2013-04-06T09:28:16Z</time>
      </trkpt>
      <trkpt lat="45.8323" lon="4.80382">
        <ele>481.28</ele>
        <time>2013-04-06T09:28:23Z</time>
      </trkpt>
      <trkpt lat="45.83216" lon="4.80398">
        <ele>479.35</ele>
        <time>2013-04-06T09:28:30Z</time>
      </trkpt>
      <trkpt lat="45.83193" lon="4.80416">
        <ele>477.43</ele>
        <time>2013-04-06T09:28:39Z</time>
      </trkpt>
      <trkpt lat="45.83176" lon="4.80447">
        <ele>473.59</ele>
        <time>2013-04-06T09:28:46Z</time>
      </trkpt>
      <trkpt lat="45.83165" lon="4.80463">
        <ele>472.14</ele>
        <time>2013-04-06T09:28:51Z</time>
      </trkpt>
      <trkpt lat="45.83145" lon="4.80492">
        <ele>468.78</ele>
        <time>2013-04-06T09:28:59Z</time>
      </trkpt>
      <trkpt lat="45.83128" lon="4.80516">
        <ele>465.9</ele>
        <time>2013-04-06T09:29:06Z</time>
      </trkpt>
      <trkpt lat="45.83106" lon="4.80542">
        <ele>463.01</ele>
        <time>2013-04-06T09:29:15Z</time>
      </trkpt>
      <trkpt lat="45.83087" lon="4.80567">
        <ele>459.65</ele>
        <time>2013-04-06T09:29:23Z</time>
      </trkpt>
      <trkpt lat="45.83075" lon="4.80594">
        <ele>457.72</ele>
        <time>2013-04-06T09:29:30Z</time>
      </trkpt>
      <trkpt lat="45.83053" lon="4.80641">
        <ele>453.88</ele>
        <time>2013-04-06T09:29:40Z</time>
      </trkpt>
      <trkpt lat="45.83035" lon="4.80662">
        <ele>451</ele>
        <time>2013-04-06T09:29:46Z</time>
      </trkpt>
      <trkpt lat="45.83014" lon="4.80681">
        <ele>448.11</ele>
        <time>2013-04-06T09:29:52Z</time>
      </trkpt>
      <trkpt lat="45.82993" lon="4.80704">
        <ele>445.23</ele>
        <time>2013-04-06T09:29:59Z</time>
      </trkpt>
      <trkpt lat="45.82975" lon="4.80716">
        <ele>442.82</ele>
        <time>2013-04-06T09:30:05Z</time>
      </trkpt>
      <trkpt lat="45.82958" lon="4.80739">
        <ele>439.94</ele>
        <time>2013-04-06T09:30:12Z</time>
      </trkpt>
      <trkpt lat="45.82943" lon="4.8076">
        <ele>437.54</ele>
        <time>2013-04-06T09:30:18Z</time>
      </trkpt>
      <trkpt lat="45.82924" lon="4.80791">
        <ele>434.17</ele>
        <time>2013-04-06T09:30:26Z</time>
      </trkpt>
      <trkpt lat="45.8291" lon="4.80811">
        <ele>431.77</ele>
        <time>2013-04-06T09:30:33Z</time>
      </trkpt>
      <trkpt lat="45.82892" lon="4.80834">
        <ele>430.81</ele>
        <time>2013-04-06T09:30:41Z</time>
      </trkpt>
      <trkpt lat="45.82875" lon="4.80856">
        <ele>430.33</ele>
        <time>2013-04-06T09:30:49Z</time>
      </trkpt>
      <trkpt lat="45.82853" lon="4.80881">
        <ele>426</ele>
        <time>2013-04-06T09:30:56Z</time>
      </trkpt>
      <trkpt lat="45.82832" lon="4.80917">
        <ele>422.16</ele>
        <time>2013-04-06T09:31:05Z</time>
      </trkpt>
      <trkpt lat="45.82821" lon="4.80953">
        <ele>419.75</ele>
        <time>2013-04-06T09:31:13Z</time>
      </trkpt>
      <trkpt lat="45.82813" lon="4.80973">
        <ele>418.31</ele>
        <time>2013-04-06T09:31:20Z</time>
      </trkpt>
      <trkpt lat="45.82793" lon="4.80983">
        <ele>415.91</ele>
        <time>2013-04-06T09:31:27Z</time>
      </trkpt>
      <trkpt lat="45.82773" lon="4.80992">
        <ele>414.95</ele>
        <time>2013-04-06T09:31:34Z</time>
      </trkpt>
      <trkpt lat="45.82749" lon="4.80995">
        <ele>413.98</ele>
        <time>2013-04-06T09:31:42Z</time>
      </trkpt>
      <trkpt lat="45.82732" lon="4.80996">
        <ele>413.5</ele>
        <time>2013-04-06T09:31:48Z</time>
      </trkpt>
      <trkpt lat="45.8272" lon="4.80993">
        <ele>412.54</ele>
        <time>2013-04-06T09:31:56Z</time>
      </trkpt>
      <trkpt lat="45.82703" lon="4.80998">
        <ele>411.1</ele>
        <time>2013-04-06T09:32:03Z</time>
      </trkpt>
      <trkpt lat="45.82678" lon="4.80997">
        <ele>409.18</ele>
        <time>2013-04-06T09:32:11Z</time>
      </trkpt>
      <trkpt lat="45.82663" lon="4.80998">
        <ele>407.74</ele>
        <time>2013-04-06T09:32:16Z</time>
      </trkpt>
      <trkpt lat="45.82661" lon="4.81001">
        <ele>407.74</ele>
        <time>2013-04-06T09:32:17Z</time>
      </trkpt>
      <trkpt lat="45.82661" lon="4.81005">
        <ele>407.74</ele>
        <time>2013-04-06T09:32:18Z</time>
      </trkpt>
      <trkpt lat="45.82662" lon="4.81012">
        <ele>407.26</ele>
        <time>2013-04-06T09:32:20Z</time>
      </trkpt>
      <trkpt lat="45.82664" lon="4.81015">
        <ele>407.26</ele>
        <time>2013-04-06T09:32:21Z</time>
      </trkpt>
      <trkpt lat="45.82674" lon="4.81029">
        <ele>406.29</ele>
        <time>2013-04-06T09:32:30Z</time>
      </trkpt>
      <trkpt lat="45.82676" lon="4.81029">
        <ele>406.29</ele>
        <time>2013-04-06T09:32:33Z</time>
      </trkpt>
      <trkpt lat="45.82692" lon="4.81032">
        <ele>405.81</ele>
        <time>2013-04-06T09:32:43Z</time>
      </trkpt>
      <trkpt lat="45.82706" lon="4.81037">
        <ele>405.33</ele>
        <time>2013-04-06T09:32:52Z</time>
      </trkpt>
      <trkpt lat="45.82717" lon="4.81043">
        <ele>405.81</ele>
        <time>2013-04-06T09:33:01Z</time>
      </trkpt>
      <trkpt lat="45.82718" lon="4.81044">
        <ele>405.81</ele>
        <time>2013-04-06T09:33:02Z</time>
      </trkpt>
      <trkpt lat="45.82719" lon="4.81046">
        <ele>405.81</ele>
        <time>2013-04-06T09:33:03Z</time>
      </trkpt>
      <trkpt lat="45.8272" lon="4.81047">
        <ele>405.81</ele>
        <time>2013-04-06T09:33:04Z</time>
      </trkpt>
      <trkpt lat="45.82722" lon="4.81049">
        <ele>405.81</ele>
        <time>2013-04-06T09:33:05Z</time>
      </trkpt>
      <trkpt lat="45.82723" lon="4.81052">
        <ele>405.81</ele>
        <time>2013-04-06T09:33:06Z</time>
      </trkpt>
      <trkpt lat="45.82732" lon="4.81066">
        <ele>405.33</ele>
        <time>2013-04-06T09:33:15Z</time>
      </trkpt>
      <trkpt lat="45.82741" lon="4.8108">
        <ele>406.29</ele>
        <time>2013-04-06T09:33:23Z</time>
      </trkpt>
      <trkpt lat="45.82753" lon="4.81088">
        <ele>406.77</ele>
        <time>2013-04-06T09:33:32Z</time>
      </trkpt>
      <trkpt lat="45.82775" lon="4.81096">
        <ele>407.26</ele>
        <time>2013-04-06T09:33:44Z</time>
      </trkpt>
      <trkpt lat="45.82791" lon="4.81103">
        <ele>407.26</ele>
        <time>2013-04-06T09:33:54Z</time>
      </trkpt>
      <trkpt lat="45.82804" lon="4.81111">
        <ele>406.77</ele>
        <time>2013-04-06T09:34:02Z</time>
      </trkpt>
      <trkpt lat="45.82811" lon="4.81118">
        <ele>406.77</ele>
        <time>2013-04-06T09:34:08Z</time>
      </trkpt>
      <trkpt lat="45.82827" lon="4.81132">
        <ele>409.18</ele>
        <time>2013-04-06T09:34:18Z</time>
      </trkpt>
      <trkpt lat="45.82827" lon="4.81135">
        <ele>409.66</ele>
        <time>2013-04-06T09:34:19Z</time>
      </trkpt>
      <trkpt lat="45.82827" lon="4.81138">
        <ele>410.14</ele>
        <time>2013-04-06T09:34:20Z</time>
      </trkpt>
      <trkpt lat="45.82827" lon="4.81142">
        <ele>410.14</ele>
        <time>2013-04-06T09:34:21Z</time>
      </trkpt>
      <trkpt lat="45.82826" lon="4.81146">
        <ele>410.14</ele>
        <time>2013-04-06T09:34:22Z</time>
      </trkpt>
      <trkpt lat="45.82825" lon="4.8115">
        <ele>410.14</ele>
        <time>2013-04-06T09:34:23Z</time>
      </trkpt>
      <trkpt lat="45.82823" lon="4.81154">
        <ele>410.62</ele>
        <time>2013-04-06T09:34:24Z</time>
      </trkpt>
      <trkpt lat="45.82822" lon="4.81158">
        <ele>410.62</ele>
        <time>2013-04-06T09:34:25Z</time>
      </trkpt>
      <trkpt lat="45.82812" lon="4.81189">
        <ele>411.58</ele>
        <time>2013-04-06T09:34:34Z</time>
      </trkpt>
      <trkpt lat="45.82801" lon="4.81224">
        <ele>412.54</ele>
        <time>2013-04-06T09:34:44Z</time>
      </trkpt>
      <trkpt lat="45.82793" lon="4.81256">
        <ele>413.02</ele>
        <time>2013-04-06T09:34:53Z</time>
      </trkpt>
      <trkpt lat="45.8279" lon="4.81291">
        <ele>414.47</ele>
        <time>2013-04-06T09:35:03Z</time>
      </trkpt>
      <trkpt lat="45.82785" lon="4.81332">
        <ele>414.95</ele>
        <time>2013-04-06T09:35:15Z</time>
      </trkpt>
      <trkpt lat="45.8278" lon="4.81356">
        <ele>415.91</ele>
        <time>2013-04-06T09:35:22Z</time>
      </trkpt>
      <trkpt lat="45.82775" lon="4.81384">
        <ele>416.87</ele>
        <time>2013-04-06T09:35:30Z</time>
      </trkpt>
      <trkpt lat="45.82772" lon="4.81409">
        <ele>417.35</ele>
        <time>2013-04-06T09:35:37Z</time>
      </trkpt>
      <trkpt lat="45.82766" lon="4.81437">
        <ele>418.31</ele>
        <time>2013-04-06T09:35:46Z</time>
      </trkpt>
      <trkpt lat="45.82759" lon="4.81466">
        <ele>418.79</ele>
        <time>2013-04-06T09:35:55Z</time>
      </trkpt>
      <trkpt lat="45.82757" lon="4.8149">
        <ele>419.27</ele>
        <time>2013-04-06T09:36:06Z</time>
      </trkpt>
      <trkpt lat="45.82754" lon="4.8151">
        <ele>421.19</ele>
        <time>2013-04-06T09:36:16Z</time>
      </trkpt>
      <trkpt lat="45.82744" lon="4.81515">
        <ele>422.16</ele>
        <time>2013-04-06T09:36:23Z</time>
      </trkpt>
      <trkpt lat="45.82735" lon="4.81521">
        <ele>424.08</ele>
        <time>2013-04-06T09:36:29Z</time>
      </trkpt>
      <trkpt lat="45.82724" lon="4.81532">
        <ele>426</ele>
        <time>2013-04-06T09:36:38Z</time>
      </trkpt>
      <trkpt lat="45.82719" lon="4.81548">
        <ele>427.44</ele>
        <time>2013-04-06T09:36:48Z</time>
      </trkpt>
      <trkpt lat="45.82718" lon="4.81566">
        <ele>428.89</ele>
        <time>2013-04-06T09:36:57Z</time>
      </trkpt>
      <trkpt lat="45.82709" lon="4.81592">
        <ele>432.25</ele>
        <time>2013-04-06T09:37:07Z</time>
      </trkpt>
      <trkpt lat="45.82704" lon="4.81612">
        <ele>434.17</ele>
        <time>2013-04-06T09:37:16Z</time>
      </trkpt>
      <trkpt lat="45.827" lon="4.81637">
        <ele>436.58</ele>
        <time>2013-04-06T09:37:27Z</time>
      </trkpt>
      <trkpt lat="45.82698" lon="4.81658">
        <ele>437.54</ele>
        <time>2013-04-06T09:37:36Z</time>
      </trkpt>
      <trkpt lat="45.82696" lon="4.81687">
        <ele>438.98</ele>
        <time>2013-04-06T09:37:47Z</time>
      </trkpt>
      <trkpt lat="45.82694" lon="4.81717">
        <ele>440.9</ele>
        <time>2013-04-06T09:37:58Z</time>
      </trkpt>
      <trkpt lat="45.82689" lon="4.81742">
        <ele>443.79</ele>
        <time>2013-04-06T09:38:06Z</time>
      </trkpt>
      <trkpt lat="45.82681" lon="4.81778">
        <ele>446.19</ele>
        <time>2013-04-06T09:38:15Z</time>
      </trkpt>
      <trkpt lat="45.82676" lon="4.81808">
        <ele>447.15</ele>
        <time>2013-04-06T09:38:24Z</time>
      </trkpt>
      <trkpt lat="45.82673" lon="4.81831">
        <ele>448.11</ele>
        <time>2013-04-06T09:38:31Z</time>
      </trkpt>
      <trkpt lat="45.82664" lon="4.81854">
        <ele>450.52</ele>
        <time>2013-04-06T09:38:38Z</time>
      </trkpt>
      <trkpt lat="45.82653" lon="4.81891">
        <ele>452.44</ele>
        <time>2013-04-06T09:38:48Z</time>
      </trkpt>
      <trkpt lat="45.82647" lon="4.81914">
        <ele>452.92</ele>
        <time>2013-04-06T09:38:55Z</time>
      </trkpt>
      <trkpt lat="45.82638" lon="4.81939">
        <ele>452.44</ele>
        <time>2013-04-06T09:39:03Z</time>
      </trkpt>
      <trkpt lat="45.82631" lon="4.81964">
        <ele>452.92</ele>
        <time>2013-04-06T09:39:10Z</time>
      </trkpt>
      <trkpt lat="45.82623" lon="4.82003">
        <ele>454.36</ele>
        <time>2013-04-06T09:39:19Z</time>
      </trkpt>
      <trkpt lat="45.8262" lon="4.82029">
        <ele>455.32</ele>
        <time>2013-04-06T09:39:26Z</time>
      </trkpt>
      <trkpt lat="45.82623" lon="4.82056">
        <ele>455.32</ele>
        <time>2013-04-06T09:39:32Z</time>
      </trkpt>
      <trkpt lat="45.8263" lon="4.82089">
        <ele>454.84</ele>
        <time>2013-04-06T09:39:40Z</time>
      </trkpt>
      <trkpt lat="45.82642" lon="4.82118">
        <ele>454.36</ele>
        <time>2013-04-06T09:39:49Z</time>
      </trkpt>
      <trkpt lat="45.82652" lon="4.82147">
        <ele>453.88</ele>
        <time>2013-04-06T09:39:57Z</time>
      </trkpt>
      <trkpt lat="45.82653" lon="4.82151">
        <ele>454.36</ele>
        <time>2013-04-06T09:39:58Z</time>
      </trkpt>
      <trkpt lat="45.82661" lon="4.82181">
        <ele>454.36</ele>
        <time>2013-04-06T09:40:06Z</time>
      </trkpt>
      <trkpt lat="45.8267" lon="4.82205">
        <ele>453.88</ele>
        <time>2013-04-06T09:40:12Z</time>
      </trkpt>
      <trkpt lat="45.82683" lon="4.82234">
        <ele>454.84</ele>
        <time>2013-04-06T09:40:20Z</time>
      </trkpt>
      <trkpt lat="45.82699" lon="4.82267">
        <ele>456.28</ele>
        <time>2013-04-06T09:40:30Z</time>
      </trkpt>
      <trkpt lat="45.82711" lon="4.82293">
        <ele>457.24</ele>
        <time>2013-04-06T09:40:38Z</time>
      </trkpt>
      <trkpt lat="45.82721" lon="4.82325">
        <ele>457.24</ele>
        <time>2013-04-06T09:40:47Z</time>
      </trkpt>
      <trkpt lat="45.82728" lon="4.82352">
        <ele>456.76</ele>
        <time>2013-04-06T09:40:55Z</time>
      </trkpt>
      <trkpt lat="45.82735" lon="4.8238">
        <ele>455.8</ele>
        <time>2013-04-06T09:41:03Z</time>
      </trkpt>
      <trkpt lat="45.82745" lon="4.82409">
        <ele>453.88</ele>
        <time>2013-04-06T09:41:11Z</time>
      </trkpt>
      <trkpt lat="45.82761" lon="4.82444">
        <ele>452.44</ele>
        <time>2013-04-06T09:41:19Z</time>
      </trkpt>
      <trkpt lat="45.82769" lon="4.82474">
        <ele>452.92</ele>
        <time>2013-04-06T09:41:26Z</time>
      </trkpt>
      <trkpt lat="45.82778" lon="4.82511">
        <ele>450.52</ele>
        <time>2013-04-06T09:41:35Z</time>
      </trkpt>
      <trkpt lat="45.82782" lon="4.82541">
        <ele>448.11</ele>
        <time>2013-04-06T09:41:42Z</time>
      </trkpt>
      <trkpt lat="45.82777" lon="4.82569">
        <ele>445.23</ele>
        <time>2013-04-06T09:41:48Z</time>
      </trkpt>
      <trkpt lat="45.82777" lon="4.82598">
        <ele>442.34</ele>
        <time>2013-04-06T09:41:54Z</time>
      </trkpt>
      <trkpt lat="45.82786" lon="4.82628">
        <ele>438.5</ele>
        <time>2013-04-06T09:42:02Z</time>
      </trkpt>
      <trkpt lat="45.82794" lon="4.82661">
        <ele>435.61</ele>
        <time>2013-04-06T09:42:10Z</time>
      </trkpt>
      <trkpt lat="45.82796" lon="4.82695">
        <ele>433.69</ele>
        <time>2013-04-06T09:42:17Z</time>
      </trkpt>
      <trkpt lat="45.82783" lon="4.82732">
        <ele>431.77</ele>
        <time>2013-04-06T09:42:24Z</time>
      </trkpt>
      <trkpt lat="45.8278" lon="4.82736">
        <ele>431.29</ele>
        <time>2013-04-06T09:42:25Z</time>
      </trkpt>
      <trkpt lat="45.82776" lon="4.82738">
        <ele>430.81</ele>
        <time>2013-04-06T09:42:26Z</time>
      </trkpt>
      <trkpt lat="45.8275" lon="4.82752">
        <ele>427.44</ele>
        <time>2013-04-06T09:42:33Z</time>
      </trkpt>
      <trkpt lat="45.82728" lon="4.82751">
        <ele>424.56</ele>
        <time>2013-04-06T09:42:38Z</time>
      </trkpt>
      <trkpt lat="45.82701" lon="4.82741">
        <ele>421.19</ele>
        <time>2013-04-06T09:42:45Z</time>
      </trkpt>
      <trkpt lat="45.82676" lon="4.82724">
        <ele>417.35</ele>
        <time>2013-04-06T09:42:52Z</time>
      </trkpt>
      <trkpt lat="45.82661" lon="4.82706">
        <ele>413.02</ele>
        <time>2013-04-06T09:42:59Z</time>
      </trkpt>
      <trkpt lat="45.82659" lon="4.82708">
        <ele>412.54</ele>
        <time>2013-04-06T09:43:10Z</time>
      </trkpt>
      <trkpt lat="45.82659" lon="4.82707">
        <ele>412.54</ele>
        <time>2013-04-06T09:43:25Z</time>
      </trkpt>
      <trkpt lat="45.8266" lon="4.82709">
        <ele>412.06</ele>
        <time>2013-04-06T09:43:40Z</time>
      </trkpt>
      <trkpt lat="45.82657" lon="4.82707">
        <ele>411.58</ele>
        <time>2013-04-06T09:43:47Z</time>
      </trkpt>
      <trkpt lat="45.82656" lon="4.82705">
        <ele>411.1</ele>
        <time>2013-04-06T09:43:48Z</time>
      </trkpt>
      <trkpt lat="45.82656" lon="4.82704">
        <ele>410.62</ele>
        <time>2013-04-06T09:43:49Z</time>
      </trkpt>
      <trkpt lat="45.8264" lon="4.82684">
        <ele>405.33</ele>
        <time>2013-04-06T09:43:59Z</time>
      </trkpt>
      <trkpt lat="45.8262" lon="4.82668">
        <ele>399.57</ele>
        <time>2013-04-06T09:44:08Z</time>
      </trkpt>
      <trkpt lat="45.82602" lon="4.82656">
        <ele>395.72</ele>
        <time>2013-04-06T09:44:15Z</time>
      </trkpt>
      <trkpt lat="45.82571" lon="4.8265">
        <ele>384.66</ele>
        <time>2013-04-06T09:44:25Z</time>
      </trkpt>
      <trkpt lat="45.82546" lon="4.82658">
        <ele>376.01</ele>
        <time>2013-04-06T09:44:33Z</time>
      </trkpt>
      <trkpt lat="45.82536" lon="4.82683">
        <ele>368.32</ele>
        <time>2013-04-06T09:44:40Z</time>
      </trkpt>
      <trkpt lat="45.82537" lon="4.82698">
        <ele>365.44</ele>
        <time>2013-04-06T09:44:44Z</time>
      </trkpt>
      <trkpt lat="45.82539" lon="4.827">
        <ele>365.44</ele>
        <time>2013-04-06T09:44:45Z</time>
      </trkpt>
      <trkpt lat="45.82555" lon="4.82712">
        <ele>363.52</ele>
        <time>2013-04-06T09:44:51Z</time>
      </trkpt>
      <trkpt lat="45.82575" lon="4.82728">
        <ele>362.55</ele>
        <time>2013-04-06T09:44:59Z</time>
      </trkpt>
      <trkpt lat="45.82586" lon="4.8273">
        <ele>362.07</ele>
        <time>2013-04-06T09:45:03Z</time>
      </trkpt>
      <trkpt lat="45.8259" lon="4.8273">
        <ele>362.07</ele>
        <time>2013-04-06T09:45:04Z</time>
      </trkpt>
      <trkpt lat="45.82592" lon="4.82729">
        <ele>361.59</ele>
        <time>2013-04-06T09:45:05Z</time>
      </trkpt>
      <trkpt lat="45.82614" lon="4.82731">
        <ele>361.59</ele>
        <time>2013-04-06T09:45:13Z</time>
      </trkpt>
      <trkpt lat="45.82633" lon="4.82741">
        <ele>360.63</ele>
        <time>2013-04-06T09:45:20Z</time>
      </trkpt>
      <trkpt lat="45.82645" lon="4.82755">
        <ele>360.63</ele>
        <time>2013-04-06T09:45:26Z</time>
      </trkpt>
      <trkpt lat="45.82656" lon="4.82772">
        <ele>361.11</ele>
        <time>2013-04-06T09:45:32Z</time>
      </trkpt>
      <trkpt lat="45.8267" lon="4.82791">
        <ele>362.55</ele>
        <time>2013-04-06T09:45:40Z</time>
      </trkpt>
      <trkpt lat="45.82681" lon="4.82815">
        <ele>363.04</ele>
        <time>2013-04-06T09:45:47Z</time>
      </trkpt>
      <trkpt lat="45.82694" lon="4.82841">
        <ele>362.07</ele>
        <time>2013-04-06T09:45:54Z</time>
      </trkpt>
      <trkpt lat="45.82708" lon="4.82863">
        <ele>362.07</ele>
        <time>2013-04-06T09:46:02Z</time>
      </trkpt>
      <trkpt lat="45.82721" lon="4.82879">
        <ele>362.07</ele>
        <time>2013-04-06T09:46:08Z</time>
      </trkpt>
      <trkpt lat="45.82748" lon="4.82887">
        <ele>361.59</ele>
        <time>2013-04-06T09:46:18Z</time>
      </trkpt>
      <trkpt lat="45.8277" lon="4.82892">
        <ele>361.59</ele>
        <time>2013-04-06T09:46:26Z</time>
      </trkpt>
      <trkpt lat="45.82797" lon="4.82892">
        <ele>361.59</ele>
        <time>2013-04-06T09:46:35Z</time>
      </trkpt>
      <trkpt lat="45.82819" lon="4.8289">
        <ele>360.63</ele>
        <time>2013-04-06T09:46:43Z</time>
      </trkpt>
      <trkpt lat="45.82844" lon="4.82886">
        <ele>359.19</ele>
        <time>2013-04-06T09:46:52Z</time>
      </trkpt>
      <trkpt lat="45.82866" lon="4.82883">
        <ele>358.23</ele>
        <time>2013-04-06T09:46:59Z</time>
      </trkpt>
      <trkpt lat="45.82884" lon="4.82887">
        <ele>357.27</ele>
        <time>2013-04-06T09:47:05Z</time>
      </trkpt>
      <trkpt lat="45.82901" lon="4.82883">
        <ele>356.79</ele>
        <time>2013-04-06T09:47:13Z</time>
      </trkpt>
      <trkpt lat="45.82906" lon="4.8288">
        <ele>356.79</ele>
        <time>2013-04-06T09:47:20Z</time>
      </trkpt>
      <trkpt lat="45.82915" lon="4.82872">
        <ele>355.34</ele>
        <time>2013-04-06T09:47:24Z</time>
      </trkpt>
      <trkpt lat="45.82918" lon="4.8287">
        <ele>354.86</ele>
        <time>2013-04-06T09:47:25Z</time>
      </trkpt>
      <trkpt lat="45.82921" lon="4.82868">
        <ele>354.86</ele>
        <time>2013-04-06T09:47:26Z</time>
      </trkpt>
      <trkpt lat="45.82941" lon="4.82853">
        <ele>353.9</ele>
        <time>2013-04-06T09:47:33Z</time>
      </trkpt>
      <trkpt lat="45.8296" lon="4.82827">
        <ele>352.94</ele>
        <time>2013-04-06T09:47:41Z</time>
      </trkpt>
      <trkpt lat="45.82965" lon="4.82823">
        <ele>352.94</ele>
        <time>2013-04-06T09:47:44Z</time>
      </trkpt>
      <trkpt lat="45.82983" lon="4.82827">
        <ele>352.46</ele>
        <time>2013-04-06T09:47:50Z</time>
      </trkpt>
      <trkpt lat="45.83004" lon="4.82842">
        <ele>351.02</ele>
        <time>2013-04-06T09:47:57Z</time>
      </trkpt>
      <trkpt lat="45.83026" lon="4.8286">
        <ele>349.58</ele>
        <time>2013-04-06T09:48:05Z</time>
      </trkpt>
      <trkpt lat="45.83045" lon="4.82874">
        <ele>348.13</ele>
        <time>2013-04-06T09:48:12Z</time>
      </trkpt>
      <trkpt lat="45.83047" lon="4.82895">
        <ele>345.25</ele>
        <time>2013-04-06T09:48:21Z</time>
      </trkpt>
      <trkpt lat="45.83045" lon="4.82922">
        <ele>342.85</ele>
        <time>2013-04-06T09:48:29Z</time>
      </trkpt>
      <trkpt lat="45.83042" lon="4.82952">
        <ele>339.48</ele>
        <time>2013-04-06T09:48:37Z</time>
      </trkpt>
      <trkpt lat="45.8304" lon="4.82974">
        <ele>336.6</ele>
        <time>2013-04-06T09:48:44Z</time>
      </trkpt>
      <trkpt lat="45.83038" lon="4.83">
        <ele>333.71</ele>
        <time>2013-04-06T09:48:51Z</time>
      </trkpt>
      <trkpt lat="45.83034" lon="4.83034">
        <ele>330.35</ele>
        <time>2013-04-06T09:48:59Z</time>
      </trkpt>
      <trkpt lat="45.83029" lon="4.8307">
        <ele>327.95</ele>
        <time>2013-04-06T09:49:08Z</time>
      </trkpt>
      <trkpt lat="45.83031" lon="4.83088">
        <ele>326.5</ele>
        <time>2013-04-06T09:49:15Z</time>
      </trkpt>
      <trkpt lat="45.83033" lon="4.83094">
        <ele>326.02</ele>
        <time>2013-04-06T09:49:22Z</time>
      </trkpt>
      <trkpt lat="45.83055" lon="4.83104">
        <ele>321.7</ele>
        <time>2013-04-06T09:49:30Z</time>
      </trkpt>
      <trkpt lat="45.83094" lon="4.83105">
        <ele>317.85</ele>
        <time>2013-04-06T09:49:38Z</time>
      </trkpt>
      <trkpt lat="45.83106" lon="4.83105">
        <ele>316.89</ele>
        <time>2013-04-06T09:49:41Z</time>
      </trkpt>
      <trkpt lat="45.83121" lon="4.83078">
        <ele>316.89</ele>
        <time>2013-04-06T09:49:49Z</time>
      </trkpt>
      <trkpt lat="45.83123" lon="4.83074">
        <ele>317.37</ele>
        <time>2013-04-06T09:49:50Z</time>
      </trkpt>
      <trkpt lat="45.83129" lon="4.83031">
        <ele>316.41</ele>
        <time>2013-04-06T09:49:59Z</time>
      </trkpt>
      <trkpt lat="45.83133" lon="4.82992">
        <ele>315.93</ele>
        <time>2013-04-06T09:50:08Z</time>
      </trkpt>
      <trkpt lat="45.83144" lon="4.82959">
        <ele>315.45</ele>
        <time>2013-04-06T09:50:17Z</time>
      </trkpt>
      <trkpt lat="45.83156" lon="4.82939">
        <ele>314.01</ele>
        <time>2013-04-06T09:50:25Z</time>
      </trkpt>
      <trkpt lat="45.83169" lon="4.82912">
        <ele>314.01</ele>
        <time>2013-04-06T09:50:32Z</time>
      </trkpt>
      <trkpt lat="45.83184" lon="4.82874">
        <ele>313.53</ele>
        <time>2013-04-06T09:50:42Z</time>
      </trkpt>
      <trkpt lat="45.83194" lon="4.82846">
        <ele>313.53</ele>
        <time>2013-04-06T09:50:49Z</time>
      </trkpt>
      <trkpt lat="45.832" lon="4.82818">
        <ele>313.05</ele>
        <time>2013-04-06T09:50:56Z</time>
      </trkpt>
      <trkpt lat="45.83209" lon="4.82792">
        <ele>312.09</ele>
        <time>2013-04-06T09:51:04Z</time>
      </trkpt>
      <trkpt lat="45.83212" lon="4.82767">
        <ele>311.12</ele>
        <time>2013-04-06T09:51:12Z</time>
      </trkpt>
      <trkpt lat="45.83214" lon="4.82734">
        <ele>310.16</ele>
        <time>2013-04-06T09:51:20Z</time>
      </trkpt>
      <trkpt lat="45.8322" lon="4.827">
        <ele>308.72</ele>
        <time>2013-04-06T09:51:29Z</time>
      </trkpt>
      <trkpt lat="45.83229" lon="4.82671">
        <ele>307.76</ele>
        <time>2013-04-06T09:51:37Z</time>
      </trkpt>
      <trkpt lat="45.83238" lon="4.82652">
        <ele>305.84</ele>
        <time>2013-04-06T09:51:42Z</time>
      </trkpt>
      <trkpt lat="45.83251" lon="4.82637">
        <ele>303.91</ele>
        <time>2013-04-06T09:51:49Z</time>
      </trkpt>
      <trkpt lat="45.83255" lon="4.82631">
        <ele>303.91</ele>
        <time>2013-04-06T09:51:51Z</time>
      </trkpt>
      <trkpt lat="45.83266" lon="4.82607">
        <ele>303.91</ele>
        <time>2013-04-06T09:51:58Z</time>
      </trkpt>
      <trkpt lat="45.83271" lon="4.82591">
        <ele>303.43</ele>
        <time>2013-04-06T09:52:03Z</time>
      </trkpt>
      <trkpt lat="45.83272" lon="4.82555">
        <ele>304.39</ele>
        <time>2013-04-06T09:52:13Z</time>
      </trkpt>
      <trkpt lat="45.8327" lon="4.82529">
        <ele>304.39</ele>
        <time>2013-04-06T09:52:20Z</time>
      </trkpt>
      <trkpt lat="45.83278" lon="4.82498">
        <ele>303.91</ele>
        <time>2013-04-06T09:52:28Z</time>
      </trkpt>
      <trkpt lat="45.83286" lon="4.82482">
        <ele>303.43</ele>
        <time>2013-04-06T09:52:32Z</time>
      </trkpt>
      <trkpt lat="45.83302" lon="4.82446">
        <ele>302.47</ele>
        <time>2013-04-06T09:52:42Z</time>
      </trkpt>
      <trkpt lat="45.83312" lon="4.82422">
        <ele>301.99</ele>
        <time>2013-04-06T09:52:49Z</time>
      </trkpt>
      <trkpt lat="45.83314" lon="4.82401">
        <ele>301.51</ele>
        <time>2013-04-06T09:52:55Z</time>
      </trkpt>
      <trkpt lat="45.83332" lon="4.82358">
        <ele>300.07</ele>
        <time>2013-04-06T09:53:06Z</time>
      </trkpt>
      <trkpt lat="45.83339" lon="4.82313">
        <ele>300.07</ele>
        <time>2013-04-06T09:53:15Z</time>
      </trkpt>
      <trkpt lat="45.83328" lon="4.82287">
        <ele>299.59</ele>
        <time>2013-04-06T09:53:22Z</time>
      </trkpt>
      <trkpt lat="45.83313" lon="4.82259">
        <ele>298.63</ele>
        <time>2013-04-06T09:53:31Z</time>
      </trkpt>
      <trkpt lat="45.83301" lon="4.82238">
        <ele>298.63</ele>
        <time>2013-04-06T09:53:38Z</time>
      </trkpt>
      <trkpt lat="45.83282" lon="4.82214">
        <ele>301.03</ele>
        <time>2013-04-06T09:53:45Z</time>
      </trkpt>
      <trkpt lat="45.83271" lon="4.82202">
        <ele>300.55</ele>
        <time>2013-04-06T09:53:50Z</time>
      </trkpt>
      <trkpt lat="45.83256" lon="4.82186">
        <ele>300.07</ele>
        <time>2013-04-06T09:53:57Z</time>
      </trkpt>
      <trkpt lat="45.83241" lon="4.82164">
        <ele>299.11</ele>
        <time>2013-04-06T09:54:04Z</time>
      </trkpt>
      <trkpt lat="45.83239" lon="4.82162">
        <ele>299.11</ele>
        <time>2013-04-06T09:54:05Z</time>
      </trkpt>
      <trkpt lat="45.83231" lon="4.82151">
        <ele>298.63</ele>
        <time>2013-04-06T09:54:09Z</time>
      </trkpt>
      <trkpt lat="45.83217" lon="4.82108">
        <ele>300.55</ele>
        <time>2013-04-06T09:54:20Z</time>
      </trkpt>
      <trkpt lat="45.83208" lon="4.82091">
        <ele>300.55</ele>
        <time>2013-04-06T09:54:25Z</time>
      </trkpt>
      <trkpt lat="45.83208" lon="4.82088">
        <ele>300.55</ele>
        <time>2013-04-06T09:54:28Z</time>
      </trkpt>
      <trkpt lat="45.83221" lon="4.82086">
        <ele>299.11</ele>
        <time>2013-04-06T09:54:32Z</time>
      </trkpt>
      <trkpt lat="45.83239" lon="4.82107">
        <ele>296.22</ele>
        <time>2013-04-06T09:54:39Z</time>
      </trkpt>
      <trkpt lat="45.8326" lon="4.82122">
        <ele>293.34</ele>
        <time>2013-04-06T09:54:46Z</time>
      </trkpt>
      <trkpt lat="45.83266" lon="4.82128">
        <ele>292.86</ele>
        <time>2013-04-06T09:54:49Z</time>
      </trkpt>
      <trkpt lat="45.8329" lon="4.82137">
        <ele>291.42</ele>
        <time>2013-04-06T09:54:57Z</time>
      </trkpt>
      <trkpt lat="45.83307" lon="4.82153">
        <ele>289.49</ele>
        <time>2013-04-06T09:55:04Z</time>
      </trkpt>
      <trkpt lat="45.83319" lon="4.82168">
        <ele>287.57</ele>
        <time>2013-04-06T09:55:13Z</time>
      </trkpt>
      <trkpt lat="45.83337" lon="4.8217">
        <ele>285.17</ele>
        <time>2013-04-06T09:55:18Z</time>
      </trkpt>
      <trkpt lat="45.83359" lon="4.82153">
        <ele>281.32</ele>
        <time>2013-04-06T09:55:27Z</time>
      </trkpt>
      <trkpt lat="45.83375" lon="4.82129">
        <ele>277.96</ele>
        <time>2013-04-06T09:55:35Z</time>
      </trkpt>
      <trkpt lat="45.83386" lon="4.82106">
        <ele>274.59</ele>
        <time>2013-04-06T09:55:42Z</time>
      </trkpt>
      <trkpt lat="45.83395" lon="4.82095">
        <ele>270.27</ele>
        <time>2013-04-06T09:55:49Z</time>
      </trkpt>
      <trkpt lat="45.83394" lon="4.82094">
        <ele>268.35</ele>
        <time>2013-04-06T09:55:53Z</time>
      </trkpt>
      <trkpt lat="45.83406" lon="4.82099">
        <ele>264.98</ele>
        <time>2013-04-06T09:55:59Z</time>
      </trkpt>
      <trkpt lat="45.83413" lon="4.82091">
        <ele>263.06</ele>
        <time>2013-04-06T09:56:02Z</time>
      </trkpt>
      <trkpt lat="45.83422" lon="4.82067">
        <ele>261.14</ele>
        <time>2013-04-06T09:56:08Z</time>
      </trkpt>
      <trkpt lat="45.83421" lon="4.82048">
        <ele>259.21</ele>
        <time>2013-04-06T09:56:16Z</time>
      </trkpt>
      <trkpt lat="45.83422" lon="4.82024">
        <ele>257.29</ele>
        <time>2013-04-06T09:56:25Z</time>
      </trkpt>
      <trkpt lat="45.83422" lon="4.82004">
        <ele>257.29</ele>
        <time>2013-04-06T09:56:33Z</time>
      </trkpt>
      <trkpt lat="45.83419" lon="4.81998">
        <ele>257.29</ele>
        <time>2013-04-06T09:56:37Z</time>
      </trkpt>
      <trkpt lat="45.83418" lon="4.81997">
        <ele>256.81</ele>
        <time>2013-04-06T09:56:38Z</time>
      </trkpt>
      <trkpt lat="45.83416" lon="4.81995">
        <ele>256.81</ele>
        <time>2013-04-06T09:56:39Z</time>
      </trkpt>
      <trkpt lat="45.83415" lon="4.81993">
        <ele>256.33</ele>
        <time>2013-04-06T09:56:40Z</time>
      </trkpt>
      <trkpt lat="45.83414" lon="4.8199">
        <ele>256.33</ele>
        <time>2013-04-06T09:56:41Z</time>
      </trkpt>
      <trkpt lat="45.83414" lon="4.81987">
        <ele>256.33</ele>
        <time>2013-04-06T09:56:42Z</time>
      </trkpt>
      <trkpt lat="45.83414" lon="4.81984">
        <ele>256.33</ele>
        <time>2013-04-06T09:56:43Z</time>
      </trkpt>
      <trkpt lat="45.83413" lon="4.81981">
        <ele>256.33</ele>
        <time>2013-04-06T09:56:44Z</time>
      </trkpt>
      <trkpt lat="45.83412" lon="4.81977">
        <ele>256.81</ele>
        <time>2013-04-06T09:56:46Z</time>
      </trkpt>
      <trkpt lat="45.83403" lon="4.81964">
        <ele>258.25</ele>
        <time>2013-04-06T09:56:56Z</time>
      </trkpt>
      <trkpt lat="45.83398" lon="4.81951">
        <ele>258.25</ele>
        <time>2013-04-06T09:57:02Z</time>
      </trkpt>
      <trkpt lat="45.83392" lon="4.8194">
        <ele>261.14</ele>
        <time>2013-04-06T09:57:12Z</time>
      </trkpt>
      <trkpt lat="45.8339" lon="4.81932">
        <ele>260.17</ele>
        <time>2013-04-06T09:57:17Z</time>
      </trkpt>
      <trkpt lat="45.83387" lon="4.81918">
        <ele>258.73</ele>
        <time>2013-04-06T09:57:25Z</time>
      </trkpt>
      <trkpt lat="45.83385" lon="4.81903">
        <ele>260.17</ele>
        <time>2013-04-06T09:57:35Z</time>
      </trkpt>
      <trkpt lat="45.83385" lon="4.81898">
        <ele>260.65</ele>
        <time>2013-04-06T09:57:39Z</time>
      </trkpt>
      <trkpt lat="45.83385" lon="4.81887">
        <ele>261.14</ele>
        <time>2013-04-06T09:57:46Z</time>
      </trkpt>
      <trkpt lat="45.83386" lon="4.81878">
        <ele>262.1</ele>
        <time>2013-04-06T09:57:56Z</time>
      </trkpt>
      <trkpt lat="45.83387" lon="4.81872">
        <ele>263.54</ele>
        <time>2013-04-06T09:58:02Z</time>
      </trkpt>
      <trkpt lat="45.83387" lon="4.81863">
        <ele>265.46</ele>
        <time>2013-04-06T09:58:08Z</time>
      </trkpt>
      <trkpt lat="45.83387" lon="4.81855">
        <ele>267.86</ele>
        <time>2013-04-06T09:58:15Z</time>
      </trkpt>
      <trkpt lat="45.83386" lon="4.81847">
        <ele>268.35</ele>
        <time>2013-04-06T09:58:23Z</time>
      </trkpt>
      <trkpt lat="45.83389" lon="4.8183">
        <ele>270.75</ele>
        <time>2013-04-06T09:58:34Z</time>
      </trkpt>
      <trkpt lat="45.83389" lon="4.81818">
        <ele>273.15</ele>
        <time>2013-04-06T09:58:43Z</time>
      </trkpt>
      <trkpt lat="45.8339" lon="4.81808">
        <ele>277</ele>
        <time>2013-04-06T09:58:50Z</time>
      </trkpt>
      <trkpt lat="45.83391" lon="4.81796">
        <ele>281.32</ele>
        <time>2013-04-06T09:58:58Z</time>
      </trkpt>
      <trkpt lat="45.83391" lon="4.81794">
        <ele>281.8</ele>
        <time>2013-04-06T09:58:59Z</time>
      </trkpt>
      <trkpt lat="45.83391" lon="4.81791">
        <ele>282.28</ele>
        <time>2013-04-06T09:59:00Z</time>
      </trkpt>
      <trkpt lat="45.83386" lon="4.81786">
        <ele>284.69</ele>
        <time>2013-04-06T09:59:04Z</time>
      </trkpt>
      <trkpt lat="45.83383" lon="4.81784">
        <ele>285.65</ele>
        <time>2013-04-06T09:59:06Z</time>
      </trkpt>
      <trkpt lat="45.83382" lon="4.81777">
        <ele>286.61</ele>
        <time>2013-04-06T09:59:09Z</time>
      </trkpt>
      <trkpt lat="45.8338" lon="4.81776">
        <ele>287.57</ele>
        <time>2013-04-06T09:59:10Z</time>
      </trkpt>
      <trkpt lat="45.83379" lon="4.81775">
        <ele>288.53</ele>
        <time>2013-04-06T09:59:11Z</time>
      </trkpt>
      <trkpt lat="45.83374" lon="4.81772">
        <ele>290.46</ele>
        <time>2013-04-06T09:59:15Z</time>
      </trkpt>
      <trkpt lat="45.83373" lon="4.81769">
        <ele>290.94</ele>
        <time>2013-04-06T09:59:17Z</time>
      </trkpt>
      <trkpt lat="45.83375" lon="4.81764">
        <ele>290.46</ele>
        <time>2013-04-06T09:59:20Z</time>
      </trkpt>
      <trkpt lat="45.83376" lon="4.81763">
        <ele>290.94</ele>
        <time>2013-04-06T09:59:21Z</time>
      </trkpt>
      <trkpt lat="45.83377" lon="4.81762">
        <ele>291.42</ele>
        <time>2013-04-06T09:59:22Z</time>
      </trkpt>
      <trkpt lat="45.83384" lon="4.81761">
        <ele>293.34</ele>
        <time>2013-04-06T09:59:28Z</time>
      </trkpt>
      <trkpt lat="45.83395" lon="4.81759">
        <ele>295.26</ele>
        <time>2013-04-06T09:59:36Z</time>
      </trkpt>
      <trkpt lat="45.83407" lon="4.81756">
        <ele>294.78</ele>
        <time>2013-04-06T09:59:44Z</time>
      </trkpt>
      <trkpt lat="45.83416" lon="4.81755">
        <ele>293.34</ele>
        <time>2013-04-06T09:59:50Z</time>
      </trkpt>
      <trkpt lat="45.83424" lon="4.81753">
        <ele>292.86</ele>
        <time>2013-04-06T09:59:55Z</time>
      </trkpt>
      <trkpt lat="45.83425" lon="4.81752">
        <ele>292.86</ele>
        <time>2013-04-06T09:59:56Z</time>
      </trkpt>
      <trkpt lat="45.83429" lon="4.81752">
        <ele>292.86</ele>
        <time>2013-04-06T09:59:59Z</time>
      </trkpt>
      <trkpt lat="45.83432" lon="4.81752">
        <ele>293.82</ele>
        <time>2013-04-06T10:00:01Z</time>
      </trkpt>
      <trkpt lat="45.8344" lon="4.81749">
        <ele>295.26</ele>
        <time>2013-04-06T10:00:07Z</time>
      </trkpt>
      <trkpt lat="45.83448" lon="4.81746">
        <ele>295.74</ele>
        <time>2013-04-06T10:00:13Z</time>
      </trkpt>
      <trkpt lat="45.83451" lon="4.81746">
        <ele>296.22</ele>
        <time>2013-04-06T10:00:15Z</time>
      </trkpt>
      <trkpt lat="45.83453" lon="4.81745">
        <ele>296.22</ele>
        <time>2013-04-06T10:00:16Z</time>
      </trkpt>
      <trkpt lat="45.83458" lon="4.81745">
        <ele>295.74</ele>
        <time>2013-04-06T10:00:20Z</time>
      </trkpt>
      <trkpt lat="45.8346" lon="4.81744">
        <ele>295.74</ele>
        <time>2013-04-06T10:00:21Z</time>
      </trkpt>
      <trkpt lat="45.83462" lon="4.81743">
        <ele>295.74</ele>
        <time>2013-04-06T10:00:22Z</time>
      </trkpt>
      <trkpt lat="45.83465" lon="4.81743">
        <ele>296.22</ele>
        <time>2013-04-06T10:00:24Z</time>
      </trkpt>
      <trkpt lat="45.83466" lon="4.81743">
        <ele>296.22</ele>
        <time>2013-04-06T10:00:25Z</time>
      </trkpt>
      <trkpt lat="45.83468" lon="4.81743">
        <ele>296.22</ele>
        <time>2013-04-06T10:00:26Z</time>
      </trkpt>
      <trkpt lat="45.8347" lon="4.81743">
        <ele>296.22</ele>
        <time>2013-04-06T10:00:27Z</time>
      </trkpt>
      <trkpt lat="45.83472" lon="4.81742">
        <ele>296.22</ele>
        <time>2013-04-06T10:00:28Z</time>
      </trkpt>
      <trkpt lat="45.83473" lon="4.81742">
        <ele>296.22</ele>
        <time>2013-04-06T10:00:29Z</time>
      </trkpt>
      <trkpt lat="45.83476" lon="4.81742">
        <ele>296.22</ele>
        <time>2013-04-06T10:00:31Z</time>
      </trkpt>
      <trkpt lat="45.83478" lon="4.81741">
        <ele>296.22</ele>
        <time>2013-04-06T10:00:32Z</time>
      </trkpt>
      <trkpt lat="45.83476" lon="4.81736">
        <ele>296.22</ele>
        <time>2013-04-06T10:00:36Z</time>
      </trkpt>
      <trkpt lat="45.83465" lon="4.81733">
        <ele>296.7</ele>
        <time>2013-04-06T10:00:44Z</time>
      </trkpt>
      <trkpt lat="45.83464" lon="4.81731">
        <ele>296.7</ele>
        <time>2013-04-06T10:00:45Z</time>
      </trkpt>
      <trkpt lat="45.83458" lon="4.81726">
        <ele>296.22</ele>
        <time>2013-04-06T10:00:49Z</time>
      </trkpt>
      <trkpt lat="45.83448" lon="4.81716">
        <ele>296.7</ele>
        <time>2013-04-06T10:00:56Z</time>
      </trkpt>
      <trkpt lat="45.83431" lon="4.81715">
        <ele>297.18</ele>
        <time>2013-04-06T10:01:03Z</time>
      </trkpt>
      <trkpt lat="45.83415" lon="4.81709">
        <ele>297.18</ele>
        <time>2013-04-06T10:01:10Z</time>
      </trkpt>
      <trkpt lat="45.83401" lon="4.81699">
        <ele>297.18</ele>
        <time>2013-04-06T10:01:17Z</time>
      </trkpt>
      <trkpt lat="45.8339" lon="4.81687">
        <ele>297.67</ele>
        <time>2013-04-06T10:01:23Z</time>
      </trkpt>
      <trkpt lat="45.83385" lon="4.81673">
        <ele>298.15</ele>
        <time>2013-04-06T10:01:29Z</time>
      </trkpt>
      <trkpt lat="45.83384" lon="4.81672">
        <ele>298.15</ele>
        <time>2013-04-06T10:01:30Z</time>
      </trkpt>
      <trkpt lat="45.83377" lon="4.81649">
        <ele>299.11</ele>
        <time>2013-04-06T10:01:40Z</time>
      </trkpt>
      <trkpt lat="45.8337" lon="4.8163">
        <ele>300.07</ele>
        <time>2013-04-06T10:01:48Z</time>
      </trkpt>
      <trkpt lat="45.83364" lon="4.81617">
        <ele>302.47</ele>
        <time>2013-04-06T10:01:55Z</time>
      </trkpt>
      <trkpt lat="45.83362" lon="4.81611">
        <ele>304.39</ele>
        <time>2013-04-06T10:01:58Z</time>
      </trkpt>
      <trkpt lat="45.83358" lon="4.81605">
        <ele>305.84</ele>
        <time>2013-04-06T10:02:02Z</time>
      </trkpt>
      <trkpt lat="45.83355" lon="4.81598">
        <ele>306.32</ele>
        <time>2013-04-06T10:02:06Z</time>
      </trkpt>
      <trkpt lat="45.83355" lon="4.81593">
        <ele>306.32</ele>
        <time>2013-04-06T10:02:08Z</time>
      </trkpt>
      <trkpt lat="45.83352" lon="4.81583">
        <ele>307.28</ele>
        <time>2013-04-06T10:02:13Z</time>
      </trkpt>
      <trkpt lat="45.83343" lon="4.81569">
        <ele>308.24</ele>
        <time>2013-04-06T10:02:21Z</time>
      </trkpt>
      <trkpt lat="45.83337" lon="4.81548">
        <ele>308.72</ele>
        <time>2013-04-06T10:02:32Z</time>
      </trkpt>
      <trkpt lat="45.83329" lon="4.81529">
        <ele>309.68</ele>
        <time>2013-04-06T10:02:42Z</time>
      </trkpt>
      <trkpt lat="45.83328" lon="4.81521">
        <ele>310.16</ele>
        <time>2013-04-06T10:02:47Z</time>
      </trkpt>
      <trkpt lat="45.83326" lon="4.81497">
        <ele>311.12</ele>
        <time>2013-04-06T10:02:59Z</time>
      </trkpt>
      <trkpt lat="45.83323" lon="4.81477">
        <ele>313.05</ele>
        <time>2013-04-06T10:03:10Z</time>
      </trkpt>
      <trkpt lat="45.83324" lon="4.81465">
        <ele>315.45</ele>
        <time>2013-04-06T10:03:17Z</time>
      </trkpt>
      <trkpt lat="45.8334" lon="4.81446">
        <ele>319.3</ele>
        <time>2013-04-06T10:03:26Z</time>
      </trkpt>
      <trkpt lat="45.83355" lon="4.81429">
        <ele>320.26</ele>
        <time>2013-04-06T10:03:38Z</time>
      </trkpt>
      <trkpt lat="45.83362" lon="4.81427">
        <ele>320.74</ele>
        <time>2013-04-06T10:03:43Z</time>
      </trkpt>
      <trkpt lat="45.83377" lon="4.81417">
        <ele>324.1</ele>
        <time>2013-04-06T10:03:55Z</time>
      </trkpt>
      <trkpt lat="45.83387" lon="4.81411">
        <ele>326.99</ele>
        <time>2013-04-06T10:04:05Z</time>
      </trkpt>
      <trkpt lat="45.834" lon="4.81402">
        <ele>328.91</ele>
        <time>2013-04-06T10:04:15Z</time>
      </trkpt>
      <trkpt lat="45.8342" lon="4.8139">
        <ele>328.91</ele>
        <time>2013-04-06T10:04:26Z</time>
      </trkpt>
      <trkpt lat="45.83436" lon="4.8139">
        <ele>329.87</ele>
        <time>2013-04-06T10:04:34Z</time>
      </trkpt>
      <trkpt lat="45.83435" lon="4.81373">
        <ele>330.83</ele>
        <time>2013-04-06T10:04:42Z</time>
      </trkpt>
      <trkpt lat="45.83431" lon="4.81363">
        <ele>332.27</ele>
        <time>2013-04-06T10:04:47Z</time>
      </trkpt>
      <trkpt lat="45.83436" lon="4.81366">
        <ele>334.68</ele>
        <time>2013-04-06T10:04:52Z</time>
      </trkpt>
      <trkpt lat="45.83436" lon="4.81369">
        <ele>335.16</ele>
        <time>2013-04-06T10:04:57Z</time>
      </trkpt>
      <trkpt lat="45.83433" lon="4.81364">
        <ele>336.12</ele>
        <time>2013-04-06T10:05:01Z</time>
      </trkpt>
      <trkpt lat="45.83432" lon="4.8135">
        <ele>337.08</ele>
        <time>2013-04-06T10:05:09Z</time>
      </trkpt>
      <trkpt lat="45.83452" lon="4.81345">
        <ele>339.48</ele>
        <time>2013-04-06T10:05:16Z</time>
      </trkpt>
      <trkpt lat="45.8347" lon="4.81354">
        <ele>341.41</ele>
        <time>2013-04-06T10:05:24Z</time>
      </trkpt>
      <trkpt lat="45.83485" lon="4.81351">
        <ele>342.85</ele>
        <time>2013-04-06T10:05:32Z</time>
      </trkpt>
      <trkpt lat="45.83498" lon="4.81344">
        <ele>344.77</ele>
        <time>2013-04-06T10:05:39Z</time>
      </trkpt>
      <trkpt lat="45.83514" lon="4.81333">
        <ele>345.73</ele>
        <time>2013-04-06T10:05:46Z</time>
      </trkpt>
      <trkpt lat="45.8353" lon="4.81329">
        <ele>348.62</ele>
        <time>2013-04-06T10:05:54Z</time>
      </trkpt>
      <trkpt lat="45.83549" lon="4.81315">
        <ele>351.02</ele>
        <time>2013-04-06T10:06:02Z</time>
      </trkpt>
      <trkpt lat="45.83569" lon="4.81295">
        <ele>351.5</ele>
        <time>2013-04-06T10:06:12Z</time>
      </trkpt>
      <trkpt lat="45.83584" lon="4.81286">
        <ele>352.46</ele>
        <time>2013-04-06T10:06:20Z</time>
      </trkpt>
      <trkpt lat="45.83606" lon="4.81274">
        <ele>352.46</ele>
        <time>2013-04-06T10:06:31Z</time>
      </trkpt>
      <trkpt lat="45.83632" lon="4.8126">
        <ele>352.46</ele>
        <time>2013-04-06T10:06:40Z</time>
      </trkpt>
      <trkpt lat="45.83645" lon="4.81243">
        <ele>352.94</ele>
        <time>2013-04-06T10:06:46Z</time>
      </trkpt>
      <trkpt lat="45.83655" lon="4.81232">
        <ele>352.94</ele>
        <time>2013-04-06T10:06:52Z</time>
      </trkpt>
      <trkpt lat="45.83666" lon="4.81225">
        <ele>352.46</ele>
        <time>2013-04-06T10:06:56Z</time>
      </trkpt>
      <trkpt lat="45.83687" lon="4.81213">
        <ele>351.98</ele>
        <time>2013-04-06T10:07:04Z</time>
      </trkpt>
      <trkpt lat="45.83693" lon="4.81211">
        <ele>351.98</ele>
        <time>2013-04-06T10:07:10Z</time>
      </trkpt>
      <trkpt lat="45.837" lon="4.81213">
        <ele>351.98</ele>
        <time>2013-04-06T10:07:14Z</time>
      </trkpt>
      <trkpt lat="45.83718" lon="4.81206">
        <ele>351.02</ele>
        <time>2013-04-06T10:07:19Z</time>
      </trkpt>
      <trkpt lat="45.83776" lon="4.81171">
        <ele>350.54</ele>
        <time>2013-04-06T10:07:26Z</time>
      </trkpt>
      <trkpt lat="45.8378" lon="4.81148">
        <ele>349.58</ele>
        <time>2013-04-06T10:07:34Z</time>
      </trkpt>
      <trkpt lat="45.83785" lon="4.8113">
        <ele>352.46</ele>
        <time>2013-04-06T10:07:45Z</time>
      </trkpt>
      <trkpt lat="45.83784" lon="4.81117">
        <ele>355.34</ele>
        <time>2013-04-06T10:07:55Z</time>
      </trkpt>
      <trkpt lat="45.83785" lon="4.81102">
        <ele>355.83</ele>
        <time>2013-04-06T10:08:07Z</time>
      </trkpt>
      <trkpt lat="45.83788" lon="4.81079">
        <ele>355.83</ele>
        <time>2013-04-06T10:08:18Z</time>
      </trkpt>
      <trkpt lat="45.83785" lon="4.81054">
        <ele>352.94</ele>
        <time>2013-04-06T10:08:27Z</time>
      </trkpt>
      <trkpt lat="45.83783" lon="4.81042">
        <ele>353.42</ele>
        <time>2013-04-06T10:08:38Z</time>
      </trkpt>
      <trkpt lat="45.83779" lon="4.81041">
        <ele>353.9</ele>
        <time>2013-04-06T10:08:49Z</time>
      </trkpt>
      <trkpt lat="45.83778" lon="4.81041">
        <ele>353.9</ele>
        <time>2013-04-06T10:08:50Z</time>
      </trkpt>
      <trkpt lat="45.83773" lon="4.81035">
        <ele>358.23</ele>
        <time>2013-04-06T10:09:00Z</time>
      </trkpt>
      <trkpt lat="45.83774" lon="4.81024">
        <ele>359.19</ele>
        <time>2013-04-06T10:09:12Z</time>
      </trkpt>
      <trkpt lat="45.83775" lon="4.81008">
        <ele>360.63</ele>
        <time>2013-04-06T10:09:21Z</time>
      </trkpt>
      <trkpt lat="45.83777" lon="4.81004">
        <ele>362.07</ele>
        <time>2013-04-06T10:09:31Z</time>
      </trkpt>
      <trkpt lat="45.83787" lon="4.80996">
        <ele>363.52</ele>
        <time>2013-04-06T10:09:41Z</time>
      </trkpt>
      <trkpt lat="45.83797" lon="4.80983">
        <ele>363.52</ele>
        <time>2013-04-06T10:09:52Z</time>
      </trkpt>
      <trkpt lat="45.83808" lon="4.80968">
        <ele>363.52</ele>
        <time>2013-04-06T10:10:05Z</time>
      </trkpt>
      <trkpt lat="45.83818" lon="4.80957">
        <ele>364.48</ele>
        <time>2013-04-06T10:10:16Z</time>
      </trkpt>
      <trkpt lat="45.83828" lon="4.80951">
        <ele>365.44</ele>
        <time>2013-04-06T10:10:26Z</time>
      </trkpt>
      <trkpt lat="45.83839" lon="4.80939">
        <ele>366.4</ele>
        <time>2013-04-06T10:10:38Z</time>
      </trkpt>
      <trkpt lat="45.83846" lon="4.8093">
        <ele>366.4</ele>
        <time>2013-04-06T10:10:48Z</time>
      </trkpt>
      <trkpt lat="45.83859" lon="4.80919">
        <ele>376.01</ele>
        <time>2013-04-06T10:11:00Z</time>
      </trkpt>
      <trkpt lat="45.8386" lon="4.80918">
        <ele>380.82</ele>
        <time>2013-04-06T10:11:09Z</time>
      </trkpt>
      <trkpt lat="45.8386" lon="4.80931">
        <ele>384.66</ele>
        <time>2013-04-06T10:11:18Z</time>
      </trkpt>
      <trkpt lat="45.83861" lon="4.80955">
        <ele>389.95</ele>
        <time>2013-04-06T10:11:28Z</time>
      </trkpt>
      <trkpt lat="45.83858" lon="4.80965">
        <ele>392.84</ele>
        <time>2013-04-06T10:11:33Z</time>
      </trkpt>
      <trkpt lat="45.83859" lon="4.80978">
        <ele>395.24</ele>
        <time>2013-04-06T10:11:40Z</time>
      </trkpt>
      <trkpt lat="45.83866" lon="4.80983">
        <ele>396.2</ele>
        <time>2013-04-06T10:11:50Z</time>
      </trkpt>
      <trkpt lat="45.83872" lon="4.80986">
        <ele>401.01</ele>
        <time>2013-04-06T10:12:02Z</time>
      </trkpt>
      <trkpt lat="45.83877" lon="4.80983">
        <ele>403.89</ele>
        <time>2013-04-06T10:12:09Z</time>
      </trkpt>
      <trkpt lat="45.83885" lon="4.80983">
        <ele>406.77</ele>
        <time>2013-04-06T10:12:19Z</time>
      </trkpt>
      <trkpt lat="45.83892" lon="4.8098">
        <ele>408.7</ele>
        <time>2013-04-06T10:12:29Z</time>
      </trkpt>
      <trkpt lat="45.83905" lon="4.80967">
        <ele>412.06</ele>
        <time>2013-04-06T10:12:40Z</time>
      </trkpt>
      <trkpt lat="45.83913" lon="4.80965">
        <ele>413.02</ele>
        <time>2013-04-06T10:12:51Z</time>
      </trkpt>
      <trkpt lat="45.83916" lon="4.80962">
        <ele>413.02</ele>
        <time>2013-04-06T10:12:56Z</time>
      </trkpt>
      <trkpt lat="45.83923" lon="4.80958">
        <ele>413.5</ele>
        <time>2013-04-06T10:13:07Z</time>
      </trkpt>
      <trkpt lat="45.83935" lon="4.80947">
        <ele>413.5</ele>
        <time>2013-04-06T10:13:19Z</time>
      </trkpt>
      <trkpt lat="45.8394" lon="4.80943">
        <ele>413.02</ele>
        <time>2013-04-06T10:13:27Z</time>
      </trkpt>
      <trkpt lat="45.83948" lon="4.80945">
        <ele>413.5</ele>
        <time>2013-04-06T10:13:33Z</time>
      </trkpt>
      <trkpt lat="45.83948" lon="4.80951">
        <ele>413.98</ele>
        <time>2013-04-06T10:13:35Z</time>
      </trkpt>
      <trkpt lat="45.83947" lon="4.80965">
        <ele>416.39</ele>
        <time>2013-04-06T10:13:38Z</time>
      </trkpt>
      <trkpt lat="45.83948" lon="4.80978">
        <ele>421.19</ele>
        <time>2013-04-06T10:13:42Z</time>
      </trkpt>
      <trkpt lat="45.83943" lon="4.81011">
        <ele>427.92</ele>
        <time>2013-04-06T10:13:51Z</time>
      </trkpt>
      <trkpt lat="45.83943" lon="4.81022">
        <ele>429.37</ele>
        <time>2013-04-06T10:13:55Z</time>
      </trkpt>
      <trkpt lat="45.83948" lon="4.81045">
        <ele>428.89</ele>
        <time>2013-04-06T10:14:04Z</time>
      </trkpt>
      <trkpt lat="45.83957" lon="4.81069">
        <ele>429.37</ele>
        <time>2013-04-06T10:14:10Z</time>
      </trkpt>
      <trkpt lat="45.83964" lon="4.81078">
        <ele>429.37</ele>
        <time>2013-04-06T10:14:14Z</time>
      </trkpt>
      <trkpt lat="45.83973" lon="4.81091">
        <ele>428.89</ele>
        <time>2013-04-06T10:14:20Z</time>
      </trkpt>
      <trkpt lat="45.83976" lon="4.81105">
        <ele>427.92</ele>
        <time>2013-04-06T10:14:24Z</time>
      </trkpt>
      <trkpt lat="45.83979" lon="4.81113">
        <ele>427.44</ele>
        <time>2013-04-06T10:14:27Z</time>
      </trkpt>
      <trkpt lat="45.83986" lon="4.81133">
        <ele>428.4</ele>
        <time>2013-04-06T10:14:34Z</time>
      </trkpt>
      <trkpt lat="45.83993" lon="4.81148">
        <ele>428.89</ele>
        <time>2013-04-06T10:14:39Z</time>
      </trkpt>
      <trkpt lat="45.83999" lon="4.81175">
        <ele>429.85</ele>
        <time>2013-04-06T10:14:46Z</time>
      </trkpt>
      <trkpt lat="45.8401" lon="4.81199">
        <ele>430.81</ele>
        <time>2013-04-06T10:14:53Z</time>
      </trkpt>
      <trkpt lat="45.84018" lon="4.81218">
        <ele>431.77</ele>
        <time>2013-04-06T10:14:58Z</time>
      </trkpt>
      <trkpt lat="45.84024" lon="4.81223">
        <ele>432.73</ele>
        <time>2013-04-06T10:15:00Z</time>
      </trkpt>
      <trkpt lat="45.84041" lon="4.81236">
        <ele>433.69</ele>
        <time>2013-04-06T10:15:08Z</time>
      </trkpt>
      <trkpt lat="45.84056" lon="4.81241">
        <ele>434.17</ele>
        <time>2013-04-06T10:15:14Z</time>
      </trkpt>
      <trkpt lat="45.84066" lon="4.81244">
        <ele>434.17</ele>
        <time>2013-04-06T10:15:18Z</time>
      </trkpt>
      <trkpt lat="45.84083" lon="4.81241">
        <ele>434.65</ele>
        <time>2013-04-06T10:15:24Z</time>
      </trkpt>
      <trkpt lat="45.84101" lon="4.81243">
        <ele>434.65</ele>
        <time>2013-04-06T10:15:30Z</time>
      </trkpt>
      <trkpt lat="45.84104" lon="4.81244">
        <ele>434.17</ele>
        <time>2013-04-06T10:15:31Z</time>
      </trkpt>
      <trkpt lat="45.84121" lon="4.81252">
        <ele>434.17</ele>
        <time>2013-04-06T10:15:38Z</time>
      </trkpt>
      <trkpt lat="45.84123" lon="4.81254">
        <ele>434.17</ele>
        <time>2013-04-06T10:15:39Z</time>
      </trkpt>
      <trkpt lat="45.84135" lon="4.81263">
        <ele>434.17</ele>
        <time>2013-04-06T10:15:44Z</time>
      </trkpt>
      <trkpt lat="45.84161" lon="4.81253">
        <ele>434.17</ele>
        <time>2013-04-06T10:15:51Z</time>
      </trkpt>
      <trkpt lat="45.84173" lon="4.81245">
        <ele>432.73</ele>
        <time>2013-04-06T10:15:56Z</time>
      </trkpt>
      <trkpt lat="45.84189" lon="4.81246">
        <ele>432.25</ele>
        <time>2013-04-06T10:16:02Z</time>
      </trkpt>
      <trkpt lat="45.84202" lon="4.81251">
        <ele>430.81</ele>
        <time>2013-04-06T10:16:08Z</time>
      </trkpt>
      <trkpt lat="45.84234" lon="4.81242">
        <ele>432.25</ele>
        <time>2013-04-06T10:16:16Z</time>
      </trkpt>
      <trkpt lat="45.84253" lon="4.81246">
        <ele>433.69</ele>
        <time>2013-04-06T10:16:22Z</time>
      </trkpt>
      <trkpt lat="45.84255" lon="4.81247">
        <ele>434.17</ele>
        <time>2013-04-06T10:16:23Z</time>
      </trkpt>
      <trkpt lat="45.84269" lon="4.81256">
        <ele>434.17</ele>
        <time>2013-04-06T10:16:29Z</time>
      </trkpt>
      <trkpt lat="45.84271" lon="4.81258">
        <ele>434.17</ele>
        <time>2013-04-06T10:16:30Z</time>
      </trkpt>
      <trkpt lat="45.84296" lon="4.81267">
        <ele>433.69</ele>
        <time>2013-04-06T10:16:39Z</time>
      </trkpt>
      <trkpt lat="45.84309" lon="4.81274">
        <ele>432.73</ele>
        <time>2013-04-06T10:16:44Z</time>
      </trkpt>
      <trkpt lat="45.84315" lon="4.81272">
        <ele>432.25</ele>
        <time>2013-04-06T10:16:47Z</time>
      </trkpt>
      <trkpt lat="45.84325" lon="4.81251">
        <ele>431.77</ele>
        <time>2013-04-06T10:16:54Z</time>
      </trkpt>
      <trkpt lat="45.84331" lon="4.81232">
        <ele>431.29</ele>
        <time>2013-04-06T10:17:01Z</time>
      </trkpt>
      <trkpt lat="45.84333" lon="4.81223">
        <ele>430.33</ele>
        <time>2013-04-06T10:17:09Z</time>
      </trkpt>
      <trkpt lat="45.84334" lon="4.81211">
        <ele>430.33</ele>
        <time>2013-04-06T10:17:18Z</time>
      </trkpt>
      <trkpt lat="45.84336" lon="4.81203">
        <ele>430.81</ele>
        <time>2013-04-06T10:17:25Z</time>
      </trkpt>
      <trkpt lat="45.84334" lon="4.81195">
        <ele>431.77</ele>
        <time>2013-04-06T10:17:33Z</time>
      </trkpt>
      <trkpt lat="45.84334" lon="4.81193">
        <ele>431.77</ele>
        <time>2013-04-06T10:17:34Z</time>
      </trkpt>
      <trkpt lat="45.84338" lon="4.81179">
        <ele>433.21</ele>
        <time>2013-04-06T10:17:39Z</time>
      </trkpt>
      <trkpt lat="45.84339" lon="4.8117">
        <ele>433.69</ele>
        <time>2013-04-06T10:17:46Z</time>
      </trkpt>
      <trkpt lat="45.84344" lon="4.81157">
        <ele>434.65</ele>
        <time>2013-04-06T10:17:50Z</time>
      </trkpt>
      <trkpt lat="45.84347" lon="4.81143">
        <ele>435.13</ele>
        <time>2013-04-06T10:17:54Z</time>
      </trkpt>
      <trkpt lat="45.8435" lon="4.81123">
        <ele>435.61</ele>
        <time>2013-04-06T10:18:03Z</time>
      </trkpt>
      <trkpt lat="45.84356" lon="4.81106">
        <ele>436.1</ele>
        <time>2013-04-06T10:18:11Z</time>
      </trkpt>
      <trkpt lat="45.84358" lon="4.81088">
        <ele>437.06</ele>
        <time>2013-04-06T10:18:20Z</time>
      </trkpt>
      <trkpt lat="45.84357" lon="4.81083">
        <ele>438.02</ele>
        <time>2013-04-06T10:18:26Z</time>
      </trkpt>
      <trkpt lat="45.84358" lon="4.81075">
        <ele>438.5</ele>
        <time>2013-04-06T10:18:32Z</time>
      </trkpt>
      <trkpt lat="45.84362" lon="4.81059">
        <ele>439.46</ele>
        <time>2013-04-06T10:18:39Z</time>
      </trkpt>
      <trkpt lat="45.84362" lon="4.81055">
        <ele>439.46</ele>
        <time>2013-04-06T10:18:42Z</time>
      </trkpt>
      <trkpt lat="45.8436" lon="4.81045">
        <ele>438.98</ele>
        <time>2013-04-06T10:18:49Z</time>
      </trkpt>
      <trkpt lat="45.84361" lon="4.81036">
        <ele>438.98</ele>
        <time>2013-04-06T10:18:56Z</time>
      </trkpt>
      <trkpt lat="45.84363" lon="4.81021">
        <ele>438.02</ele>
        <time>2013-04-06T10:19:04Z</time>
      </trkpt>
      <trkpt lat="45.84366" lon="4.81009">
        <ele>438.02</ele>
        <time>2013-04-06T10:19:12Z</time>
      </trkpt>
      <trkpt lat="45.84368" lon="4.81001">
        <ele>438.02</ele>
        <time>2013-04-06T10:19:16Z</time>
      </trkpt>
      <trkpt lat="45.84376" lon="4.80974">
        <ele>439.94</ele>
        <time>2013-04-06T10:19:23Z</time>
      </trkpt>
      <trkpt lat="45.8438" lon="4.80962">
        <ele>441.38</ele>
        <time>2013-04-06T10:19:29Z</time>
      </trkpt>
      <trkpt lat="45.84386" lon="4.80945">
        <ele>443.79</ele>
        <time>2013-04-06T10:19:37Z</time>
      </trkpt>
      <trkpt lat="45.84391" lon="4.80926">
        <ele>446.67</ele>
        <time>2013-04-06T10:19:46Z</time>
      </trkpt>
      <trkpt lat="45.84391" lon="4.80925">
        <ele>446.67</ele>
        <time>2013-04-06T10:19:47Z</time>
      </trkpt>
      <trkpt lat="45.84394" lon="4.80915">
        <ele>448.11</ele>
        <time>2013-04-06T10:19:55Z</time>
      </trkpt>
      <trkpt lat="45.84395" lon="4.80904">
        <ele>449.55</ele>
        <time>2013-04-06T10:20:02Z</time>
      </trkpt>
      <trkpt lat="45.84397" lon="4.80895">
        <ele>449.55</ele>
        <time>2013-04-06T10:20:05Z</time>
      </trkpt>
      <trkpt lat="45.844" lon="4.80884">
        <ele>451.96</ele>
        <time>2013-04-06T10:20:13Z</time>
      </trkpt>
      <trkpt lat="45.84403" lon="4.80871">
        <ele>453.4</ele>
        <time>2013-04-06T10:20:21Z</time>
      </trkpt>
      <trkpt lat="45.84404" lon="4.8086">
        <ele>455.32</ele>
        <time>2013-04-06T10:20:29Z</time>
      </trkpt>
      <trkpt lat="45.84404" lon="4.80849">
        <ele>457.24</ele>
        <time>2013-04-06T10:20:38Z</time>
      </trkpt>
      <trkpt lat="45.84403" lon="4.80837">
        <ele>458.21</ele>
        <time>2013-04-06T10:20:46Z</time>
      </trkpt>
      <trkpt lat="45.84405" lon="4.80814">
        <ele>461.09</ele>
        <time>2013-04-06T10:20:54Z</time>
      </trkpt>
      <trkpt lat="45.84407" lon="4.80791">
        <ele>465.42</ele>
        <time>2013-04-06T10:21:04Z</time>
      </trkpt>
      <trkpt lat="45.84407" lon="4.80778">
        <ele>469.26</ele>
        <time>2013-04-06T10:21:12Z</time>
      </trkpt>
      <trkpt lat="45.84408" lon="4.80771">
        <ele>472.63</ele>
        <time>2013-04-06T10:21:20Z</time>
      </trkpt>
      <trkpt lat="45.84408" lon="4.80768">
        <ele>473.59</ele>
        <time>2013-04-06T10:21:22Z</time>
      </trkpt>
      <trkpt lat="45.84407" lon="4.80759">
        <ele>477.43</ele>
        <time>2013-04-06T10:21:29Z</time>
      </trkpt>
      <trkpt lat="45.84406" lon="4.80751">
        <ele>478.39</ele>
        <time>2013-04-06T10:21:34Z</time>
      </trkpt>
      <trkpt lat="45.84406" lon="4.80749">
        <ele>479.35</ele>
        <time>2013-04-06T10:21:35Z</time>
      </trkpt>
      <trkpt lat="45.84409" lon="4.80738">
        <ele>481.28</ele>
        <time>2013-04-06T10:21:40Z</time>
      </trkpt>
      <trkpt lat="45.84408" lon="4.80728">
        <ele>483.68</ele>
        <time>2013-04-06T10:21:48Z</time>
      </trkpt>
      <trkpt lat="45.84406" lon="4.80721">
        <ele>486.08</ele>
        <time>2013-04-06T10:21:57Z</time>
      </trkpt>
      <trkpt lat="45.84408" lon="4.80705">
        <ele>490.89</ele>
        <time>2013-04-06T10:22:08Z</time>
      </trkpt>
      <trkpt lat="45.84406" lon="4.80696">
        <ele>492.33</ele>
        <time>2013-04-06T10:22:13Z</time>
      </trkpt>
      <trkpt lat="45.844" lon="4.80685">
        <ele>495.7</ele>
        <time>2013-04-06T10:22:22Z</time>
      </trkpt>
      <trkpt lat="45.84401" lon="4.80679">
        <ele>496.66</ele>
        <time>2013-04-06T10:22:30Z</time>
      </trkpt>
      <trkpt lat="45.84402" lon="4.80664">
        <ele>498.1</ele>
        <time>2013-04-06T10:22:40Z</time>
      </trkpt>
      <trkpt lat="45.84403" lon="4.80655">
        <ele>497.62</ele>
        <time>2013-04-06T10:22:44Z</time>
      </trkpt>
      <trkpt lat="45.8441" lon="4.80634">
        <ele>498.1</ele>
        <time>2013-04-06T10:22:51Z</time>
      </trkpt>
      <trkpt lat="45.84415" lon="4.80621">
        <ele>498.1</ele>
        <time>2013-04-06T10:22:59Z</time>
      </trkpt>
      <trkpt lat="45.84417" lon="4.80618">
        <ele>498.58</ele>
        <time>2013-04-06T10:23:01Z</time>
      </trkpt>
      <trkpt lat="45.84421" lon="4.80618">
        <ele>498.1</ele>
        <time>2013-04-06T10:23:04Z</time>
      </trkpt>
      <trkpt lat="45.84427" lon="4.80619">
        <ele>498.1</ele>
        <time>2013-04-06T10:23:08Z</time>
      </trkpt>
      <trkpt lat="45.84447" lon="4.80621">
        <ele>497.62</ele>
        <time>2013-04-06T10:23:16Z</time>
      </trkpt>
      <trkpt lat="45.84469" lon="4.80617">
        <ele>496.66</ele>
        <time>2013-04-06T10:23:24Z</time>
      </trkpt>
      <trkpt lat="45.84487" lon="4.80612">
        <ele>495.7</ele>
        <time>2013-04-06T10:23:32Z</time>
      </trkpt>
      <trkpt lat="45.845" lon="4.80605">
        <ele>493.77</ele>
        <time>2013-04-06T10:23:38Z</time>
      </trkpt>
      <trkpt lat="45.84516" lon="4.80597">
        <ele>491.85</ele>
        <time>2013-04-06T10:23:45Z</time>
      </trkpt>
      <trkpt lat="45.8453" lon="4.80593">
        <ele>490.41</ele>
        <time>2013-04-06T10:23:50Z</time>
      </trkpt>
      <trkpt lat="45.84549" lon="4.80603">
        <ele>488.97</ele>
        <time>2013-04-06T10:23:58Z</time>
      </trkpt>
      <trkpt lat="45.84563" lon="4.80615">
        <ele>489.93</ele>
        <time>2013-04-06T10:24:05Z</time>
      </trkpt>
      <trkpt lat="45.84574" lon="4.80629">
        <ele>490.89</ele>
        <time>2013-04-06T10:24:11Z</time>
      </trkpt>
      <trkpt lat="45.84588" lon="4.80643">
        <ele>491.37</ele>
        <time>2013-04-06T10:24:18Z</time>
      </trkpt>
      <trkpt lat="45.84609" lon="4.80647">
        <ele>491.85</ele>
        <time>2013-04-06T10:24:26Z</time>
      </trkpt>
      <trkpt lat="45.84629" lon="4.80645">
        <ele>492.33</ele>
        <time>2013-04-06T10:24:32Z</time>
      </trkpt>
      <trkpt lat="45.84655" lon="4.80649">
        <ele>493.77</ele>
        <time>2013-04-06T10:24:41Z</time>
      </trkpt>
      <trkpt lat="45.84674" lon="4.8065">
        <ele>494.74</ele>
        <time>2013-04-06T10:24:47Z</time>
      </trkpt>
      <trkpt lat="45.8468" lon="4.80651">
        <ele>494.26</ele>
        <time>2013-04-06T10:24:49Z</time>
      </trkpt>
      <trkpt lat="45.8471" lon="4.80649">
        <ele>494.74</ele>
        <time>2013-04-06T10:24:59Z</time>
      </trkpt>
      <trkpt lat="45.84724" lon="4.80646">
        <ele>494.74</ele>
        <time>2013-04-06T10:25:04Z</time>
      </trkpt>
      <trkpt lat="45.84747" lon="4.80639">
        <ele>494.74</ele>
        <time>2013-04-06T10:25:13Z</time>
      </trkpt>
      <trkpt lat="45.84766" lon="4.80635">
        <ele>494.74</ele>
        <time>2013-04-06T10:25:20Z</time>
      </trkpt>
      <trkpt lat="45.84787" lon="4.80637">
        <ele>496.66</ele>
        <time>2013-04-06T10:25:28Z</time>
      </trkpt>
      <trkpt lat="45.84808" lon="4.80647">
        <ele>497.62</ele>
        <time>2013-04-06T10:25:36Z</time>
      </trkpt>
      <trkpt lat="45.84828" lon="4.80652">
        <ele>499.06</ele>
        <time>2013-04-06T10:25:43Z</time>
      </trkpt>
      <trkpt lat="45.84848" lon="4.80653">
        <ele>500.02</ele>
        <time>2013-04-06T10:25:49Z</time>
      </trkpt>
      <trkpt lat="45.84863" lon="4.80657">
        <ele>500.5</ele>
        <time>2013-04-06T10:25:54Z</time>
      </trkpt>
      <trkpt lat="45.84884" lon="4.80677">
        <ele>502.43</ele>
        <time>2013-04-06T10:26:05Z</time>
      </trkpt>
      <trkpt lat="45.84903" lon="4.80685">
        <ele>502.43</ele>
        <time>2013-04-06T10:26:12Z</time>
      </trkpt>
      <trkpt lat="45.84926" lon="4.80691">
        <ele>502.91</ele>
        <time>2013-04-06T10:26:21Z</time>
      </trkpt>
      <trkpt lat="45.84946" lon="4.80699">
        <ele>503.39</ele>
        <time>2013-04-06T10:26:28Z</time>
      </trkpt>
      <trkpt lat="45.84967" lon="4.80715">
        <ele>503.87</ele>
        <time>2013-04-06T10:26:36Z</time>
      </trkpt>
      <trkpt lat="45.84981" lon="4.80734">
        <ele>504.35</ele>
        <time>2013-04-06T10:26:44Z</time>
      </trkpt>
      <trkpt lat="45.84994" lon="4.80752">
        <ele>504.35</ele>
        <time>2013-04-06T10:26:51Z</time>
      </trkpt>
      <trkpt lat="45.85007" lon="4.80776">
        <ele>502.91</ele>
        <time>2013-04-06T10:26:58Z</time>
      </trkpt>
      <trkpt lat="45.85023" lon="4.80803">
        <ele>502.91</ele>
        <time>2013-04-06T10:27:07Z</time>
      </trkpt>
      <trkpt lat="45.85034" lon="4.80832">
        <ele>502.43</ele>
        <time>2013-04-06T10:27:14Z</time>
      </trkpt>
      <trkpt lat="45.85048" lon="4.80856">
        <ele>501.95</ele>
        <time>2013-04-06T10:27:20Z</time>
      </trkpt>
      <trkpt lat="45.85067" lon="4.80886">
        <ele>500.5</ele>
        <time>2013-04-06T10:27:28Z</time>
      </trkpt>
      <trkpt lat="45.8508" lon="4.80919">
        <ele>499.54</ele>
        <time>2013-04-06T10:27:35Z</time>
      </trkpt>
      <trkpt lat="45.85099" lon="4.80951">
        <ele>498.1</ele>
        <time>2013-04-06T10:27:42Z</time>
      </trkpt>
      <trkpt lat="45.85114" lon="4.80972">
        <ele>497.62</ele>
        <time>2013-04-06T10:27:48Z</time>
      </trkpt>
      <trkpt lat="45.8513" lon="4.80996">
        <ele>497.14</ele>
        <time>2013-04-06T10:27:55Z</time>
      </trkpt>
      <trkpt lat="45.85142" lon="4.81015">
        <ele>496.18</ele>
        <time>2013-04-06T10:28:02Z</time>
      </trkpt>
      <trkpt lat="45.85154" lon="4.81036">
        <ele>495.7</ele>
        <time>2013-04-06T10:28:08Z</time>
      </trkpt>
      <trkpt lat="45.85163" lon="4.81057">
        <ele>494.74</ele>
        <time>2013-04-06T10:28:13Z</time>
      </trkpt>
      <trkpt lat="45.85178" lon="4.81082">
        <ele>494.26</ele>
        <time>2013-04-06T10:28:20Z</time>
      </trkpt>
      <trkpt lat="45.85196" lon="4.81105">
        <ele>493.77</ele>
        <time>2013-04-06T10:28:28Z</time>
      </trkpt>
      <trkpt lat="45.85216" lon="4.81117">
        <ele>492.81</ele>
        <time>2013-04-06T10:28:34Z</time>
      </trkpt>
      <trkpt lat="45.85235" lon="4.81129">
        <ele>492.33</ele>
        <time>2013-04-06T10:28:41Z</time>
      </trkpt>
      <trkpt lat="45.85252" lon="4.81145">
        <ele>491.85</ele>
        <time>2013-04-06T10:28:47Z</time>
      </trkpt>
      <trkpt lat="45.85269" lon="4.81165">
        <ele>491.37</ele>
        <time>2013-04-06T10:28:55Z</time>
      </trkpt>
      <trkpt lat="45.85283" lon="4.8118">
        <ele>490.89</ele>
        <time>2013-04-06T10:29:01Z</time>
      </trkpt>
      <trkpt lat="45.853" lon="4.81193">
        <ele>489.93</ele>
        <time>2013-04-06T10:29:07Z</time>
      </trkpt>
      <trkpt lat="45.85318" lon="4.81206">
        <ele>488.97</ele>
        <time>2013-04-06T10:29:14Z</time>
      </trkpt>
      <trkpt lat="45.85338" lon="4.81215">
        <ele>488.49</ele>
        <time>2013-04-06T10:29:22Z</time>
      </trkpt>
      <trkpt lat="45.85359" lon="4.81242">
        <ele>487.05</ele>
        <time>2013-04-06T10:29:31Z</time>
      </trkpt>
      <trkpt lat="45.8537" lon="4.81255">
        <ele>486.56</ele>
        <time>2013-04-06T10:29:38Z</time>
      </trkpt>
      <trkpt lat="45.85385" lon="4.81271">
        <ele>485.6</ele>
        <time>2013-04-06T10:29:45Z</time>
      </trkpt>
      <trkpt lat="45.85402" lon="4.81289">
        <ele>484.64</ele>
        <time>2013-04-06T10:29:51Z</time>
      </trkpt>
      <trkpt lat="45.85421" lon="4.81306">
        <ele>483.2</ele>
        <time>2013-04-06T10:29:57Z</time>
      </trkpt>
      <trkpt lat="45.85437" lon="4.8132">
        <ele>482.72</ele>
        <time>2013-04-06T10:30:02Z</time>
      </trkpt>
      <trkpt lat="45.85455" lon="4.81344">
        <ele>481.28</ele>
        <time>2013-04-06T10:30:09Z</time>
      </trkpt>
      <trkpt lat="45.85458" lon="4.81351">
        <ele>480.8</ele>
        <time>2013-04-06T10:30:14Z</time>
      </trkpt>
      <trkpt lat="45.8546" lon="4.81351">
        <ele>480.32</ele>
        <time>2013-04-06T10:30:25Z</time>
      </trkpt>
      <trkpt lat="45.85491" lon="4.81284">
        <ele>475.99</ele>
        <time>2013-04-06T10:30:35Z</time>
      </trkpt>
      <trkpt lat="45.85498" lon="4.81281">
        <ele>472.14</ele>
        <time>2013-04-06T10:30:48Z</time>
      </trkpt>
      <trkpt lat="45.85498" lon="4.81283">
        <ele>469.26</ele>
        <time>2013-04-06T10:31:04Z</time>
      </trkpt>
      <trkpt lat="45.85491" lon="4.81294">
        <ele>466.38</ele>
        <time>2013-04-06T10:31:12Z</time>
      </trkpt>
      <trkpt lat="45.85486" lon="4.81302">
        <ele>464.93</ele>
        <time>2013-04-06T10:31:17Z</time>
      </trkpt>
      <trkpt lat="45.85482" lon="4.81309">
        <ele>464.45</ele>
        <time>2013-04-06T10:31:25Z</time>
      </trkpt>
      <trkpt lat="45.8547" lon="4.81329">
        <ele>463.01</ele>
        <time>2013-04-06T10:31:33Z</time>
      </trkpt>
      <trkpt lat="45.85462" lon="4.81368">
        <ele>457.72</ele>
        <time>2013-04-06T10:31:42Z</time>
      </trkpt>
      <trkpt lat="45.85465" lon="4.81404">
        <ele>453.88</ele>
        <time>2013-04-06T10:31:49Z</time>
      </trkpt>
      <trkpt lat="45.85475" lon="4.81425">
        <ele>451.48</ele>
        <time>2013-04-06T10:31:54Z</time>
      </trkpt>
      <trkpt lat="45.85487" lon="4.81446">
        <ele>448.11</ele>
        <time>2013-04-06T10:31:59Z</time>
      </trkpt>
      <trkpt lat="45.85489" lon="4.81451">
        <ele>447.63</ele>
        <time>2013-04-06T10:32:00Z</time>
      </trkpt>
      <trkpt lat="45.85492" lon="4.81457">
        <ele>447.15</ele>
        <time>2013-04-06T10:32:01Z</time>
      </trkpt>
      <trkpt lat="45.85495" lon="4.81464">
        <ele>446.67</ele>
        <time>2013-04-06T10:32:02Z</time>
      </trkpt>
      <trkpt lat="45.85498" lon="4.8147">
        <ele>446.67</ele>
        <time>2013-04-06T10:32:03Z</time>
      </trkpt>
      <trkpt lat="45.85501" lon="4.81476">
        <ele>446.19</ele>
        <time>2013-04-06T10:32:04Z</time>
      </trkpt>
      <trkpt lat="45.85513" lon="4.81501">
        <ele>444.75</ele>
        <time>2013-04-06T10:32:08Z</time>
      </trkpt>
      <trkpt lat="45.85516" lon="4.81507">
        <ele>444.27</ele>
        <time>2013-04-06T10:32:09Z</time>
      </trkpt>
      <trkpt lat="45.85518" lon="4.81513">
        <ele>443.79</ele>
        <time>2013-04-06T10:32:10Z</time>
      </trkpt>
      <trkpt lat="45.85526" lon="4.81529">
        <ele>442.34</ele>
        <time>2013-04-06T10:32:13Z</time>
      </trkpt>
      <trkpt lat="45.85543" lon="4.81554">
        <ele>439.46</ele>
        <time>2013-04-06T10:32:19Z</time>
      </trkpt>
      <trkpt lat="45.85566" lon="4.81598">
        <ele>432.25</ele>
        <time>2013-04-06T10:32:27Z</time>
      </trkpt>
      <trkpt lat="45.8557" lon="4.81604">
        <ele>430.81</ele>
        <time>2013-04-06T10:32:28Z</time>
      </trkpt>
      <trkpt lat="45.85579" lon="4.81619">
        <ele>426.96</ele>
        <time>2013-04-06T10:32:31Z</time>
      </trkpt>
      <trkpt lat="45.85583" lon="4.81623">
        <ele>425.52</ele>
        <time>2013-04-06T10:32:32Z</time>
      </trkpt>
      <trkpt lat="45.85587" lon="4.81626">
        <ele>424.56</ele>
        <time>2013-04-06T10:32:33Z</time>
      </trkpt>
      <trkpt lat="45.85607" lon="4.81653">
        <ele>418.79</ele>
        <time>2013-04-06T10:32:40Z</time>
      </trkpt>
      <trkpt lat="45.85625" lon="4.81675">
        <ele>415.91</ele>
        <time>2013-04-06T10:32:46Z</time>
      </trkpt>
      <trkpt lat="45.85646" lon="4.81691">
        <ele>414.47</ele>
        <time>2013-04-06T10:32:53Z</time>
      </trkpt>
      <trkpt lat="45.85658" lon="4.81701">
        <ele>413.98</ele>
        <time>2013-04-06T10:33:00Z</time>
      </trkpt>
      <trkpt lat="45.85662" lon="4.81704">
        <ele>413.98</ele>
        <time>2013-04-06T10:33:08Z</time>
      </trkpt>
      <trkpt lat="45.85682" lon="4.81712">
        <ele>413.98</ele>
        <time>2013-04-06T10:33:15Z</time>
      </trkpt>
      <trkpt lat="45.85707" lon="4.81718">
        <ele>413.5</ele>
        <time>2013-04-06T10:33:22Z</time>
      </trkpt>
      <trkpt lat="45.8573" lon="4.81719">
        <ele>412.54</ele>
        <time>2013-04-06T10:33:28Z</time>
      </trkpt>
      <trkpt lat="45.85768" lon="4.81722">
        <ele>410.62</ele>
        <time>2013-04-06T10:33:38Z</time>
      </trkpt>
      <trkpt lat="45.85791" lon="4.81726">
        <ele>410.14</ele>
        <time>2013-04-06T10:33:45Z</time>
      </trkpt>
      <trkpt lat="45.85821" lon="4.81733">
        <ele>409.66</ele>
        <time>2013-04-06T10:33:54Z</time>
      </trkpt>
      <trkpt lat="45.85848" lon="4.81741">
        <ele>409.18</ele>
        <time>2013-04-06T10:34:01Z</time>
      </trkpt>
      <trkpt lat="45.85879" lon="4.81759">
        <ele>401.01</ele>
        <time>2013-04-06T10:34:09Z</time>
      </trkpt>
      <trkpt lat="45.85901" lon="4.81772">
        <ele>398.6</ele>
        <time>2013-04-06T10:34:16Z</time>
      </trkpt>
      <trkpt lat="45.85922" lon="4.81787">
        <ele>395.72</ele>
        <time>2013-04-06T10:34:23Z</time>
      </trkpt>
      <trkpt lat="45.85951" lon="4.81813">
        <ele>388.51</ele>
        <time>2013-04-06T10:34:31Z</time>
      </trkpt>
      <trkpt lat="45.85956" lon="4.81815">
        <ele>388.03</ele>
        <time>2013-04-06T10:34:32Z</time>
      </trkpt>
      <trkpt lat="45.85987" lon="4.81835">
        <ele>383.22</ele>
        <time>2013-04-06T10:34:40Z</time>
      </trkpt>
      <trkpt lat="45.8601" lon="4.81853">
        <ele>380.34</ele>
        <time>2013-04-06T10:34:47Z</time>
      </trkpt>
      <trkpt lat="45.86041" lon="4.8187">
        <ele>376.49</ele>
        <time>2013-04-06T10:34:56Z</time>
      </trkpt>
      <trkpt lat="45.8607" lon="4.81884">
        <ele>374.09</ele>
        <time>2013-04-06T10:35:04Z</time>
      </trkpt>
      <trkpt lat="45.86095" lon="4.819">
        <ele>372.65</ele>
        <time>2013-04-06T10:35:12Z</time>
      </trkpt>
      <trkpt lat="45.86119" lon="4.81918">
        <ele>367.36</ele>
        <time>2013-04-06T10:35:19Z</time>
      </trkpt>
      <trkpt lat="45.86145" lon="4.81935">
        <ele>362.55</ele>
        <time>2013-04-06T10:35:26Z</time>
      </trkpt>
      <trkpt lat="45.86163" lon="4.81964">
        <ele>354.86</ele>
        <time>2013-04-06T10:35:33Z</time>
      </trkpt>
      <trkpt lat="45.86173" lon="4.81995">
        <ele>350.06</ele>
        <time>2013-04-06T10:35:39Z</time>
      </trkpt>
      <trkpt lat="45.86184" lon="4.82019">
        <ele>347.17</ele>
        <time>2013-04-06T10:35:45Z</time>
      </trkpt>
      <trkpt lat="45.86206" lon="4.8204">
        <ele>343.33</ele>
        <time>2013-04-06T10:35:52Z</time>
      </trkpt>
      <trkpt lat="45.8622" lon="4.82049">
        <ele>342.85</ele>
        <time>2013-04-06T10:35:56Z</time>
      </trkpt>
      <trkpt lat="45.86254" lon="4.82067">
        <ele>340.92</ele>
        <time>2013-04-06T10:36:05Z</time>
      </trkpt>
      <trkpt lat="45.86285" lon="4.82085">
        <ele>339.48</ele>
        <time>2013-04-06T10:36:14Z</time>
      </trkpt>
      <trkpt lat="45.86308" lon="4.82105">
        <ele>333.71</ele>
        <time>2013-04-06T10:36:21Z</time>
      </trkpt>
      <trkpt lat="45.86331" lon="4.82119">
        <ele>328.91</ele>
        <time>2013-04-06T10:36:29Z</time>
      </trkpt>
      <trkpt lat="45.86349" lon="4.82144">
        <ele>326.5</ele>
        <time>2013-04-06T10:36:37Z</time>
      </trkpt>
      <trkpt lat="45.86348" lon="4.82156">
        <ele>326.02</ele>
        <time>2013-04-06T10:36:39Z</time>
      </trkpt>
      <trkpt lat="45.86349" lon="4.8216">
        <ele>326.02</ele>
        <time>2013-04-06T10:36:40Z</time>
      </trkpt>
      <trkpt lat="45.86369" lon="4.8216">
        <ele>323.62</ele>
        <time>2013-04-06T10:36:48Z</time>
      </trkpt>
      <trkpt lat="45.86386" lon="4.8214">
        <ele>321.7</ele>
        <time>2013-04-06T10:36:55Z</time>
      </trkpt>
      <trkpt lat="45.86406" lon="4.82135">
        <ele>318.81</ele>
        <time>2013-04-06T10:37:00Z</time>
      </trkpt>
      <trkpt lat="45.86434" lon="4.82134">
        <ele>315.45</ele>
        <time>2013-04-06T10:37:08Z</time>
      </trkpt>
      <trkpt lat="45.86456" lon="4.82131">
        <ele>312.57</ele>
        <time>2013-04-06T10:37:15Z</time>
      </trkpt>
      <trkpt lat="45.86487" lon="4.82124">
        <ele>308.72</ele>
        <time>2013-04-06T10:37:24Z</time>
      </trkpt>
      <trkpt lat="45.86517" lon="4.82124">
        <ele>304.88</ele>
        <time>2013-04-06T10:37:33Z</time>
      </trkpt>
      <trkpt lat="45.86548" lon="4.82123">
        <ele>301.03</ele>
        <time>2013-04-06T10:37:42Z</time>
      </trkpt>
      <trkpt lat="45.8656" lon="4.82106">
        <ele>299.11</ele>
        <time>2013-04-06T10:37:47Z</time>
      </trkpt>
      <trkpt lat="45.86564" lon="4.82091">
        <ele>296.22</ele>
        <time>2013-04-06T10:37:51Z</time>
      </trkpt>
      <trkpt lat="45.86567" lon="4.82089">
        <ele>294.3</ele>
        <time>2013-04-06T10:37:52Z</time>
      </trkpt>
      <trkpt lat="45.8657" lon="4.82088">
        <ele>293.34</ele>
        <time>2013-04-06T10:37:53Z</time>
      </trkpt>
      <trkpt lat="45.86595" lon="4.82086">
        <ele>289.01</ele>
        <time>2013-04-06T10:38:00Z</time>
      </trkpt>
      <trkpt lat="45.86618" lon="4.82092">
        <ele>288.05</ele>
        <time>2013-04-06T10:38:07Z</time>
      </trkpt>
      <trkpt lat="45.86639" lon="4.82092">
        <ele>287.09</ele>
        <time>2013-04-06T10:38:13Z</time>
      </trkpt>
      <trkpt lat="45.86671" lon="4.82093">
        <ele>286.13</ele>
        <time>2013-04-06T10:38:22Z</time>
      </trkpt>
      <trkpt lat="45.86688" lon="4.82094">
        <ele>285.65</ele>
        <time>2013-04-06T10:38:28Z</time>
      </trkpt>
      <trkpt lat="45.86715" lon="4.82095">
        <ele>282.77</ele>
        <time>2013-04-06T10:38:36Z</time>
      </trkpt>
      <trkpt lat="45.86744" lon="4.82092">
        <ele>279.88</ele>
        <time>2013-04-06T10:38:45Z</time>
      </trkpt>
      <trkpt lat="45.86782" lon="4.82087">
        <ele>274.11</ele>
        <time>2013-04-06T10:38:56Z</time>
      </trkpt>
      <trkpt lat="45.86801" lon="4.82098">
        <ele>269.79</ele>
        <time>2013-04-06T10:39:03Z</time>
      </trkpt>
      <trkpt lat="45.86818" lon="4.82114">
        <ele>266.42</ele>
        <time>2013-04-06T10:39:10Z</time>
      </trkpt>
      <trkpt lat="45.86837" lon="4.82134">
        <ele>262.1</ele>
        <time>2013-04-06T10:39:19Z</time>
      </trkpt>
      <trkpt lat="45.86862" lon="4.82138">
        <ele>258.73</ele>
        <time>2013-04-06T10:39:27Z</time>
      </trkpt>
      <trkpt lat="45.86883" lon="4.82153">
        <ele>254.41</ele>
        <time>2013-04-06T10:39:35Z</time>
      </trkpt>
      <trkpt lat="45.86904" lon="4.82174">
        <ele>250.08</ele>
        <time>2013-04-06T10:39:44Z</time>
      </trkpt>
      <trkpt lat="45.86926" lon="4.82189">
        <ele>250.08</ele>
        <time>2013-04-06T10:39:52Z</time>
      </trkpt>
      <trkpt lat="45.8694" lon="4.82208">
        <ele>249.6</ele>
        <time>2013-04-06T10:39:59Z</time>
      </trkpt>
      <trkpt lat="45.86961" lon="4.82228">
        <ele>248.64</ele>
        <time>2013-04-06T10:40:06Z</time>
      </trkpt>
      <trkpt lat="45.8698" lon="4.82244">
        <ele>246.72</ele>
        <time>2013-04-06T10:40:13Z</time>
      </trkpt>
      <trkpt lat="45.86997" lon="4.82244">
        <ele>244.79</ele>
        <time>2013-04-06T10:40:19Z</time>
      </trkpt>
      <trkpt lat="45.87004" lon="4.82234">
        <ele>242.87</ele>
        <time>2013-04-06T10:40:23Z</time>
      </trkpt>
      <trkpt lat="45.87005" lon="4.82232">
        <ele>242.39</ele>
        <time>2013-04-06T10:40:24Z</time>
      </trkpt>
      <trkpt lat="45.87017" lon="4.82197">
        <ele>238.06</ele>
        <time>2013-04-06T10:40:33Z</time>
      </trkpt>
      <trkpt lat="45.8702" lon="4.82171">
        <ele>235.18</ele>
        <time>2013-04-06T10:40:40Z</time>
      </trkpt>
      <trkpt lat="45.87019" lon="4.82167">
        <ele>234.7</ele>
        <time>2013-04-06T10:40:41Z</time>
      </trkpt>
      <trkpt lat="45.87017" lon="4.82163">
        <ele>234.22</ele>
        <time>2013-04-06T10:40:42Z</time>
      </trkpt>
      <trkpt lat="45.87016" lon="4.82159">
        <ele>233.74</ele>
        <time>2013-04-06T10:40:43Z</time>
      </trkpt>
      <trkpt lat="45.87014" lon="4.82154">
        <ele>233.74</ele>
        <time>2013-04-06T10:40:44Z</time>
      </trkpt>
      <trkpt lat="45.87012" lon="4.82149">
        <ele>234.22</ele>
        <time>2013-04-06T10:40:45Z</time>
      </trkpt>
      <trkpt lat="45.86999" lon="4.82119">
        <ele>231.81</ele>
        <time>2013-04-06T10:40:52Z</time>
      </trkpt>
      <trkpt lat="45.86983" lon="4.8208">
        <ele>226.53</ele>
        <time>2013-04-06T10:41:01Z</time>
      </trkpt>
      <trkpt lat="45.86983" lon="4.8205">
        <ele>223.64</ele>
        <time>2013-04-06T10:41:08Z</time>
      </trkpt>
      <trkpt lat="45.86981" lon="4.82026">
        <ele>219.8</ele>
        <time>2013-04-06T10:41:14Z</time>
      </trkpt>
      <trkpt lat="45.86979" lon="4.82">
        <ele>216.91</ele>
        <time>2013-04-06T10:41:22Z</time>
      </trkpt>
      <trkpt lat="45.86979" lon="4.81978">
        <ele>213.55</ele>
        <time>2013-04-06T10:41:30Z</time>
      </trkpt>
      <trkpt lat="45.86979" lon="4.81979">
        <ele>214.51</ele>
        <time>2013-04-06T10:41:39Z</time>
      </trkpt>
      <trkpt lat="45.8698" lon="4.81982">
        <ele>212.59</ele>
        <time>2013-04-06T10:41:48Z</time>
      </trkpt>
      <trkpt lat="45.8698" lon="4.81983">
        <ele>214.99</ele>
        <time>2013-04-06T10:41:56Z</time>
      </trkpt>
      <trkpt lat="45.86981" lon="4.8198">
        <ele>214.03</ele>
        <time>2013-04-06T10:42:04Z</time>
      </trkpt>
      <trkpt lat="45.86981" lon="4.81978">
        <ele>213.55</ele>
        <time>2013-04-06T10:42:05Z</time>
      </trkpt>
      <trkpt lat="45.86982" lon="4.81975">
        <ele>214.03</ele>
        <time>2013-04-06T10:42:07Z</time>
      </trkpt>
      <trkpt lat="45.86982" lon="4.81974">
        <ele>214.51</ele>
        <time>2013-04-06T10:42:08Z</time>
      </trkpt>
      <trkpt lat="45.86985" lon="4.81967">
        <ele>214.51</ele>
        <time>2013-04-06T10:42:12Z</time>
      </trkpt>
      <trkpt lat="45.86984" lon="4.81964">
        <ele>214.03</ele>
        <time>2013-04-06T10:42:13Z</time>
      </trkpt>
      <trkpt lat="45.86971" lon="4.81947">
        <ele>213.55</ele>
        <time>2013-04-06T10:42:20Z</time>
      </trkpt>
      <trkpt lat="45.86957" lon="4.8193">
        <ele>215.95</ele>
        <time>2013-04-06T10:42:26Z</time>
      </trkpt>
      <trkpt lat="45.86943" lon="4.81912">
        <ele>215.47</ele>
        <time>2013-04-06T10:42:33Z</time>
      </trkpt>
      <trkpt lat="45.86928" lon="4.81893">
        <ele>214.99</ele>
        <time>2013-04-06T10:42:41Z</time>
      </trkpt>
      <trkpt lat="45.86905" lon="4.81879">
        <ele>214.99</ele>
        <time>2013-04-06T10:42:50Z</time>
      </trkpt>
      <trkpt lat="45.86887" lon="4.81871">
        <ele>214.51</ele>
        <time>2013-04-06T10:42:57Z</time>
      </trkpt>
      <trkpt lat="45.86866" lon="4.81863">
        <ele>214.03</ele>
        <time>2013-04-06T10:43:04Z</time>
      </trkpt>
      <trkpt lat="45.86857" lon="4.81859">
        <ele>213.07</ele>
        <time>2013-04-06T10:43:08Z</time>
      </trkpt>
      <trkpt lat="45.86856" lon="4.81857">
        <ele>213.07</ele>
        <time>2013-04-06T10:43:09Z</time>
      </trkpt>
      <trkpt lat="45.86854" lon="4.81856">
        <ele>212.59</ele>
        <time>2013-04-06T10:43:10Z</time>
      </trkpt>
      <trkpt lat="45.86852" lon="4.81853">
        <ele>212.59</ele>
        <time>2013-04-06T10:43:11Z</time>
      </trkpt>
      <trkpt lat="45.8685" lon="4.8185">
        <ele>212.11</ele>
        <time>2013-04-06T10:43:12Z</time>
      </trkpt>
      <trkpt lat="45.86849" lon="4.81847">
        <ele>212.11</ele>
        <time>2013-04-06T10:43:13Z</time>
      </trkpt>
      <trkpt lat="45.86847" lon="4.81844">
        <ele>211.63</ele>
        <time>2013-04-06T10:43:14Z</time>
      </trkpt>
      <trkpt lat="45.86832" lon="4.81816">
        <ele>210.67</ele>
        <time>2013-04-06T10:43:24Z</time>
      </trkpt>
      <trkpt lat="45.86825" lon="4.81794">
        <ele>210.67</ele>
        <time>2013-04-06T10:43:33Z</time>
      </trkpt>
      <trkpt lat="45.86823" lon="4.81777">
        <ele>212.11</ele>
        <time>2013-04-06T10:43:41Z</time>
      </trkpt>
      <trkpt lat="45.8682" lon="4.81754">
        <ele>218.36</ele>
        <time>2013-04-06T10:43:52Z</time>
      </trkpt>
      <trkpt lat="45.86819" lon="4.81742">
        <ele>224.61</ele>
        <time>2013-04-06T10:43:58Z</time>
      </trkpt>
      <trkpt lat="45.86819" lon="4.81739">
        <ele>225.09</ele>
        <time>2013-04-06T10:43:59Z</time>
      </trkpt>
      <trkpt lat="45.86819" lon="4.81737">
        <ele>225.57</ele>
        <time>2013-04-06T10:44:00Z</time>
      </trkpt>
      <trkpt lat="45.86819" lon="4.81735">
        <ele>226.05</ele>
        <time>2013-04-06T10:44:01Z</time>
      </trkpt>
      <trkpt lat="45.8682" lon="4.81733">
        <ele>226.53</ele>
        <time>2013-04-06T10:44:02Z</time>
      </trkpt>
      <trkpt lat="45.86821" lon="4.8171">
        <ele>231.33</ele>
        <time>2013-04-06T10:44:14Z</time>
      </trkpt>
      <trkpt lat="45.86828" lon="4.81687">
        <ele>234.22</ele>
        <time>2013-04-06T10:44:26Z</time>
      </trkpt>
      <trkpt lat="45.86833" lon="4.81664">
        <ele>239.99</ele>
        <time>2013-04-06T10:44:38Z</time>
      </trkpt>
      <trkpt lat="45.86834" lon="4.8164">
        <ele>243.35</ele>
        <time>2013-04-06T10:44:49Z</time>
      </trkpt>
      <trkpt lat="45.86832" lon="4.81624">
        <ele>246.23</ele>
        <time>2013-04-06T10:44:59Z</time>
      </trkpt>
      <trkpt lat="45.86829" lon="4.81615">
        <ele>246.72</ele>
        <time>2013-04-06T10:45:04Z</time>
      </trkpt>
      <trkpt lat="45.86831" lon="4.81578">
        <ele>249.6</ele>
        <time>2013-04-06T10:45:16Z</time>
      </trkpt>
      <trkpt lat="45.86832" lon="4.81564">
        <ele>251.52</ele>
        <time>2013-04-06T10:45:26Z</time>
      </trkpt>
      <trkpt lat="45.86829" lon="4.81543">
        <ele>252.48</ele>
        <time>2013-04-06T10:45:37Z</time>
      </trkpt>
      <trkpt lat="45.86827" lon="4.81522">
        <ele>252</ele>
        <time>2013-04-06T10:45:47Z</time>
      </trkpt>
      <trkpt lat="45.86823" lon="4.81506">
        <ele>252.96</ele>
        <time>2013-04-06T10:45:54Z</time>
      </trkpt>
      <trkpt lat="45.86823" lon="4.81503">
        <ele>252.96</ele>
        <time>2013-04-06T10:45:55Z</time>
      </trkpt>
      <trkpt lat="45.86822" lon="4.81501">
        <ele>253.44</ele>
        <time>2013-04-06T10:45:56Z</time>
      </trkpt>
      <trkpt lat="45.86817" lon="4.81478">
        <ele>256.33</ele>
        <time>2013-04-06T10:46:06Z</time>
      </trkpt>
      <trkpt lat="45.86814" lon="4.81465">
        <ele>259.69</ele>
        <time>2013-04-06T10:46:13Z</time>
      </trkpt>
      <trkpt lat="45.86814" lon="4.81463">
        <ele>260.17</ele>
        <time>2013-04-06T10:46:14Z</time>
      </trkpt>
      <trkpt lat="45.86809" lon="4.81448">
        <ele>260.65</ele>
        <time>2013-04-06T10:46:22Z</time>
      </trkpt>
      <trkpt lat="45.86804" lon="4.81427">
        <ele>261.62</ele>
        <time>2013-04-06T10:46:31Z</time>
      </trkpt>
      <trkpt lat="45.86803" lon="4.81422">
        <ele>262.1</ele>
        <time>2013-04-06T10:46:33Z</time>
      </trkpt>
      <trkpt lat="45.86803" lon="4.8142">
        <ele>261.62</ele>
        <time>2013-04-06T10:46:34Z</time>
      </trkpt>
      <trkpt lat="45.86802" lon="4.81419">
        <ele>261.62</ele>
        <time>2013-04-06T10:46:35Z</time>
      </trkpt>
      <trkpt lat="45.86799" lon="4.81396">
        <ele>259.21</ele>
        <time>2013-04-06T10:46:45Z</time>
      </trkpt>
      <trkpt lat="45.86795" lon="4.8137">
        <ele>257.29</ele>
        <time>2013-04-06T10:46:56Z</time>
      </trkpt>
      <trkpt lat="45.86788" lon="4.81348">
        <ele>257.29</ele>
        <time>2013-04-06T10:47:06Z</time>
      </trkpt>
      <trkpt lat="45.86784" lon="4.81324">
        <ele>258.73</ele>
        <time>2013-04-06T10:47:17Z</time>
      </trkpt>
      <trkpt lat="45.86777" lon="4.81297">
        <ele>259.21</ele>
        <time>2013-04-06T10:47:29Z</time>
      </trkpt>
      <trkpt lat="45.86769" lon="4.81273">
        <ele>260.65</ele>
        <time>2013-04-06T10:47:41Z</time>
      </trkpt>
      <trkpt lat="45.8676" lon="4.8125">
        <ele>262.1</ele>
        <time>2013-04-06T10:47:52Z</time>
      </trkpt>
      <trkpt lat="45.86757" lon="4.81227">
        <ele>264.02</ele>
        <time>2013-04-06T10:48:02Z</time>
      </trkpt>
      <trkpt lat="45.86752" lon="4.81209">
        <ele>266.42</ele>
        <time>2013-04-06T10:48:11Z</time>
      </trkpt>
      <trkpt lat="45.86752" lon="4.81208">
        <ele>266.42</ele>
        <time>2013-04-06T10:48:12Z</time>
      </trkpt>
      <trkpt lat="45.86751" lon="4.81206">
        <ele>266.42</ele>
        <time>2013-04-06T10:48:13Z</time>
      </trkpt>
      <trkpt lat="45.8674" lon="4.81181">
        <ele>269.31</ele>
        <time>2013-04-06T10:48:26Z</time>
      </trkpt>
      <trkpt lat="45.86733" lon="4.81154">
        <ele>271.71</ele>
        <time>2013-04-06T10:48:37Z</time>
      </trkpt>
      <trkpt lat="45.86727" lon="4.81133">
        <ele>275.07</ele>
        <time>2013-04-06T10:48:47Z</time>
      </trkpt>
      <trkpt lat="45.86721" lon="4.81113">
        <ele>277</ele>
        <time>2013-04-06T10:48:57Z</time>
      </trkpt>
      <trkpt lat="45.86716" lon="4.81093">
        <ele>278.92</ele>
        <time>2013-04-06T10:49:07Z</time>
      </trkpt>
      <trkpt lat="45.86711" lon="4.81076">
        <ele>279.4</ele>
        <time>2013-04-06T10:49:17Z</time>
      </trkpt>
      <trkpt lat="45.86707" lon="4.81059">
        <ele>283.25</ele>
        <time>2013-04-06T10:49:27Z</time>
      </trkpt>
      <trkpt lat="45.86705" lon="4.81052">
        <ele>283.73</ele>
        <time>2013-04-06T10:49:30Z</time>
      </trkpt>
      <trkpt lat="45.86705" lon="4.8105">
        <ele>284.21</ele>
        <time>2013-04-06T10:49:31Z</time>
      </trkpt>
      <trkpt lat="45.86705" lon="4.81048">
        <ele>284.69</ele>
        <time>2013-04-06T10:49:32Z</time>
      </trkpt>
      <trkpt lat="45.867" lon="4.81027">
        <ele>287.09</ele>
        <time>2013-04-06T10:49:41Z</time>
      </trkpt>
      <trkpt lat="45.86699" lon="4.81025">
        <ele>287.57</ele>
        <time>2013-04-06T10:49:42Z</time>
      </trkpt>
      <trkpt lat="45.86694" lon="4.8101">
        <ele>291.42</ele>
        <time>2013-04-06T10:49:50Z</time>
      </trkpt>
      <trkpt lat="45.86689" lon="4.80993">
        <ele>294.3</ele>
        <time>2013-04-06T10:49:59Z</time>
      </trkpt>
      <trkpt lat="45.86683" lon="4.80977">
        <ele>296.22</ele>
        <time>2013-04-06T10:50:07Z</time>
      </trkpt>
      <trkpt lat="45.86674" lon="4.80958">
        <ele>297.18</ele>
        <time>2013-04-06T10:50:17Z</time>
      </trkpt>
      <trkpt lat="45.86662" lon="4.80942">
        <ele>300.07</ele>
        <time>2013-04-06T10:50:27Z</time>
      </trkpt>
      <trkpt lat="45.86644" lon="4.80937">
        <ele>304.88</ele>
        <time>2013-04-06T10:50:38Z</time>
      </trkpt>
      <trkpt lat="45.86625" lon="4.80935">
        <ele>308.72</ele>
        <time>2013-04-06T10:50:51Z</time>
      </trkpt>
      <trkpt lat="45.86609" lon="4.80937">
        <ele>310.64</ele>
        <time>2013-04-06T10:51:01Z</time>
      </trkpt>
      <trkpt lat="45.86593" lon="4.8094">
        <ele>310.16</ele>
        <time>2013-04-06T10:51:11Z</time>
      </trkpt>
      <trkpt lat="45.86586" lon="4.8094">
        <ele>309.68</ele>
        <time>2013-04-06T10:51:15Z</time>
      </trkpt>
      <trkpt lat="45.86584" lon="4.8094">
        <ele>309.68</ele>
        <time>2013-04-06T10:51:16Z</time>
      </trkpt>
      <trkpt lat="45.86582" lon="4.8094">
        <ele>309.68</ele>
        <time>2013-04-06T10:51:17Z</time>
      </trkpt>
      <trkpt lat="45.86579" lon="4.8094">
        <ele>310.16</ele>
        <time>2013-04-06T10:51:18Z</time>
      </trkpt>
      <trkpt lat="45.86577" lon="4.8094">
        <ele>310.16</ele>
        <time>2013-04-06T10:51:19Z</time>
      </trkpt>
      <trkpt lat="45.8656" lon="4.80938">
        <ele>311.12</ele>
        <time>2013-04-06T10:51:29Z</time>
      </trkpt>
      <trkpt lat="45.8654" lon="4.80932">
        <ele>308.72</ele>
        <time>2013-04-06T10:51:41Z</time>
      </trkpt>
      <trkpt lat="45.86525" lon="4.80924">
        <ele>305.84</ele>
        <time>2013-04-06T10:51:50Z</time>
      </trkpt>
      <trkpt lat="45.86509" lon="4.80916">
        <ele>302.47</ele>
        <time>2013-04-06T10:52:02Z</time>
      </trkpt>
      <trkpt lat="45.86494" lon="4.80905">
        <ele>300.07</ele>
        <time>2013-04-06T10:52:13Z</time>
      </trkpt>
      <trkpt lat="45.86484" lon="4.80902">
        <ele>295.26</ele>
        <time>2013-04-06T10:52:22Z</time>
      </trkpt>
      <trkpt lat="45.8648" lon="4.80897">
        <ele>293.34</ele>
        <time>2013-04-06T10:52:27Z</time>
      </trkpt>
      <trkpt lat="45.86479" lon="4.80896">
        <ele>293.34</ele>
        <time>2013-04-06T10:52:28Z</time>
      </trkpt>
      <trkpt lat="45.86478" lon="4.80895">
        <ele>292.86</ele>
        <time>2013-04-06T10:52:29Z</time>
      </trkpt>
      <trkpt lat="45.86466" lon="4.80887">
        <ele>290.46</ele>
        <time>2013-04-06T10:52:38Z</time>
      </trkpt>
      <trkpt lat="45.86453" lon="4.80872">
        <ele>289.49</ele>
        <time>2013-04-06T10:52:49Z</time>
      </trkpt>
      <trkpt lat="45.86437" lon="4.80853">
        <ele>292.38</ele>
        <time>2013-04-06T10:53:00Z</time>
      </trkpt>
      <trkpt lat="45.86429" lon="4.80843">
        <ele>294.78</ele>
        <time>2013-04-06T10:53:10Z</time>
      </trkpt>
      <trkpt lat="45.86414" lon="4.80818">
        <ele>298.15</ele>
        <time>2013-04-06T10:53:23Z</time>
      </trkpt>
      <trkpt lat="45.86412" lon="4.80807">
        <ele>301.03</ele>
        <time>2013-04-06T10:53:28Z</time>
      </trkpt>
      <trkpt lat="45.8641" lon="4.80791">
        <ele>306.32</ele>
        <time>2013-04-06T10:53:34Z</time>
      </trkpt>
      <trkpt lat="45.86415" lon="4.80778">
        <ele>308.72</ele>
        <time>2013-04-06T10:53:43Z</time>
      </trkpt>
      <trkpt lat="45.86415" lon="4.80775">
        <ele>309.2</ele>
        <time>2013-04-06T10:53:44Z</time>
      </trkpt>
      <trkpt lat="45.86414" lon="4.80759">
        <ele>313.53</ele>
        <time>2013-04-06T10:53:48Z</time>
      </trkpt>
      <trkpt lat="45.86413" lon="4.80726">
        <ele>326.99</ele>
        <time>2013-04-06T10:53:57Z</time>
      </trkpt>
      <trkpt lat="45.86418" lon="4.80709">
        <ele>333.23</ele>
        <time>2013-04-06T10:54:07Z</time>
      </trkpt>
      <trkpt lat="45.86424" lon="4.80686">
        <ele>340.44</ele>
        <time>2013-04-06T10:54:17Z</time>
      </trkpt>
      <trkpt lat="45.86424" lon="4.80684">
        <ele>341.41</ele>
        <time>2013-04-06T10:54:18Z</time>
      </trkpt>
      <trkpt lat="45.8642" lon="4.8066">
        <ele>346.21</ele>
        <time>2013-04-06T10:54:28Z</time>
      </trkpt>
      <trkpt lat="45.86415" lon="4.8064">
        <ele>349.58</ele>
        <time>2013-04-06T10:54:37Z</time>
      </trkpt>
      <trkpt lat="45.8641" lon="4.80623">
        <ele>353.42</ele>
        <time>2013-04-06T10:54:46Z</time>
      </trkpt>
      <trkpt lat="45.86404" lon="4.80597">
        <ele>356.31</ele>
        <time>2013-04-06T10:54:58Z</time>
      </trkpt>
      <trkpt lat="45.86398" lon="4.80578">
        <ele>357.27</ele>
        <time>2013-04-06T10:55:08Z</time>
      </trkpt>
      <trkpt lat="45.86394" lon="4.80555">
        <ele>358.71</ele>
        <time>2013-04-06T10:55:20Z</time>
      </trkpt>
      <trkpt lat="45.86386" lon="4.80535">
        <ele>360.15</ele>
        <time>2013-04-06T10:55:30Z</time>
      </trkpt>
      <trkpt lat="45.8638" lon="4.80516">
        <ele>361.11</ele>
        <time>2013-04-06T10:55:39Z</time>
      </trkpt>
      <trkpt lat="45.86374" lon="4.80492">
        <ele>363.04</ele>
        <time>2013-04-06T10:55:50Z</time>
      </trkpt>
      <trkpt lat="45.86365" lon="4.80467">
        <ele>365.44</ele>
        <time>2013-04-06T10:56:02Z</time>
      </trkpt>
      <trkpt lat="45.8636" lon="4.8045">
        <ele>367.36</ele>
        <time>2013-04-06T10:56:11Z</time>
      </trkpt>
      <trkpt lat="45.86355" lon="4.80433">
        <ele>369.28</ele>
        <time>2013-04-06T10:56:19Z</time>
      </trkpt>
      <trkpt lat="45.86347" lon="4.80417">
        <ele>370.73</ele>
        <time>2013-04-06T10:56:28Z</time>
      </trkpt>
      <trkpt lat="45.86341" lon="4.80398">
        <ele>372.17</ele>
        <time>2013-04-06T10:56:38Z</time>
      </trkpt>
      <trkpt lat="45.86335" lon="4.80375">
        <ele>373.61</ele>
        <time>2013-04-06T10:56:50Z</time>
      </trkpt>
      <trkpt lat="45.86331" lon="4.80348">
        <ele>375.53</ele>
        <time>2013-04-06T10:57:01Z</time>
      </trkpt>
      <trkpt lat="45.86322" lon="4.80325">
        <ele>376.01</ele>
        <time>2013-04-06T10:57:12Z</time>
      </trkpt>
      <trkpt lat="45.86313" lon="4.80304">
        <ele>376.01</ele>
        <time>2013-04-06T10:57:22Z</time>
      </trkpt>
      <trkpt lat="45.86303" lon="4.80287">
        <ele>379.38</ele>
        <time>2013-04-06T10:57:32Z</time>
      </trkpt>
      <trkpt lat="45.86297" lon="4.80266">
        <ele>382.26</ele>
        <time>2013-04-06T10:57:43Z</time>
      </trkpt>
      <trkpt lat="45.86292" lon="4.80241">
        <ele>384.66</ele>
        <time>2013-04-06T10:57:54Z</time>
      </trkpt>
      <trkpt lat="45.8629" lon="4.80223">
        <ele>388.03</ele>
        <time>2013-04-06T10:58:04Z</time>
      </trkpt>
      <trkpt lat="45.86288" lon="4.80215">
        <ele>388.99</ele>
        <time>2013-04-06T10:58:09Z</time>
      </trkpt>
      <trkpt lat="45.86287" lon="4.80213">
        <ele>388.99</ele>
        <time>2013-04-06T10:58:10Z</time>
      </trkpt>
      <trkpt lat="45.86275" lon="4.80196">
        <ele>393.8</ele>
        <time>2013-04-06T10:58:20Z</time>
      </trkpt>
      <trkpt lat="45.86265" lon="4.8018">
        <ele>394.76</ele>
        <time>2013-04-06T10:58:30Z</time>
      </trkpt>
      <trkpt lat="45.86262" lon="4.80161">
        <ele>395.72</ele>
        <time>2013-04-06T10:58:40Z</time>
      </trkpt>
      <trkpt lat="45.86258" lon="4.80135">
        <ele>398.12</ele>
        <time>2013-04-06T10:58:53Z</time>
      </trkpt>
      <trkpt lat="45.86255" lon="4.80112">
        <ele>402.45</ele>
        <time>2013-04-06T10:59:06Z</time>
      </trkpt>
      <trkpt lat="45.86249" lon="4.80101">
        <ele>407.26</ele>
        <time>2013-04-06T10:59:11Z</time>
      </trkpt>
      <trkpt lat="45.86249" lon="4.80098">
        <ele>410.14</ele>
        <time>2013-04-06T10:59:13Z</time>
      </trkpt>
      <trkpt lat="45.8625" lon="4.80096">
        <ele>410.62</ele>
        <time>2013-04-06T10:59:14Z</time>
      </trkpt>
      <trkpt lat="45.86248" lon="4.80083">
        <ele>413.02</ele>
        <time>2013-04-06T10:59:22Z</time>
      </trkpt>
      <trkpt lat="45.86247" lon="4.8008">
        <ele>413.5</ele>
        <time>2013-04-06T10:59:23Z</time>
      </trkpt>
      <trkpt lat="45.86246" lon="4.80078">
        <ele>413.98</ele>
        <time>2013-04-06T10:59:24Z</time>
      </trkpt>
      <trkpt lat="45.86245" lon="4.80075">
        <ele>413.98</ele>
        <time>2013-04-06T10:59:25Z</time>
      </trkpt>
      <trkpt lat="45.86245" lon="4.80073">
        <ele>414.47</ele>
        <time>2013-04-06T10:59:26Z</time>
      </trkpt>
      <trkpt lat="45.86244" lon="4.8007">
        <ele>414.47</ele>
        <time>2013-04-06T10:59:27Z</time>
      </trkpt>
      <trkpt lat="45.86244" lon="4.80068">
        <ele>414.47</ele>
        <time>2013-04-06T10:59:28Z</time>
      </trkpt>
      <trkpt lat="45.86243" lon="4.80067">
        <ele>414.95</ele>
        <time>2013-04-06T10:59:29Z</time>
      </trkpt>
      <trkpt lat="45.86243" lon="4.80065">
        <ele>415.43</ele>
        <time>2013-04-06T10:59:30Z</time>
      </trkpt>
      <trkpt lat="45.86242" lon="4.80063">
        <ele>415.43</ele>
        <time>2013-04-06T10:59:31Z</time>
      </trkpt>
      <trkpt lat="45.86244" lon="4.80044">
        <ele>418.31</ele>
        <time>2013-04-06T10:59:40Z</time>
      </trkpt>
      <trkpt lat="45.86245" lon="4.80025">
        <ele>420.23</ele>
        <time>2013-04-06T10:59:50Z</time>
      </trkpt>
      <trkpt lat="45.86244" lon="4.8001">
        <ele>422.16</ele>
        <time>2013-04-06T10:59:58Z</time>
      </trkpt>
      <trkpt lat="45.8624" lon="4.79996">
        <ele>425.52</ele>
        <time>2013-04-06T11:00:06Z</time>
      </trkpt>
      <trkpt lat="45.86238" lon="4.79984">
        <ele>428.4</ele>
        <time>2013-04-06T11:00:15Z</time>
      </trkpt>
      <trkpt lat="45.86225" lon="4.79977">
        <ele>429.37</ele>
        <time>2013-04-06T11:00:24Z</time>
      </trkpt>
      <trkpt lat="45.86212" lon="4.79971">
        <ele>429.85</ele>
        <time>2013-04-06T11:00:34Z</time>
      </trkpt>
      <trkpt lat="45.86213" lon="4.79966">
        <ele>430.33</ele>
        <time>2013-04-06T11:00:42Z</time>
      </trkpt>
      <trkpt lat="45.86213" lon="4.79964">
        <ele>430.33</ele>
        <time>2013-04-06T11:00:43Z</time>
      </trkpt>
      <trkpt lat="45.86218" lon="4.79939">
        <ele>429.37</ele>
        <time>2013-04-06T11:00:51Z</time>
      </trkpt>
      <trkpt lat="45.86227" lon="4.79915">
        <ele>427.92</ele>
        <time>2013-04-06T11:00:59Z</time>
      </trkpt>
      <trkpt lat="45.86243" lon="4.79902">
        <ele>427.92</ele>
        <time>2013-04-06T11:01:07Z</time>
      </trkpt>
      <trkpt lat="45.86258" lon="4.7989">
        <ele>432.25</ele>
        <time>2013-04-06T11:01:15Z</time>
      </trkpt>
      <trkpt lat="45.86277" lon="4.79875">
        <ele>436.1</ele>
        <time>2013-04-06T11:01:24Z</time>
      </trkpt>
      <trkpt lat="45.86296" lon="4.79864">
        <ele>440.9</ele>
        <time>2013-04-06T11:01:31Z</time>
      </trkpt>
      <trkpt lat="45.86307" lon="4.79856">
        <ele>442.82</ele>
        <time>2013-04-06T11:01:37Z</time>
      </trkpt>
      <trkpt lat="45.86333" lon="4.79854">
        <ele>445.23</ele>
        <time>2013-04-06T11:01:46Z</time>
      </trkpt>
      <trkpt lat="45.86358" lon="4.79857">
        <ele>447.63</ele>
        <time>2013-04-06T11:01:56Z</time>
      </trkpt>
      <trkpt lat="45.86379" lon="4.79861">
        <ele>449.55</ele>
        <time>2013-04-06T11:02:04Z</time>
      </trkpt>
      <trkpt lat="45.86405" lon="4.79868">
        <ele>450.52</ele>
        <time>2013-04-06T11:02:13Z</time>
      </trkpt>
      <trkpt lat="45.86432" lon="4.79879">
        <ele>450.03</ele>
        <time>2013-04-06T11:02:22Z</time>
      </trkpt>
      <trkpt lat="45.86453" lon="4.7989">
        <ele>450.52</ele>
        <time>2013-04-06T11:02:30Z</time>
      </trkpt>
      <trkpt lat="45.86474" lon="4.79902">
        <ele>451</ele>
        <time>2013-04-06T11:02:39Z</time>
      </trkpt>
      <trkpt lat="45.865" lon="4.79911">
        <ele>451.96</ele>
        <time>2013-04-06T11:02:49Z</time>
      </trkpt>
      <trkpt lat="45.86523" lon="4.79913">
        <ele>453.4</ele>
        <time>2013-04-06T11:02:58Z</time>
      </trkpt>
      <trkpt lat="45.86544" lon="4.79912">
        <ele>454.36</ele>
        <time>2013-04-06T11:03:07Z</time>
      </trkpt>
      <trkpt lat="45.86567" lon="4.79908">
        <ele>457.72</ele>
        <time>2013-04-06T11:03:18Z</time>
      </trkpt>
      <trkpt lat="45.86593" lon="4.79887">
        <ele>456.76</ele>
        <time>2013-04-06T11:03:27Z</time>
      </trkpt>
      <trkpt lat="45.86609" lon="4.79871">
        <ele>456.76</ele>
        <time>2013-04-06T11:03:34Z</time>
      </trkpt>
      <trkpt lat="45.86622" lon="4.79849">
        <ele>456.76</ele>
        <time>2013-04-06T11:03:42Z</time>
      </trkpt>
      <trkpt lat="45.86638" lon="4.79812">
        <ele>456.28</ele>
        <time>2013-04-06T11:03:52Z</time>
      </trkpt>
      <trkpt lat="45.86657" lon="4.79777">
        <ele>455.32</ele>
        <time>2013-04-06T11:04:01Z</time>
      </trkpt>
      <trkpt lat="45.86675" lon="4.79744">
        <ele>454.84</ele>
        <time>2013-04-06T11:04:09Z</time>
      </trkpt>
      <trkpt lat="45.86679" lon="4.79708">
        <ele>451.96</ele>
        <time>2013-04-06T11:04:17Z</time>
      </trkpt>
      <trkpt lat="45.8667" lon="4.79676">
        <ele>450.52</ele>
        <time>2013-04-06T11:04:25Z</time>
      </trkpt>
      <trkpt lat="45.86659" lon="4.79651">
        <ele>449.07</ele>
        <time>2013-04-06T11:04:33Z</time>
      </trkpt>
      <trkpt lat="45.86654" lon="4.79633">
        <ele>448.11</ele>
        <time>2013-04-06T11:04:41Z</time>
      </trkpt>
      <trkpt lat="45.86645" lon="4.79611">
        <ele>448.11</ele>
        <time>2013-04-06T11:04:52Z</time>
      </trkpt>
      <trkpt lat="45.86635" lon="4.79589">
        <ele>448.11</ele>
        <time>2013-04-06T11:05:01Z</time>
      </trkpt>
      <trkpt lat="45.86625" lon="4.79568">
        <ele>448.59</ele>
        <time>2013-04-06T11:05:13Z</time>
      </trkpt>
      <trkpt lat="45.86623" lon="4.79557">
        <ele>447.15</ele>
        <time>2013-04-06T11:05:23Z</time>
      </trkpt>
      <trkpt lat="45.86609" lon="4.79534">
        <ele>450.52</ele>
        <time>2013-04-06T11:05:32Z</time>
      </trkpt>
      <trkpt lat="45.86603" lon="4.79525">
        <ele>452.92</ele>
        <time>2013-04-06T11:05:43Z</time>
      </trkpt>
      <trkpt lat="45.86589" lon="4.79509">
        <ele>452.92</ele>
        <time>2013-04-06T11:05:54Z</time>
      </trkpt>
      <trkpt lat="45.86577" lon="4.795">
        <ele>452.44</ele>
        <time>2013-04-06T11:06:02Z</time>
      </trkpt>
      <trkpt lat="45.86563" lon="4.79488">
        <ele>454.36</ele>
        <time>2013-04-06T11:06:12Z</time>
      </trkpt>
      <trkpt lat="45.86548" lon="4.79473">
        <ele>455.32</ele>
        <time>2013-04-06T11:06:23Z</time>
      </trkpt>
      <trkpt lat="45.86542" lon="4.79462">
        <ele>456.76</ele>
        <time>2013-04-06T11:06:31Z</time>
      </trkpt>
      <trkpt lat="45.86531" lon="4.79448">
        <ele>458.21</ele>
        <time>2013-04-06T11:06:40Z</time>
      </trkpt>
      <trkpt lat="45.86518" lon="4.79428">
        <ele>460.13</ele>
        <time>2013-04-06T11:06:52Z</time>
      </trkpt>
      <trkpt lat="45.86506" lon="4.79416">
        <ele>457.24</ele>
        <time>2013-04-06T11:07:02Z</time>
      </trkpt>
      <trkpt lat="45.86498" lon="4.79409">
        <ele>454.36</ele>
        <time>2013-04-06T11:07:12Z</time>
      </trkpt>
      <trkpt lat="45.86489" lon="4.79404">
        <ele>451.48</ele>
        <time>2013-04-06T11:07:24Z</time>
      </trkpt>
      <trkpt lat="45.86453" lon="4.79367">
        <ele>462.05</ele>
        <time>2013-04-06T11:07:36Z</time>
      </trkpt>
      <trkpt lat="45.86441" lon="4.79351">
        <ele>464.45</ele>
        <time>2013-04-06T11:07:45Z</time>
      </trkpt>
      <trkpt lat="45.86429" lon="4.79331">
        <ele>470.7</ele>
        <time>2013-04-06T11:07:54Z</time>
      </trkpt>
      <trkpt lat="45.86415" lon="4.79314">
        <ele>477.91</ele>
        <time>2013-04-06T11:08:05Z</time>
      </trkpt>
      <trkpt lat="45.86398" lon="4.79292">
        <ele>484.64</ele>
        <time>2013-04-06T11:08:18Z</time>
      </trkpt>
      <trkpt lat="45.86383" lon="4.79272">
        <ele>490.41</ele>
        <time>2013-04-06T11:08:29Z</time>
      </trkpt>
      <trkpt lat="45.8637" lon="4.79261">
        <ele>490.89</ele>
        <time>2013-04-06T11:08:37Z</time>
      </trkpt>
      <trkpt lat="45.86358" lon="4.79252">
        <ele>492.33</ele>
        <time>2013-04-06T11:08:46Z</time>
      </trkpt>
      <trkpt lat="45.86345" lon="4.79239">
        <ele>491.85</ele>
        <time>2013-04-06T11:08:55Z</time>
      </trkpt>
      <trkpt lat="45.8634" lon="4.79231">
        <ele>490.41</ele>
        <time>2013-04-06T11:09:01Z</time>
      </trkpt>
      <trkpt lat="45.86326" lon="4.7922">
        <ele>488.97</ele>
        <time>2013-04-06T11:09:10Z</time>
      </trkpt>
      <trkpt lat="45.86313" lon="4.7921">
        <ele>486.08</ele>
        <time>2013-04-06T11:09:19Z</time>
      </trkpt>
      <trkpt lat="45.86298" lon="4.79194">
        <ele>482.24</ele>
        <time>2013-04-06T11:09:27Z</time>
      </trkpt>
      <trkpt lat="45.8628" lon="4.79182">
        <ele>476.95</ele>
        <time>2013-04-06T11:09:35Z</time>
      </trkpt>
      <trkpt lat="45.86268" lon="4.79161">
        <ele>474.55</ele>
        <time>2013-04-06T11:09:43Z</time>
      </trkpt>
      <trkpt lat="45.86254" lon="4.79141">
        <ele>471.66</ele>
        <time>2013-04-06T11:09:51Z</time>
      </trkpt>
      <trkpt lat="45.86241" lon="4.79125">
        <ele>469.26</ele>
        <time>2013-04-06T11:09:58Z</time>
      </trkpt>
      <trkpt lat="45.86229" lon="4.7911">
        <ele>467.34</ele>
        <time>2013-04-06T11:10:09Z</time>
      </trkpt>
      <trkpt lat="45.8622" lon="4.79097">
        <ele>468.3</ele>
        <time>2013-04-06T11:10:19Z</time>
      </trkpt>
      <trkpt lat="45.86204" lon="4.79083">
        <ele>467.34</ele>
        <time>2013-04-06T11:10:30Z</time>
      </trkpt>
      <trkpt lat="45.86194" lon="4.79075">
        <ele>467.34</ele>
        <time>2013-04-06T11:10:38Z</time>
      </trkpt>
      <trkpt lat="45.86181" lon="4.79061">
        <ele>468.78</ele>
        <time>2013-04-06T11:10:48Z</time>
      </trkpt>
      <trkpt lat="45.86179" lon="4.79056">
        <ele>469.26</ele>
        <time>2013-04-06T11:10:50Z</time>
      </trkpt>
      <trkpt lat="45.8617" lon="4.79042">
        <ele>468.3</ele>
        <time>2013-04-06T11:10:58Z</time>
      </trkpt>
      <trkpt lat="45.86158" lon="4.79026">
        <ele>467.34</ele>
        <time>2013-04-06T11:11:05Z</time>
      </trkpt>
      <trkpt lat="45.86137" lon="4.78985">
        <ele>475.03</ele>
        <time>2013-04-06T11:11:14Z</time>
      </trkpt>
      <trkpt lat="45.8612" lon="4.78955">
        <ele>478.87</ele>
        <time>2013-04-06T11:11:23Z</time>
      </trkpt>
      <trkpt lat="45.86106" lon="4.78933">
        <ele>485.6</ele>
        <time>2013-04-06T11:11:31Z</time>
      </trkpt>
      <trkpt lat="45.86081" lon="4.78915">
        <ele>490.89</ele>
        <time>2013-04-06T11:11:41Z</time>
      </trkpt>
      <trkpt lat="45.8606" lon="4.78901">
        <ele>494.74</ele>
        <time>2013-04-06T11:11:49Z</time>
      </trkpt>
      <trkpt lat="45.86041" lon="4.78888">
        <ele>498.58</ele>
        <time>2013-04-06T11:11:58Z</time>
      </trkpt>
      <trkpt lat="45.86022" lon="4.78875">
        <ele>501.95</ele>
        <time>2013-04-06T11:12:07Z</time>
      </trkpt>
      <trkpt lat="45.85998" lon="4.78863">
        <ele>503.87</ele>
        <time>2013-04-06T11:12:18Z</time>
      </trkpt>
      <trkpt lat="45.85979" lon="4.78853">
        <ele>501.46</ele>
        <time>2013-04-06T11:12:25Z</time>
      </trkpt>
      <trkpt lat="45.85961" lon="4.78845">
        <ele>503.39</ele>
        <time>2013-04-06T11:12:34Z</time>
      </trkpt>
      <trkpt lat="45.85948" lon="4.78842">
        <ele>505.31</ele>
        <time>2013-04-06T11:12:41Z</time>
      </trkpt>
      <trkpt lat="45.85946" lon="4.78843">
        <ele>505.31</ele>
        <time>2013-04-06T11:12:42Z</time>
      </trkpt>
      <trkpt lat="45.85944" lon="4.78843">
        <ele>505.79</ele>
        <time>2013-04-06T11:12:43Z</time>
      </trkpt>
      <trkpt lat="45.85943" lon="4.78843">
        <ele>505.79</ele>
        <time>2013-04-06T11:12:44Z</time>
      </trkpt>
      <trkpt lat="45.85941" lon="4.78843">
        <ele>505.79</ele>
        <time>2013-04-06T11:12:45Z</time>
      </trkpt>
      <trkpt lat="45.85939" lon="4.78843">
        <ele>505.31</ele>
        <time>2013-04-06T11:12:46Z</time>
      </trkpt>
      <trkpt lat="45.85938" lon="4.78842">
        <ele>505.79</ele>
        <time>2013-04-06T11:12:47Z</time>
      </trkpt>
      <trkpt lat="45.85936" lon="4.78841">
        <ele>505.79</ele>
        <time>2013-04-06T11:12:48Z</time>
      </trkpt>
      <trkpt lat="45.85923" lon="4.78841">
        <ele>506.75</ele>
        <time>2013-04-06T11:12:58Z</time>
      </trkpt>
      <trkpt lat="45.85912" lon="4.78833">
        <ele>516.85</ele>
        <time>2013-04-06T11:13:05Z</time>
      </trkpt>
      <trkpt lat="45.85903" lon="4.78827">
        <ele>519.73</ele>
        <time>2013-04-06T11:13:12Z</time>
      </trkpt>
      <trkpt lat="45.85901" lon="4.78827">
        <ele>520.21</ele>
        <time>2013-04-06T11:13:13Z</time>
      </trkpt>
      <trkpt lat="45.85893" lon="4.78825">
        <ele>523.09</ele>
        <time>2013-04-06T11:13:18Z</time>
      </trkpt>
      <trkpt lat="45.85886" lon="4.78823">
        <ele>525.5</ele>
        <time>2013-04-06T11:13:23Z</time>
      </trkpt>
      <trkpt lat="45.85877" lon="4.78821">
        <ele>525.98</ele>
        <time>2013-04-06T11:13:29Z</time>
      </trkpt>
      <trkpt lat="45.85871" lon="4.78821">
        <ele>526.46</ele>
        <time>2013-04-06T11:13:34Z</time>
      </trkpt>
      <trkpt lat="45.85869" lon="4.78821">
        <ele>526.46</ele>
        <time>2013-04-06T11:13:35Z</time>
      </trkpt>
      <trkpt lat="45.85868" lon="4.78821">
        <ele>526.46</ele>
        <time>2013-04-06T11:13:36Z</time>
      </trkpt>
      <trkpt lat="45.85859" lon="4.78821">
        <ele>528.38</ele>
        <time>2013-04-06T11:13:44Z</time>
      </trkpt>
      <trkpt lat="45.85855" lon="4.78821">
        <ele>529.34</ele>
        <time>2013-04-06T11:13:46Z</time>
      </trkpt>
      <trkpt lat="45.85854" lon="4.78821">
        <ele>529.34</ele>
        <time>2013-04-06T11:13:47Z</time>
      </trkpt>
      <trkpt lat="45.85845" lon="4.78827">
        <ele>530.3</ele>
        <time>2013-04-06T11:13:55Z</time>
      </trkpt>
      <trkpt lat="45.85843" lon="4.78826">
        <ele>530.3</ele>
        <time>2013-04-06T11:13:56Z</time>
      </trkpt>
      <trkpt lat="45.85841" lon="4.78825">
        <ele>530.3</ele>
        <time>2013-04-06T11:13:57Z</time>
      </trkpt>
      <trkpt lat="45.85839" lon="4.78823">
        <ele>530.79</ele>
        <time>2013-04-06T11:13:58Z</time>
      </trkpt>
      <trkpt lat="45.85837" lon="4.78821">
        <ele>530.79</ele>
        <time>2013-04-06T11:13:59Z</time>
      </trkpt>
      <trkpt lat="45.85817" lon="4.7881">
        <ele>528.86</ele>
        <time>2013-04-06T11:14:06Z</time>
      </trkpt>
      <trkpt lat="45.85812" lon="4.78812">
        <ele>528.38</ele>
        <time>2013-04-06T11:14:08Z</time>
      </trkpt>
      <trkpt lat="45.85809" lon="4.78814">
        <ele>528.38</ele>
        <time>2013-04-06T11:14:09Z</time>
      </trkpt>
      <trkpt lat="45.85808" lon="4.78818">
        <ele>528.38</ele>
        <time>2013-04-06T11:14:10Z</time>
      </trkpt>
      <trkpt lat="45.85806" lon="4.78822">
        <ele>527.9</ele>
        <time>2013-04-06T11:14:11Z</time>
      </trkpt>
      <trkpt lat="45.85805" lon="4.78825">
        <ele>527.9</ele>
        <time>2013-04-06T11:14:12Z</time>
      </trkpt>
      <trkpt lat="45.85796" lon="4.78856">
        <ele>525.98</ele>
        <time>2013-04-06T11:14:21Z</time>
      </trkpt>
      <trkpt lat="45.85788" lon="4.78879">
        <ele>524.06</ele>
        <time>2013-04-06T11:14:28Z</time>
      </trkpt>
      <trkpt lat="45.85787" lon="4.7888">
        <ele>523.58</ele>
        <time>2013-04-06T11:14:29Z</time>
      </trkpt>
      <trkpt lat="45.85784" lon="4.7888">
        <ele>523.09</ele>
        <time>2013-04-06T11:14:30Z</time>
      </trkpt>
      <trkpt lat="45.85782" lon="4.78879">
        <ele>522.13</ele>
        <time>2013-04-06T11:14:31Z</time>
      </trkpt>
      <trkpt lat="45.85781" lon="4.78878">
        <ele>521.65</ele>
        <time>2013-04-06T11:14:32Z</time>
      </trkpt>
      <trkpt lat="45.85779" lon="4.78877">
        <ele>521.17</ele>
        <time>2013-04-06T11:14:33Z</time>
      </trkpt>
      <trkpt lat="45.85778" lon="4.78875">
        <ele>520.69</ele>
        <time>2013-04-06T11:14:34Z</time>
      </trkpt>
      <trkpt lat="45.85777" lon="4.78873">
        <ele>520.21</ele>
        <time>2013-04-06T11:14:35Z</time>
      </trkpt>
      <trkpt lat="45.85766" lon="4.78852">
        <ele>516.37</ele>
        <time>2013-04-06T11:14:43Z</time>
      </trkpt>
      <trkpt lat="45.8575" lon="4.7883">
        <ele>512.52</ele>
        <time>2013-04-06T11:14:53Z</time>
      </trkpt>
      <trkpt lat="45.85733" lon="4.78811">
        <ele>510.12</ele>
        <time>2013-04-06T11:15:03Z</time>
      </trkpt>
      <trkpt lat="45.85717" lon="4.78788">
        <ele>506.75</ele>
        <time>2013-04-06T11:15:14Z</time>
      </trkpt>
      <trkpt lat="45.85704" lon="4.7877">
        <ele>505.31</ele>
        <time>2013-04-06T11:15:21Z</time>
      </trkpt>
      <trkpt lat="45.85691" lon="4.78749">
        <ele>504.35</ele>
        <time>2013-04-06T11:15:29Z</time>
      </trkpt>
      <trkpt lat="45.85675" lon="4.78735">
        <ele>503.87</ele>
        <time>2013-04-06T11:15:38Z</time>
      </trkpt>
      <trkpt lat="45.85661" lon="4.78715">
        <ele>506.75</ele>
        <time>2013-04-06T11:15:47Z</time>
      </trkpt>
      <trkpt lat="45.85649" lon="4.787">
        <ele>518.29</ele>
        <time>2013-04-06T11:15:53Z</time>
      </trkpt>
      <trkpt lat="45.85638" lon="4.78685">
        <ele>524.54</ele>
        <time>2013-04-06T11:16:01Z</time>
      </trkpt>
      <trkpt lat="45.85621" lon="4.78667">
        <ele>528.86</ele>
        <time>2013-04-06T11:16:10Z</time>
      </trkpt>
      <trkpt lat="45.856" lon="4.7865">
        <ele>533.19</ele>
        <time>2013-04-06T11:16:19Z</time>
      </trkpt>
      <trkpt lat="45.85582" lon="4.78639">
        <ele>534.15</ele>
        <time>2013-04-06T11:16:27Z</time>
      </trkpt>
      <trkpt lat="45.85562" lon="4.78619">
        <ele>535.59</ele>
        <time>2013-04-06T11:16:37Z</time>
      </trkpt>
      <trkpt lat="45.85541" lon="4.78597">
        <ele>538.96</ele>
        <time>2013-04-06T11:16:46Z</time>
      </trkpt>
      <trkpt lat="45.85521" lon="4.78577">
        <ele>540.88</ele>
        <time>2013-04-06T11:16:55Z</time>
      </trkpt>
      <trkpt lat="45.85502" lon="4.78557">
        <ele>543.76</ele>
        <time>2013-04-06T11:17:05Z</time>
      </trkpt>
      <trkpt lat="45.85488" lon="4.78539">
        <ele>545.2</ele>
        <time>2013-04-06T11:17:13Z</time>
      </trkpt>
      <trkpt lat="45.85468" lon="4.78518">
        <ele>546.17</ele>
        <time>2013-04-06T11:17:23Z</time>
      </trkpt>
      <trkpt lat="45.85451" lon="4.785">
        <ele>546.65</ele>
        <time>2013-04-06T11:17:31Z</time>
      </trkpt>
      <trkpt lat="45.85435" lon="4.78486">
        <ele>544.24</ele>
        <time>2013-04-06T11:17:39Z</time>
      </trkpt>
      <trkpt lat="45.85421" lon="4.78468">
        <ele>542.32</ele>
        <time>2013-04-06T11:17:48Z</time>
      </trkpt>
      <trkpt lat="45.85402" lon="4.78447">
        <ele>540.4</ele>
        <time>2013-04-06T11:17:58Z</time>
      </trkpt>
      <trkpt lat="45.85385" lon="4.78431">
        <ele>537.99</ele>
        <time>2013-04-06T11:18:07Z</time>
      </trkpt>
      <trkpt lat="45.85371" lon="4.78415">
        <ele>536.07</ele>
        <time>2013-04-06T11:18:14Z</time>
      </trkpt>
      <trkpt lat="45.85362" lon="4.784">
        <ele>536.07</ele>
        <time>2013-04-06T11:18:20Z</time>
      </trkpt>
      <trkpt lat="45.85351" lon="4.78382">
        <ele>537.51</ele>
        <time>2013-04-06T11:18:27Z</time>
      </trkpt>
      <trkpt lat="45.85337" lon="4.78365">
        <ele>537.99</ele>
        <time>2013-04-06T11:18:34Z</time>
      </trkpt>
      <trkpt lat="45.85323" lon="4.7835">
        <ele>538.96</ele>
        <time>2013-04-06T11:18:42Z</time>
      </trkpt>
      <trkpt lat="45.85312" lon="4.78334">
        <ele>538.48</ele>
        <time>2013-04-06T11:18:48Z</time>
      </trkpt>
      <trkpt lat="45.85294" lon="4.78314">
        <ele>538.96</ele>
        <time>2013-04-06T11:18:57Z</time>
      </trkpt>
      <trkpt lat="45.85283" lon="4.78296">
        <ele>540.88</ele>
        <time>2013-04-06T11:19:04Z</time>
      </trkpt>
      <trkpt lat="45.85267" lon="4.78273">
        <ele>541.84</ele>
        <time>2013-04-06T11:19:13Z</time>
      </trkpt>
      <trkpt lat="45.85264" lon="4.78269">
        <ele>542.32</ele>
        <time>2013-04-06T11:19:15Z</time>
      </trkpt>
      <trkpt lat="45.85251" lon="4.78247">
        <ele>541.36</ele>
        <time>2013-04-06T11:19:23Z</time>
      </trkpt>
      <trkpt lat="45.85235" lon="4.7822">
        <ele>541.36</ele>
        <time>2013-04-06T11:19:32Z</time>
      </trkpt>
      <trkpt lat="45.85219" lon="4.78195">
        <ele>543.28</ele>
        <time>2013-04-06T11:19:41Z</time>
      </trkpt>
      <trkpt lat="45.85207" lon="4.78173">
        <ele>543.28</ele>
        <time>2013-04-06T11:19:48Z</time>
      </trkpt>
      <trkpt lat="45.85192" lon="4.78148">
        <ele>544.24</ele>
        <time>2013-04-06T11:19:58Z</time>
      </trkpt>
      <trkpt lat="45.85177" lon="4.78116">
        <ele>545.2</ele>
        <time>2013-04-06T11:20:08Z</time>
      </trkpt>
      <trkpt lat="45.85164" lon="4.78092">
        <ele>545.69</ele>
        <time>2013-04-06T11:20:16Z</time>
      </trkpt>
      <trkpt lat="45.85154" lon="4.7807">
        <ele>547.13</ele>
        <time>2013-04-06T11:20:24Z</time>
      </trkpt>
      <trkpt lat="45.85146" lon="4.78039">
        <ele>549.05</ele>
        <time>2013-04-06T11:20:34Z</time>
      </trkpt>
      <trkpt lat="45.85136" lon="4.78011">
        <ele>550.01</ele>
        <time>2013-04-06T11:20:43Z</time>
      </trkpt>
      <trkpt lat="45.85129" lon="4.7797">
        <ele>550.97</ele>
        <time>2013-04-06T11:20:55Z</time>
      </trkpt>
      <trkpt lat="45.85117" lon="4.77935">
        <ele>555.3</ele>
        <time>2013-04-06T11:21:04Z</time>
      </trkpt>
      <trkpt lat="45.85108" lon="4.77918">
        <ele>556.26</ele>
        <time>2013-04-06T11:21:11Z</time>
      </trkpt>
      <trkpt lat="45.85099" lon="4.779">
        <ele>556.74</ele>
        <time>2013-04-06T11:21:18Z</time>
      </trkpt>
      <trkpt lat="45.85098" lon="4.77892">
        <ele>556.26</ele>
        <time>2013-04-06T11:21:20Z</time>
      </trkpt>
      <trkpt lat="45.85098" lon="4.77888">
        <ele>556.26</ele>
        <time>2013-04-06T11:21:21Z</time>
      </trkpt>
      <trkpt lat="45.85103" lon="4.77862">
        <ele>556.74</ele>
        <time>2013-04-06T11:21:29Z</time>
      </trkpt>
      <trkpt lat="45.85105" lon="4.7783">
        <ele>558.66</ele>
        <time>2013-04-06T11:21:37Z</time>
      </trkpt>
      <trkpt lat="45.85106" lon="4.77794">
        <ele>559.62</ele>
        <time>2013-04-06T11:21:46Z</time>
      </trkpt>
      <trkpt lat="45.85104" lon="4.77766">
        <ele>559.14</ele>
        <time>2013-04-06T11:21:53Z</time>
      </trkpt>
      <trkpt lat="45.85092" lon="4.77729">
        <ele>559.14</ele>
        <time>2013-04-06T11:22:02Z</time>
      </trkpt>
      <trkpt lat="45.85076" lon="4.77698">
        <ele>557.7</ele>
        <time>2013-04-06T11:22:11Z</time>
      </trkpt>
      <trkpt lat="45.85068" lon="4.77677">
        <ele>557.22</ele>
        <time>2013-04-06T11:22:16Z</time>
      </trkpt>
      <trkpt lat="45.85052" lon="4.77652">
        <ele>556.26</ele>
        <time>2013-04-06T11:22:24Z</time>
      </trkpt>
      <trkpt lat="45.8503" lon="4.77634">
        <ele>555.3</ele>
        <time>2013-04-06T11:22:34Z</time>
      </trkpt>
      <trkpt lat="45.85007" lon="4.77627">
        <ele>555.78</ele>
        <time>2013-04-06T11:22:43Z</time>
      </trkpt>
      <trkpt lat="45.84981" lon="4.77625">
        <ele>554.34</ele>
        <time>2013-04-06T11:22:52Z</time>
      </trkpt>
      <trkpt lat="45.84963" lon="4.77621">
        <ele>553.38</ele>
        <time>2013-04-06T11:22:59Z</time>
      </trkpt>
      <trkpt lat="45.84944" lon="4.77616">
        <ele>551.93</ele>
        <time>2013-04-06T11:23:06Z</time>
      </trkpt>
      <trkpt lat="45.84917" lon="4.77618">
        <ele>550.01</ele>
        <time>2013-04-06T11:23:14Z</time>
      </trkpt>
      <trkpt lat="45.84886" lon="4.77617">
        <ele>549.53</ele>
        <time>2013-04-06T11:23:24Z</time>
      </trkpt>
      <trkpt lat="45.84862" lon="4.77618">
        <ele>548.09</ele>
        <time>2013-04-06T11:23:32Z</time>
      </trkpt>
      <trkpt lat="45.84846" lon="4.77621">
        <ele>546.17</ele>
        <time>2013-04-06T11:23:39Z</time>
      </trkpt>
      <trkpt lat="45.84814" lon="4.77625">
        <ele>542.32</ele>
        <time>2013-04-06T11:23:50Z</time>
      </trkpt>
      <trkpt lat="45.84791" lon="4.77626">
        <ele>541.36</ele>
        <time>2013-04-06T11:23:58Z</time>
      </trkpt>
      <trkpt lat="45.84771" lon="4.77621">
        <ele>542.32</ele>
        <time>2013-04-06T11:24:06Z</time>
      </trkpt>
      <trkpt lat="45.8475" lon="4.77618">
        <ele>540.4</ele>
        <time>2013-04-06T11:24:12Z</time>
      </trkpt>
      <trkpt lat="45.84747" lon="4.77618">
        <ele>539.92</ele>
        <time>2013-04-06T11:24:13Z</time>
      </trkpt>
      <trkpt lat="45.84744" lon="4.77618">
        <ele>539.44</ele>
        <time>2013-04-06T11:24:14Z</time>
      </trkpt>
      <trkpt lat="45.84741" lon="4.77616">
        <ele>538.96</ele>
        <time>2013-04-06T11:24:15Z</time>
      </trkpt>
      <trkpt lat="45.84739" lon="4.77615">
        <ele>538.48</ele>
        <time>2013-04-06T11:24:16Z</time>
      </trkpt>
      <trkpt lat="45.84736" lon="4.77613">
        <ele>538.48</ele>
        <time>2013-04-06T11:24:17Z</time>
      </trkpt>
      <trkpt lat="45.84734" lon="4.77611">
        <ele>537.99</ele>
        <time>2013-04-06T11:24:18Z</time>
      </trkpt>
      <trkpt lat="45.84732" lon="4.77609">
        <ele>537.51</ele>
        <time>2013-04-06T11:24:19Z</time>
      </trkpt>
      <trkpt lat="45.8473" lon="4.77608">
        <ele>537.03</ele>
        <time>2013-04-06T11:24:20Z</time>
      </trkpt>
      <trkpt lat="45.84727" lon="4.77607">
        <ele>536.07</ele>
        <time>2013-04-06T11:24:21Z</time>
      </trkpt>
      <trkpt lat="45.84725" lon="4.77605">
        <ele>535.59</ele>
        <time>2013-04-06T11:24:22Z</time>
      </trkpt>
      <trkpt lat="45.84708" lon="4.77584">
        <ele>533.19</ele>
        <time>2013-04-06T11:24:29Z</time>
      </trkpt>
      <trkpt lat="45.84694" lon="4.77572">
        <ele>532.71</ele>
        <time>2013-04-06T11:24:35Z</time>
      </trkpt>
      <trkpt lat="45.8467" lon="4.77557">
        <ele>536.55</ele>
        <time>2013-04-06T11:24:44Z</time>
      </trkpt>
      <trkpt lat="45.84644" lon="4.77558">
        <ele>543.76</ele>
        <time>2013-04-06T11:24:52Z</time>
      </trkpt>
      <trkpt lat="45.8463" lon="4.77563">
        <ele>544.24</ele>
        <time>2013-04-06T11:24:58Z</time>
      </trkpt>
      <trkpt lat="45.84617" lon="4.77565">
        <ele>542.32</ele>
        <time>2013-04-06T11:25:05Z</time>
      </trkpt>
      <trkpt lat="45.84611" lon="4.77562">
        <ele>541.36</ele>
        <time>2013-04-06T11:25:08Z</time>
      </trkpt>
      <trkpt lat="45.84609" lon="4.77564">
        <ele>540.88</ele>
        <time>2013-04-06T11:25:09Z</time>
      </trkpt>
      <trkpt lat="45.84578" lon="4.77579">
        <ele>538.96</ele>
        <time>2013-04-06T11:25:17Z</time>
      </trkpt>
      <trkpt lat="45.84552" lon="4.77591">
        <ele>535.11</ele>
        <time>2013-04-06T11:25:26Z</time>
      </trkpt>
      <trkpt lat="45.84536" lon="4.77604">
        <ele>533.19</ele>
        <time>2013-04-06T11:25:33Z</time>
      </trkpt>
      <trkpt lat="45.84516" lon="4.77619">
        <ele>530.3</ele>
        <time>2013-04-06T11:25:41Z</time>
      </trkpt>
      <trkpt lat="45.84491" lon="4.77634">
        <ele>525.02</ele>
        <time>2013-04-06T11:25:50Z</time>
      </trkpt>
      <trkpt lat="45.84466" lon="4.77648">
        <ele>518.77</ele>
        <time>2013-04-06T11:25:59Z</time>
      </trkpt>
      <trkpt lat="45.84439" lon="4.77663">
        <ele>512.52</ele>
        <time>2013-04-06T11:26:07Z</time>
      </trkpt>
      <trkpt lat="45.84423" lon="4.77675">
        <ele>507.71</ele>
        <time>2013-04-06T11:26:13Z</time>
      </trkpt>
      <trkpt lat="45.84404" lon="4.77691">
        <ele>500.5</ele>
        <time>2013-04-06T11:26:20Z</time>
      </trkpt>
      <trkpt lat="45.84385" lon="4.77701">
        <ele>492.81</ele>
        <time>2013-04-06T11:26:28Z</time>
      </trkpt>
      <trkpt lat="45.84377" lon="4.77704">
        <ele>490.89</ele>
        <time>2013-04-06T11:26:30Z</time>
      </trkpt>
      <trkpt lat="45.84373" lon="4.77706">
        <ele>489.93</ele>
        <time>2013-04-06T11:26:31Z</time>
      </trkpt>
      <trkpt lat="45.84358" lon="4.7772">
        <ele>486.08</ele>
        <time>2013-04-06T11:26:37Z</time>
      </trkpt>
      <trkpt lat="45.84339" lon="4.77727">
        <ele>487.53</ele>
        <time>2013-04-06T11:26:43Z</time>
      </trkpt>
      <trkpt lat="45.84312" lon="4.77732">
        <ele>488.97</ele>
        <time>2013-04-06T11:26:51Z</time>
      </trkpt>
      <trkpt lat="45.84289" lon="4.77734">
        <ele>489.45</ele>
        <time>2013-04-06T11:26:58Z</time>
      </trkpt>
      <trkpt lat="45.84259" lon="4.77736">
        <ele>489.93</ele>
        <time>2013-04-06T11:27:07Z</time>
      </trkpt>
      <trkpt lat="45.84238" lon="4.77743">
        <ele>492.81</ele>
        <time>2013-04-06T11:27:15Z</time>
      </trkpt>
      <trkpt lat="45.84233" lon="4.77747">
        <ele>493.77</ele>
        <time>2013-04-06T11:27:17Z</time>
      </trkpt>
      <trkpt lat="45.84212" lon="4.77757">
        <ele>493.77</ele>
        <time>2013-04-06T11:27:26Z</time>
      </trkpt>
      <trkpt lat="45.84209" lon="4.77756">
        <ele>493.77</ele>
        <time>2013-04-06T11:27:27Z</time>
      </trkpt>
      <trkpt lat="45.8418" lon="4.77756">
        <ele>490.89</ele>
        <time>2013-04-06T11:27:35Z</time>
      </trkpt>
      <trkpt lat="45.84156" lon="4.77762">
        <ele>488.01</ele>
        <time>2013-04-06T11:27:41Z</time>
      </trkpt>
      <trkpt lat="45.8413" lon="4.77775">
        <ele>482.72</ele>
        <time>2013-04-06T11:27:49Z</time>
      </trkpt>
      <trkpt lat="45.84104" lon="4.77776">
        <ele>475.99</ele>
        <time>2013-04-06T11:27:57Z</time>
      </trkpt>
      <trkpt lat="45.8408" lon="4.77776">
        <ele>468.3</ele>
        <time>2013-04-06T11:28:06Z</time>
      </trkpt>
      <trkpt lat="45.84075" lon="4.77776">
        <ele>466.86</ele>
        <time>2013-04-06T11:28:08Z</time>
      </trkpt>
      <trkpt lat="45.84061" lon="4.77788">
        <ele>459.17</ele>
        <time>2013-04-06T11:28:17Z</time>
      </trkpt>
      <trkpt lat="45.8405" lon="4.7779">
        <ele>457.72</ele>
        <time>2013-04-06T11:28:20Z</time>
      </trkpt>
      <trkpt lat="45.84016" lon="4.77798">
        <ele>451.96</ele>
        <time>2013-04-06T11:28:31Z</time>
      </trkpt>
      <trkpt lat="45.83986" lon="4.77796">
        <ele>450.52</ele>
        <time>2013-04-06T11:28:39Z</time>
      </trkpt>
      <trkpt lat="45.83971" lon="4.77797">
        <ele>449.55</ele>
        <time>2013-04-06T11:28:44Z</time>
      </trkpt>
      <trkpt lat="45.83944" lon="4.77796">
        <ele>449.07</ele>
        <time>2013-04-06T11:28:54Z</time>
      </trkpt>
      <trkpt lat="45.83929" lon="4.77797">
        <ele>449.55</ele>
        <time>2013-04-06T11:29:00Z</time>
      </trkpt>
      <trkpt lat="45.83901" lon="4.77799">
        <ele>448.59</ele>
        <time>2013-04-06T11:29:11Z</time>
      </trkpt>
      <trkpt lat="45.83867" lon="4.77798">
        <ele>446.19</ele>
        <time>2013-04-06T11:29:21Z</time>
      </trkpt>
      <trkpt lat="45.83846" lon="4.77789">
        <ele>442.34</ele>
        <time>2013-04-06T11:29:29Z</time>
      </trkpt>
      <trkpt lat="45.83828" lon="4.77769">
        <ele>440.42</ele>
        <time>2013-04-06T11:29:36Z</time>
      </trkpt>
      <trkpt lat="45.83819" lon="4.77748">
        <ele>438.02</ele>
        <time>2013-04-06T11:29:43Z</time>
      </trkpt>
      <trkpt lat="45.83814" lon="4.77725">
        <ele>435.61</ele>
        <time>2013-04-06T11:29:49Z</time>
      </trkpt>
      <trkpt lat="45.83807" lon="4.77696">
        <ele>433.69</ele>
        <time>2013-04-06T11:29:56Z</time>
      </trkpt>
      <trkpt lat="45.83798" lon="4.77655">
        <ele>431.77</ele>
        <time>2013-04-06T11:30:05Z</time>
      </trkpt>
      <trkpt lat="45.83792" lon="4.77622">
        <ele>430.33</ele>
        <time>2013-04-06T11:30:13Z</time>
      </trkpt>
      <trkpt lat="45.8378" lon="4.77586">
        <ele>427.92</ele>
        <time>2013-04-06T11:30:22Z</time>
      </trkpt>
      <trkpt lat="45.83778" lon="4.77557">
        <ele>426.96</ele>
        <time>2013-04-06T11:30:29Z</time>
      </trkpt>
      <trkpt lat="45.83775" lon="4.7752">
        <ele>427.92</ele>
        <time>2013-04-06T11:30:38Z</time>
      </trkpt>
      <trkpt lat="45.8377" lon="4.77497">
        <ele>425.52</ele>
        <time>2013-04-06T11:30:46Z</time>
      </trkpt>
      <trkpt lat="45.83767" lon="4.77499">
        <ele>425.52</ele>
        <time>2013-04-06T11:30:49Z</time>
      </trkpt>
      <trkpt lat="45.83765" lon="4.77503">
        <ele>425.52</ele>
        <time>2013-04-06T11:30:50Z</time>
      </trkpt>
      <trkpt lat="45.83764" lon="4.77507">
        <ele>425.04</ele>
        <time>2013-04-06T11:30:51Z</time>
      </trkpt>
      <trkpt lat="45.83763" lon="4.77511">
        <ele>425.04</ele>
        <time>2013-04-06T11:30:52Z</time>
      </trkpt>
      <trkpt lat="45.83763" lon="4.77516">
        <ele>424.56</ele>
        <time>2013-04-06T11:30:53Z</time>
      </trkpt>
      <trkpt lat="45.83761" lon="4.77549">
        <ele>425.04</ele>
        <time>2013-04-06T11:31:01Z</time>
      </trkpt>
      <trkpt lat="45.83761" lon="4.77583">
        <ele>425.52</ele>
        <time>2013-04-06T11:31:09Z</time>
      </trkpt>
      <trkpt lat="45.8376" lon="4.77608">
        <ele>426.48</ele>
        <time>2013-04-06T11:31:15Z</time>
      </trkpt>
      <trkpt lat="45.83761" lon="4.77631">
        <ele>426</ele>
        <time>2013-04-06T11:31:21Z</time>
      </trkpt>
      <trkpt lat="45.83761" lon="4.77672">
        <ele>424.08</ele>
        <time>2013-04-06T11:31:31Z</time>
      </trkpt>
      <trkpt lat="45.83764" lon="4.77717">
        <ele>423.12</ele>
        <time>2013-04-06T11:31:42Z</time>
      </trkpt>
      <trkpt lat="45.83769" lon="4.77746">
        <ele>423.6</ele>
        <time>2013-04-06T11:31:50Z</time>
      </trkpt>
      <trkpt lat="45.83774" lon="4.77774">
        <ele>423.12</ele>
        <time>2013-04-06T11:31:58Z</time>
      </trkpt>
      <trkpt lat="45.83779" lon="4.778">
        <ele>422.64</ele>
        <time>2013-04-06T11:32:06Z</time>
      </trkpt>
      <trkpt lat="45.83782" lon="4.77825">
        <ele>421.68</ele>
        <time>2013-04-06T11:32:15Z</time>
      </trkpt>
      <trkpt lat="45.83782" lon="4.77829">
        <ele>421.19</ele>
        <time>2013-04-06T11:32:17Z</time>
      </trkpt>
      <trkpt lat="45.83781" lon="4.77831">
        <ele>421.19</ele>
        <time>2013-04-06T11:32:18Z</time>
      </trkpt>
      <trkpt lat="45.8378" lon="4.77833">
        <ele>421.19</ele>
        <time>2013-04-06T11:32:19Z</time>
      </trkpt>
      <trkpt lat="45.83779" lon="4.77835">
        <ele>421.19</ele>
        <time>2013-04-06T11:32:20Z</time>
      </trkpt>
      <trkpt lat="45.83777" lon="4.77838">
        <ele>421.19</ele>
        <time>2013-04-06T11:32:21Z</time>
      </trkpt>
      <trkpt lat="45.83775" lon="4.77841">
        <ele>420.71</ele>
        <time>2013-04-06T11:32:22Z</time>
      </trkpt>
      <trkpt lat="45.83772" lon="4.77844">
        <ele>420.71</ele>
        <time>2013-04-06T11:32:23Z</time>
      </trkpt>
      <trkpt lat="45.8377" lon="4.77846">
        <ele>420.71</ele>
        <time>2013-04-06T11:32:24Z</time>
      </trkpt>
      <trkpt lat="45.8375" lon="4.77852">
        <ele>421.19</ele>
        <time>2013-04-06T11:32:32Z</time>
      </trkpt>
      <trkpt lat="45.83721" lon="4.77848">
        <ele>419.75</ele>
        <time>2013-04-06T11:32:43Z</time>
      </trkpt>
      <trkpt lat="45.83702" lon="4.77839">
        <ele>418.79</ele>
        <time>2013-04-06T11:32:50Z</time>
      </trkpt>
      <trkpt lat="45.83681" lon="4.77834">
        <ele>418.79</ele>
        <time>2013-04-06T11:32:59Z</time>
      </trkpt>
      <trkpt lat="45.83655" lon="4.77828">
        <ele>420.23</ele>
        <time>2013-04-06T11:33:09Z</time>
      </trkpt>
      <trkpt lat="45.83638" lon="4.77832">
        <ele>421.68</ele>
        <time>2013-04-06T11:33:16Z</time>
      </trkpt>
      <trkpt lat="45.8362" lon="4.77843">
        <ele>422.16</ele>
        <time>2013-04-06T11:33:25Z</time>
      </trkpt>
      <trkpt lat="45.83599" lon="4.77856">
        <ele>424.56</ele>
        <time>2013-04-06T11:33:33Z</time>
      </trkpt>
      <trkpt lat="45.83578" lon="4.77867">
        <ele>427.44</ele>
        <time>2013-04-06T11:33:42Z</time>
      </trkpt>
      <trkpt lat="45.83552" lon="4.7787">
        <ele>427.92</ele>
        <time>2013-04-06T11:33:52Z</time>
      </trkpt>
      <trkpt lat="45.83523" lon="4.77873">
        <ele>428.4</ele>
        <time>2013-04-06T11:34:03Z</time>
      </trkpt>
      <trkpt lat="45.835" lon="4.77871">
        <ele>428.89</ele>
        <time>2013-04-06T11:34:13Z</time>
      </trkpt>
      <trkpt lat="45.83483" lon="4.77871">
        <ele>428.89</ele>
        <time>2013-04-06T11:34:21Z</time>
      </trkpt>
      <trkpt lat="45.83461" lon="4.77876">
        <ele>431.29</ele>
        <time>2013-04-06T11:34:30Z</time>
      </trkpt>
      <trkpt lat="45.83439" lon="4.77896">
        <ele>432.73</ele>
        <time>2013-04-06T11:34:42Z</time>
      </trkpt>
      <trkpt lat="45.83426" lon="4.77918">
        <ele>435.13</ele>
        <time>2013-04-06T11:34:51Z</time>
      </trkpt>
      <trkpt lat="45.83423" lon="4.77914">
        <ele>438.02</ele>
        <time>2013-04-06T11:34:54Z</time>
      </trkpt>
      <trkpt lat="45.8342" lon="4.77907">
        <ele>442.82</ele>
        <time>2013-04-06T11:35:01Z</time>
      </trkpt>
      <trkpt lat="45.83416" lon="4.77905">
        <ele>446.19</ele>
        <time>2013-04-06T11:35:14Z</time>
      </trkpt>
      <trkpt lat="45.83416" lon="4.77904">
        <ele>448.11</ele>
        <time>2013-04-06T11:35:21Z</time>
      </trkpt>
      <trkpt lat="45.83415" lon="4.77903">
        <ele>448.59</ele>
        <time>2013-04-06T11:35:30Z</time>
      </trkpt>
      <trkpt lat="45.83415" lon="4.77902">
        <ele>448.59</ele>
        <time>2013-04-06T11:35:31Z</time>
      </trkpt>
      <trkpt lat="45.83414" lon="4.779">
        <ele>448.11</ele>
        <time>2013-04-06T11:35:32Z</time>
      </trkpt>
      <trkpt lat="45.83414" lon="4.77896">
        <ele>447.15</ele>
        <time>2013-04-06T11:35:37Z</time>
      </trkpt>
      <trkpt lat="45.83412" lon="4.77888">
        <ele>445.23</ele>
        <time>2013-04-06T11:35:43Z</time>
      </trkpt>
      <trkpt lat="45.83404" lon="4.77868">
        <ele>443.31</ele>
        <time>2013-04-06T11:35:49Z</time>
      </trkpt>
      <trkpt lat="45.83402" lon="4.77866">
        <ele>443.31</ele>
        <time>2013-04-06T11:35:50Z</time>
      </trkpt>
      <trkpt lat="45.83399" lon="4.77864">
        <ele>442.82</ele>
        <time>2013-04-06T11:35:51Z</time>
      </trkpt>
      <trkpt lat="45.83396" lon="4.77863">
        <ele>442.34</ele>
        <time>2013-04-06T11:35:52Z</time>
      </trkpt>
      <trkpt lat="45.83393" lon="4.77863">
        <ele>442.34</ele>
        <time>2013-04-06T11:35:53Z</time>
      </trkpt>
      <trkpt lat="45.8339" lon="4.77862">
        <ele>441.86</ele>
        <time>2013-04-06T11:35:54Z</time>
      </trkpt>
      <trkpt lat="45.83387" lon="4.77862">
        <ele>441.86</ele>
        <time>2013-04-06T11:35:55Z</time>
      </trkpt>
      <trkpt lat="45.83383" lon="4.77862">
        <ele>441.38</ele>
        <time>2013-04-06T11:35:56Z</time>
      </trkpt>
      <trkpt lat="45.83359" lon="4.77861">
        <ele>438.98</ele>
        <time>2013-04-06T11:36:03Z</time>
      </trkpt>
      <trkpt lat="45.8333" lon="4.77858">
        <ele>435.61</ele>
        <time>2013-04-06T11:36:11Z</time>
      </trkpt>
      <trkpt lat="45.83308" lon="4.77857">
        <ele>432.73</ele>
        <time>2013-04-06T11:36:18Z</time>
      </trkpt>
      <trkpt lat="45.83289" lon="4.77853">
        <ele>430.81</ele>
        <time>2013-04-06T11:36:24Z</time>
      </trkpt>
      <trkpt lat="45.83267" lon="4.77845">
        <ele>428.4</ele>
        <time>2013-04-06T11:36:31Z</time>
      </trkpt>
      <trkpt lat="45.83251" lon="4.77835">
        <ele>426</ele>
        <time>2013-04-06T11:36:38Z</time>
      </trkpt>
      <trkpt lat="45.83235" lon="4.77824">
        <ele>424.08</ele>
        <time>2013-04-06T11:36:44Z</time>
      </trkpt>
      <trkpt lat="45.83218" lon="4.77815">
        <ele>419.75</ele>
        <time>2013-04-06T11:36:51Z</time>
      </trkpt>
      <trkpt lat="45.83205" lon="4.77796">
        <ele>415.43</ele>
        <time>2013-04-06T11:36:58Z</time>
      </trkpt>
      <trkpt lat="45.83191" lon="4.77781">
        <ele>412.54</ele>
        <time>2013-04-06T11:37:03Z</time>
      </trkpt>
      <trkpt lat="45.8317" lon="4.77772">
        <ele>407.74</ele>
        <time>2013-04-06T11:37:10Z</time>
      </trkpt>
      <trkpt lat="45.83145" lon="4.77765">
        <ele>404.37</ele>
        <time>2013-04-06T11:37:18Z</time>
      </trkpt>
      <trkpt lat="45.83119" lon="4.77761">
        <ele>400.05</ele>
        <time>2013-04-06T11:37:26Z</time>
      </trkpt>
      <trkpt lat="45.83098" lon="4.77758">
        <ele>396.68</ele>
        <time>2013-04-06T11:37:34Z</time>
      </trkpt>
      <trkpt lat="45.83091" lon="4.77742">
        <ele>394.28</ele>
        <time>2013-04-06T11:37:40Z</time>
      </trkpt>
      <trkpt lat="45.83093" lon="4.77718">
        <ele>390.91</ele>
        <time>2013-04-06T11:37:46Z</time>
      </trkpt>
      <trkpt lat="45.83093" lon="4.77715">
        <ele>390.43</ele>
        <time>2013-04-06T11:37:47Z</time>
      </trkpt>
      <trkpt lat="45.83091" lon="4.77714">
        <ele>389.95</ele>
        <time>2013-04-06T11:37:48Z</time>
      </trkpt>
      <trkpt lat="45.8309" lon="4.77714">
        <ele>389.47</ele>
        <time>2013-04-06T11:37:49Z</time>
      </trkpt>
      <trkpt lat="45.83087" lon="4.77713">
        <ele>389.47</ele>
        <time>2013-04-06T11:37:50Z</time>
      </trkpt>
      <trkpt lat="45.83085" lon="4.77713">
        <ele>388.99</ele>
        <time>2013-04-06T11:37:51Z</time>
      </trkpt>
      <trkpt lat="45.83063" lon="4.77717">
        <ele>384.18</ele>
        <time>2013-04-06T11:37:59Z</time>
      </trkpt>
      <trkpt lat="45.83042" lon="4.77721">
        <ele>383.22</ele>
        <time>2013-04-06T11:38:06Z</time>
      </trkpt>
      <trkpt lat="45.83014" lon="4.77723">
        <ele>384.66</ele>
        <time>2013-04-06T11:38:15Z</time>
      </trkpt>
      <trkpt lat="45.82993" lon="4.77732">
        <ele>386.59</ele>
        <time>2013-04-06T11:38:22Z</time>
      </trkpt>
      <trkpt lat="45.82975" lon="4.77738">
        <ele>385.63</ele>
        <time>2013-04-06T11:38:28Z</time>
      </trkpt>
      <trkpt lat="45.82946" lon="4.77735">
        <ele>382.74</ele>
        <time>2013-04-06T11:38:37Z</time>
      </trkpt>
      <trkpt lat="45.82927" lon="4.77728">
        <ele>380.82</ele>
        <time>2013-04-06T11:38:43Z</time>
      </trkpt>
      <trkpt lat="45.82907" lon="4.77717">
        <ele>379.86</ele>
        <time>2013-04-06T11:38:50Z</time>
      </trkpt>
      <trkpt lat="45.82883" lon="4.77704">
        <ele>378.9</ele>
        <time>2013-04-06T11:38:58Z</time>
      </trkpt>
      <trkpt lat="45.82864" lon="4.7769">
        <ele>377.94</ele>
        <time>2013-04-06T11:39:06Z</time>
      </trkpt>
      <trkpt lat="45.82854" lon="4.77669">
        <ele>375.53</ele>
        <time>2013-04-06T11:39:12Z</time>
      </trkpt>
      <trkpt lat="45.82847" lon="4.77669">
        <ele>374.09</ele>
        <time>2013-04-06T11:39:15Z</time>
      </trkpt>
      <trkpt lat="45.82846" lon="4.77672">
        <ele>373.61</ele>
        <time>2013-04-06T11:39:16Z</time>
      </trkpt>
      <trkpt lat="45.82834" lon="4.77698">
        <ele>369.28</ele>
        <time>2013-04-06T11:39:24Z</time>
      </trkpt>
      <trkpt lat="45.82839" lon="4.77717">
        <ele>366.88</ele>
        <time>2013-04-06T11:39:29Z</time>
      </trkpt>
      <trkpt lat="45.82852" lon="4.77742">
        <ele>364</ele>
        <time>2013-04-06T11:39:37Z</time>
      </trkpt>
      <trkpt lat="45.82866" lon="4.77762">
        <ele>362.55</ele>
        <time>2013-04-06T11:39:45Z</time>
      </trkpt>
      <trkpt lat="45.82888" lon="4.77774">
        <ele>361.59</ele>
        <time>2013-04-06T11:39:53Z</time>
      </trkpt>
      <trkpt lat="45.82894" lon="4.77782">
        <ele>361.59</ele>
        <time>2013-04-06T11:39:56Z</time>
      </trkpt>
      <trkpt lat="45.82893" lon="4.77786">
        <ele>361.59</ele>
        <time>2013-04-06T11:39:57Z</time>
      </trkpt>
      <trkpt lat="45.82892" lon="4.77792">
        <ele>361.59</ele>
        <time>2013-04-06T11:39:58Z</time>
      </trkpt>
      <trkpt lat="45.82891" lon="4.77796">
        <ele>361.59</ele>
        <time>2013-04-06T11:39:59Z</time>
      </trkpt>
      <trkpt lat="45.8289" lon="4.77798">
        <ele>361.11</ele>
        <time>2013-04-06T11:40:00Z</time>
      </trkpt>
      <trkpt lat="45.82889" lon="4.778">
        <ele>360.63</ele>
        <time>2013-04-06T11:40:01Z</time>
      </trkpt>
      <trkpt lat="45.82886" lon="4.77802">
        <ele>360.15</ele>
        <time>2013-04-06T11:40:02Z</time>
      </trkpt>
      <trkpt lat="45.82884" lon="4.77804">
        <ele>360.15</ele>
        <time>2013-04-06T11:40:03Z</time>
      </trkpt>
      <trkpt lat="45.82873" lon="4.77831">
        <ele>359.19</ele>
        <time>2013-04-06T11:40:11Z</time>
      </trkpt>
      <trkpt lat="45.8286" lon="4.77853">
        <ele>358.71</ele>
        <time>2013-04-06T11:40:19Z</time>
      </trkpt>
      <trkpt lat="45.82841" lon="4.77866">
        <ele>357.75</ele>
        <time>2013-04-06T11:40:27Z</time>
      </trkpt>
      <trkpt lat="45.82824" lon="4.77868">
        <ele>357.27</ele>
        <time>2013-04-06T11:40:34Z</time>
      </trkpt>
      <trkpt lat="45.82804" lon="4.7787">
        <ele>357.27</ele>
        <time>2013-04-06T11:40:43Z</time>
      </trkpt>
      <trkpt lat="45.82791" lon="4.77869">
        <ele>356.79</ele>
        <time>2013-04-06T11:40:52Z</time>
      </trkpt>
      <trkpt lat="45.82783" lon="4.77873">
        <ele>356.79</ele>
        <time>2013-04-06T11:41:00Z</time>
      </trkpt>
      <trkpt lat="45.82761" lon="4.77886">
        <ele>358.71</ele>
        <time>2013-04-06T11:41:13Z</time>
      </trkpt>
      <trkpt lat="45.82743" lon="4.77891">
        <ele>361.59</ele>
        <time>2013-04-06T11:41:24Z</time>
      </trkpt>
      <trkpt lat="45.82722" lon="4.7789">
        <ele>364</ele>
        <time>2013-04-06T11:41:33Z</time>
      </trkpt>
      <trkpt lat="45.82702" lon="4.77892">
        <ele>364.96</ele>
        <time>2013-04-06T11:41:41Z</time>
      </trkpt>
      <trkpt lat="45.82679" lon="4.77895">
        <ele>366.88</ele>
        <time>2013-04-06T11:41:49Z</time>
      </trkpt>
      <trkpt lat="45.82677" lon="4.77896">
        <ele>366.88</ele>
        <time>2013-04-06T11:41:50Z</time>
      </trkpt>
      <trkpt lat="45.82675" lon="4.77899">
        <ele>366.88</ele>
        <time>2013-04-06T11:41:51Z</time>
      </trkpt>
      <trkpt lat="45.82674" lon="4.77902">
        <ele>366.88</ele>
        <time>2013-04-06T11:41:52Z</time>
      </trkpt>
      <trkpt lat="45.82673" lon="4.77904">
        <ele>367.36</ele>
        <time>2013-04-06T11:41:53Z</time>
      </trkpt>
      <trkpt lat="45.82672" lon="4.77907">
        <ele>367.36</ele>
        <time>2013-04-06T11:41:54Z</time>
      </trkpt>
      <trkpt lat="45.82672" lon="4.7791">
        <ele>367.36</ele>
        <time>2013-04-06T11:41:55Z</time>
      </trkpt>
      <trkpt lat="45.82671" lon="4.77914">
        <ele>367.84</ele>
        <time>2013-04-06T11:41:56Z</time>
      </trkpt>
      <trkpt lat="45.82674" lon="4.77947">
        <ele>369.76</ele>
        <time>2013-04-06T11:42:05Z</time>
      </trkpt>
      <trkpt lat="45.82672" lon="4.77973">
        <ele>372.65</ele>
        <time>2013-04-06T11:42:13Z</time>
      </trkpt>
      <trkpt lat="45.82669" lon="4.78001">
        <ele>376.49</ele>
        <time>2013-04-06T11:42:21Z</time>
      </trkpt>
      <trkpt lat="45.82668" lon="4.78031">
        <ele>376.49</ele>
        <time>2013-04-06T11:42:30Z</time>
      </trkpt>
      <trkpt lat="45.82661" lon="4.78051">
        <ele>376.01</ele>
        <time>2013-04-06T11:42:37Z</time>
      </trkpt>
      <trkpt lat="45.82641" lon="4.78053">
        <ele>376.01</ele>
        <time>2013-04-06T11:42:44Z</time>
      </trkpt>
      <trkpt lat="45.82614" lon="4.78051">
        <ele>376.01</ele>
        <time>2013-04-06T11:42:52Z</time>
      </trkpt>
      <trkpt lat="45.82595" lon="4.78049">
        <ele>375.05</ele>
        <time>2013-04-06T11:42:59Z</time>
      </trkpt>
      <trkpt lat="45.82589" lon="4.78069">
        <ele>373.61</ele>
        <time>2013-04-06T11:43:05Z</time>
      </trkpt>
      <trkpt lat="45.82594" lon="4.781">
        <ele>368.8</ele>
        <time>2013-04-06T11:43:11Z</time>
      </trkpt>
      <trkpt lat="45.82614" lon="4.78138">
        <ele>362.07</ele>
        <time>2013-04-06T11:43:21Z</time>
      </trkpt>
      <trkpt lat="45.82628" lon="4.78156">
        <ele>359.19</ele>
        <time>2013-04-06T11:43:28Z</time>
      </trkpt>
      <trkpt lat="45.82648" lon="4.78183">
        <ele>357.27</ele>
        <time>2013-04-06T11:43:38Z</time>
      </trkpt>
      <trkpt lat="45.82663" lon="4.78202">
        <ele>356.79</ele>
        <time>2013-04-06T11:43:46Z</time>
      </trkpt>
      <trkpt lat="45.82668" lon="4.78209">
        <ele>356.79</ele>
        <time>2013-04-06T11:43:49Z</time>
      </trkpt>
      <trkpt lat="45.82674" lon="4.78221">
        <ele>357.27</ele>
        <time>2013-04-06T11:43:53Z</time>
      </trkpt>
      <trkpt lat="45.82688" lon="4.78243">
        <ele>359.19</ele>
        <time>2013-04-06T11:44:01Z</time>
      </trkpt>
      <trkpt lat="45.82701" lon="4.78254">
        <ele>360.63</ele>
        <time>2013-04-06T11:44:07Z</time>
      </trkpt>
      <trkpt lat="45.82704" lon="4.78257">
        <ele>361.11</ele>
        <time>2013-04-06T11:44:09Z</time>
      </trkpt>
      <trkpt lat="45.827" lon="4.78272">
        <ele>363.04</ele>
        <time>2013-04-06T11:44:16Z</time>
      </trkpt>
      <trkpt lat="45.82698" lon="4.78273">
        <ele>363.52</ele>
        <time>2013-04-06T11:44:17Z</time>
      </trkpt>
      <trkpt lat="45.82678" lon="4.78277">
        <ele>364.48</ele>
        <time>2013-04-06T11:44:27Z</time>
      </trkpt>
      <trkpt lat="45.82654" lon="4.78279">
        <ele>366.4</ele>
        <time>2013-04-06T11:44:36Z</time>
      </trkpt>
      <trkpt lat="45.8263" lon="4.78288">
        <ele>369.28</ele>
        <time>2013-04-06T11:44:45Z</time>
      </trkpt>
      <trkpt lat="45.82615" lon="4.78299">
        <ele>372.17</ele>
        <time>2013-04-06T11:44:54Z</time>
      </trkpt>
      <trkpt lat="45.82615" lon="4.78311">
        <ele>371.69</ele>
        <time>2013-04-06T11:44:59Z</time>
      </trkpt>
      <trkpt lat="45.82615" lon="4.78338">
        <ele>374.09</ele>
        <time>2013-04-06T11:45:11Z</time>
      </trkpt>
      <trkpt lat="45.82613" lon="4.78356">
        <ele>377.94</ele>
        <time>2013-04-06T11:45:21Z</time>
      </trkpt>
      <trkpt lat="45.82613" lon="4.78357">
        <ele>378.9</ele>
        <time>2013-04-06T11:45:26Z</time>
      </trkpt>
      <trkpt lat="45.82616" lon="4.78357">
        <ele>376.49</ele>
        <time>2013-04-06T11:45:35Z</time>
      </trkpt>
      <trkpt lat="45.82615" lon="4.78359">
        <ele>375.53</ele>
        <time>2013-04-06T11:45:44Z</time>
      </trkpt>
      <trkpt lat="45.82615" lon="4.78362">
        <ele>376.01</ele>
        <time>2013-04-06T11:45:48Z</time>
      </trkpt>
      <trkpt lat="45.82615" lon="4.78396">
        <ele>375.53</ele>
        <time>2013-04-06T11:45:58Z</time>
      </trkpt>
      <trkpt lat="45.82624" lon="4.78421">
        <ele>374.09</ele>
        <time>2013-04-06T11:46:04Z</time>
      </trkpt>
      <trkpt lat="45.82632" lon="4.78455">
        <ele>373.13</ele>
        <time>2013-04-06T11:46:12Z</time>
      </trkpt>
      <trkpt lat="45.82644" lon="4.78487">
        <ele>373.13</ele>
        <time>2013-04-06T11:46:21Z</time>
      </trkpt>
      <trkpt lat="45.82658" lon="4.78508">
        <ele>371.69</ele>
        <time>2013-04-06T11:46:29Z</time>
      </trkpt>
      <trkpt lat="45.82673" lon="4.78544">
        <ele>370.24</ele>
        <time>2013-04-06T11:46:38Z</time>
      </trkpt>
      <trkpt lat="45.82683" lon="4.78573">
        <ele>369.76</ele>
        <time>2013-04-06T11:46:46Z</time>
      </trkpt>
      <trkpt lat="45.82691" lon="4.78616">
        <ele>370.24</ele>
        <time>2013-04-06T11:46:56Z</time>
      </trkpt>
      <trkpt lat="45.82697" lon="4.78635">
        <ele>370.24</ele>
        <time>2013-04-06T11:47:02Z</time>
      </trkpt>
      <trkpt lat="45.82705" lon="4.78652">
        <ele>370.73</ele>
        <time>2013-04-06T11:47:11Z</time>
      </trkpt>
      <trkpt lat="45.82705" lon="4.78659">
        <ele>370.24</ele>
        <time>2013-04-06T11:47:16Z</time>
      </trkpt>
      <trkpt lat="45.82695" lon="4.78674">
        <ele>370.73</ele>
        <time>2013-04-06T11:47:25Z</time>
      </trkpt>
      <trkpt lat="45.82688" lon="4.78688">
        <ele>372.65</ele>
        <time>2013-04-06T11:47:37Z</time>
      </trkpt>
      <trkpt lat="45.82679" lon="4.78704">
        <ele>374.57</ele>
        <time>2013-04-06T11:47:47Z</time>
      </trkpt>
      <trkpt lat="45.82672" lon="4.78724">
        <ele>377.45</ele>
        <time>2013-04-06T11:47:59Z</time>
      </trkpt>
      <trkpt lat="45.82675" lon="4.78735">
        <ele>378.42</ele>
        <time>2013-04-06T11:48:06Z</time>
      </trkpt>
      <trkpt lat="45.82685" lon="4.78727">
        <ele>380.34</ele>
        <time>2013-04-06T11:48:12Z</time>
      </trkpt>
      <trkpt lat="45.82698" lon="4.78704">
        <ele>381.3</ele>
        <time>2013-04-06T11:48:25Z</time>
      </trkpt>
      <trkpt lat="45.82717" lon="4.78696">
        <ele>381.78</ele>
        <time>2013-04-06T11:48:32Z</time>
      </trkpt>
      <trkpt lat="45.82743" lon="4.78687">
        <ele>384.66</ele>
        <time>2013-04-06T11:48:43Z</time>
      </trkpt>
      <trkpt lat="45.8277" lon="4.7868">
        <ele>387.07</ele>
        <time>2013-04-06T11:48:54Z</time>
      </trkpt>
      <trkpt lat="45.82792" lon="4.78675">
        <ele>387.07</ele>
        <time>2013-04-06T11:49:04Z</time>
      </trkpt>
      <trkpt lat="45.82809" lon="4.78652">
        <ele>387.55</ele>
        <time>2013-04-06T11:49:12Z</time>
      </trkpt>
      <trkpt lat="45.82815" lon="4.78626">
        <ele>387.07</ele>
        <time>2013-04-06T11:49:20Z</time>
      </trkpt>
      <trkpt lat="45.82817" lon="4.78599">
        <ele>388.99</ele>
        <time>2013-04-06T11:49:28Z</time>
      </trkpt>
      <trkpt lat="45.82808" lon="4.78576">
        <ele>387.07</ele>
        <time>2013-04-06T11:49:36Z</time>
      </trkpt>
      <trkpt lat="45.82794" lon="4.78546">
        <ele>385.63</ele>
        <time>2013-04-06T11:49:47Z</time>
      </trkpt>
      <trkpt lat="45.82786" lon="4.78509">
        <ele>386.59</ele>
        <time>2013-04-06T11:49:58Z</time>
      </trkpt>
      <trkpt lat="45.8279" lon="4.78484">
        <ele>387.07</ele>
        <time>2013-04-06T11:50:06Z</time>
      </trkpt>
      <trkpt lat="45.82804" lon="4.7846">
        <ele>389.47</ele>
        <time>2013-04-06T11:50:17Z</time>
      </trkpt>
      <trkpt lat="45.82818" lon="4.78455">
        <ele>390.43</ele>
        <time>2013-04-06T11:50:26Z</time>
      </trkpt>
      <trkpt lat="45.82829" lon="4.78465">
        <ele>390.91</ele>
        <time>2013-04-06T11:50:35Z</time>
      </trkpt>
      <trkpt lat="45.82841" lon="4.7848">
        <ele>394.28</ele>
        <time>2013-04-06T11:50:47Z</time>
      </trkpt>
      <trkpt lat="45.82846" lon="4.78483">
        <ele>395.24</ele>
        <time>2013-04-06T11:50:50Z</time>
      </trkpt>
      <trkpt lat="45.82863" lon="4.78495">
        <ele>395.24</ele>
        <time>2013-04-06T11:51:03Z</time>
      </trkpt>
      <trkpt lat="45.82877" lon="4.78507">
        <ele>398.6</ele>
        <time>2013-04-06T11:51:15Z</time>
      </trkpt>
      <trkpt lat="45.82879" lon="4.7851">
        <ele>399.08</ele>
        <time>2013-04-06T11:51:17Z</time>
      </trkpt>
      <trkpt lat="45.82894" lon="4.78515">
        <ele>400.53</ele>
        <time>2013-04-06T11:51:29Z</time>
      </trkpt>
      <trkpt lat="45.82912" lon="4.78511">
        <ele>409.18</ele>
        <time>2013-04-06T11:51:41Z</time>
      </trkpt>
      <trkpt lat="45.82916" lon="4.78511">
        <ele>410.14</ele>
        <time>2013-04-06T11:51:45Z</time>
      </trkpt>
      <trkpt lat="45.82931" lon="4.78511">
        <ele>409.18</ele>
        <time>2013-04-06T11:51:57Z</time>
      </trkpt>
      <trkpt lat="45.82936" lon="4.78531">
        <ele>407.74</ele>
        <time>2013-04-06T11:52:06Z</time>
      </trkpt>
      <trkpt lat="45.82939" lon="4.78534">
        <ele>407.74</ele>
        <time>2013-04-06T11:52:09Z</time>
      </trkpt>
      <trkpt lat="45.82953" lon="4.78549">
        <ele>406.29</ele>
        <time>2013-04-06T11:52:23Z</time>
      </trkpt>
      <trkpt lat="45.82971" lon="4.78545">
        <ele>408.7</ele>
        <time>2013-04-06T11:52:34Z</time>
      </trkpt>
      <trkpt lat="45.82974" lon="4.78544">
        <ele>408.7</ele>
        <time>2013-04-06T11:52:36Z</time>
      </trkpt>
      <trkpt lat="45.82987" lon="4.78544">
        <ele>410.62</ele>
        <time>2013-04-06T11:52:46Z</time>
      </trkpt>
      <trkpt lat="45.83001" lon="4.78536">
        <ele>412.06</ele>
        <time>2013-04-06T11:52:57Z</time>
      </trkpt>
      <trkpt lat="45.83013" lon="4.78533">
        <ele>411.58</ele>
        <time>2013-04-06T11:53:07Z</time>
      </trkpt>
      <trkpt lat="45.83026" lon="4.78542">
        <ele>414.47</ele>
        <time>2013-04-06T11:53:18Z</time>
      </trkpt>
      <trkpt lat="45.83031" lon="4.78556">
        <ele>422.16</ele>
        <time>2013-04-06T11:53:27Z</time>
      </trkpt>
      <trkpt lat="45.83041" lon="4.78556">
        <ele>424.56</ele>
        <time>2013-04-06T11:53:39Z</time>
      </trkpt>
      <trkpt lat="45.83051" lon="4.7856">
        <ele>425.52</ele>
        <time>2013-04-06T11:53:50Z</time>
      </trkpt>
      <trkpt lat="45.83063" lon="4.78564">
        <ele>423.6</ele>
        <time>2013-04-06T11:54:03Z</time>
      </trkpt>
      <trkpt lat="45.83074" lon="4.78567">
        <ele>420.23</ele>
        <time>2013-04-06T11:54:14Z</time>
      </trkpt>
      <trkpt lat="45.83079" lon="4.78576">
        <ele>421.68</ele>
        <time>2013-04-06T11:54:25Z</time>
      </trkpt>
      <trkpt lat="45.83094" lon="4.78588">
        <ele>430.33</ele>
        <time>2013-04-06T11:54:37Z</time>
      </trkpt>
      <trkpt lat="45.83094" lon="4.78592">
        <ele>432.73</ele>
        <time>2013-04-06T11:54:41Z</time>
      </trkpt>
      <trkpt lat="45.83081" lon="4.78618">
        <ele>436.1</ele>
        <time>2013-04-06T11:54:52Z</time>
      </trkpt>
      <trkpt lat="45.83063" lon="4.78645">
        <ele>442.82</ele>
        <time>2013-04-06T11:55:01Z</time>
      </trkpt>
      <trkpt lat="45.83051" lon="4.78668">
        <ele>447.15</ele>
        <time>2013-04-06T11:55:08Z</time>
      </trkpt>
      <trkpt lat="45.8304" lon="4.7869">
        <ele>449.55</ele>
        <time>2013-04-06T11:55:16Z</time>
      </trkpt>
      <trkpt lat="45.83028" lon="4.78711">
        <ele>451.48</ele>
        <time>2013-04-06T11:55:24Z</time>
      </trkpt>
      <trkpt lat="45.83018" lon="4.78735">
        <ele>452.92</ele>
        <time>2013-04-06T11:55:32Z</time>
      </trkpt>
      <trkpt lat="45.83001" lon="4.78761">
        <ele>455.32</ele>
        <time>2013-04-06T11:55:42Z</time>
      </trkpt>
      <trkpt lat="45.82986" lon="4.7878">
        <ele>456.76</ele>
        <time>2013-04-06T11:55:50Z</time>
      </trkpt>
      <trkpt lat="45.82971" lon="4.78798">
        <ele>459.17</ele>
        <time>2013-04-06T11:55:59Z</time>
      </trkpt>
      <trkpt lat="45.82956" lon="4.7881">
        <ele>463.01</ele>
        <time>2013-04-06T11:56:07Z</time>
      </trkpt>
      <trkpt lat="45.82939" lon="4.78827">
        <ele>465.42</ele>
        <time>2013-04-06T11:56:15Z</time>
      </trkpt>
      <trkpt lat="45.82926" lon="4.78843">
        <ele>469.26</ele>
        <time>2013-04-06T11:56:23Z</time>
      </trkpt>
      <trkpt lat="45.82916" lon="4.78862">
        <ele>472.63</ele>
        <time>2013-04-06T11:56:31Z</time>
      </trkpt>
      <trkpt lat="45.82901" lon="4.78883">
        <ele>475.99</ele>
        <time>2013-04-06T11:56:40Z</time>
      </trkpt>
      <trkpt lat="45.82886" lon="4.78898">
        <ele>479.35</ele>
        <time>2013-04-06T11:56:48Z</time>
      </trkpt>
      <trkpt lat="45.82871" lon="4.78917">
        <ele>481.76</ele>
        <time>2013-04-06T11:56:56Z</time>
      </trkpt>
      <trkpt lat="45.82857" lon="4.78933">
        <ele>483.68</ele>
        <time>2013-04-06T11:57:03Z</time>
      </trkpt>
      <trkpt lat="45.8285" lon="4.78946">
        <ele>484.16</ele>
        <time>2013-04-06T11:57:10Z</time>
      </trkpt>
      <trkpt lat="45.8284" lon="4.78961">
        <ele>486.08</ele>
        <time>2013-04-06T11:57:20Z</time>
      </trkpt>
      <trkpt lat="45.82828" lon="4.7898">
        <ele>486.08</ele>
        <time>2013-04-06T11:57:28Z</time>
      </trkpt>
      <trkpt lat="45.82812" lon="4.79007">
        <ele>485.12</ele>
        <time>2013-04-06T11:57:38Z</time>
      </trkpt>
      <trkpt lat="45.82809" lon="4.79038">
        <ele>479.35</ele>
        <time>2013-04-06T11:57:46Z</time>
      </trkpt>
      <trkpt lat="45.82817" lon="4.7907">
        <ele>475.99</ele>
        <time>2013-04-06T11:57:55Z</time>
      </trkpt>
      <trkpt lat="45.82826" lon="4.79107">
        <ele>472.14</ele>
        <time>2013-04-06T11:58:05Z</time>
      </trkpt>
      <trkpt lat="45.82832" lon="4.79135">
        <ele>469.74</ele>
        <time>2013-04-06T11:58:13Z</time>
      </trkpt>
      <trkpt lat="45.82839" lon="4.79154">
        <ele>469.26</ele>
        <time>2013-04-06T11:58:20Z</time>
      </trkpt>
      <trkpt lat="45.82846" lon="4.7918">
        <ele>468.3</ele>
        <time>2013-04-06T11:58:29Z</time>
      </trkpt>
      <trkpt lat="45.82854" lon="4.79211">
        <ele>468.78</ele>
        <time>2013-04-06T11:58:39Z</time>
      </trkpt>
      <trkpt lat="45.82864" lon="4.79244">
        <ele>468.3</ele>
        <time>2013-04-06T11:58:48Z</time>
      </trkpt>
      <trkpt lat="45.82874" lon="4.79272">
        <ele>468.78</ele>
        <time>2013-04-06T11:58:57Z</time>
      </trkpt>
      <trkpt lat="45.82884" lon="4.793">
        <ele>468.3</ele>
        <time>2013-04-06T11:59:05Z</time>
      </trkpt>
      <trkpt lat="45.82892" lon="4.79324">
        <ele>466.86</ele>
        <time>2013-04-06T11:59:12Z</time>
      </trkpt>
      <trkpt lat="45.82887" lon="4.79344">
        <ele>465.42</ele>
        <time>2013-04-06T11:59:18Z</time>
      </trkpt>
      <trkpt lat="45.82871" lon="4.79367">
        <ele>462.53</ele>
        <time>2013-04-06T11:59:26Z</time>
      </trkpt>
      <trkpt lat="45.82853" lon="4.79377">
        <ele>460.61</ele>
        <time>2013-04-06T11:59:34Z</time>
      </trkpt>
      <trkpt lat="45.82831" lon="4.79375">
        <ele>458.69</ele>
        <time>2013-04-06T11:59:42Z</time>
      </trkpt>
      <trkpt lat="45.82807" lon="4.79368">
        <ele>456.76</ele>
        <time>2013-04-06T11:59:50Z</time>
      </trkpt>
      <trkpt lat="45.82782" lon="4.79362">
        <ele>454.84</ele>
        <time>2013-04-06T12:00:00Z</time>
      </trkpt>
      <trkpt lat="45.82753" lon="4.79355">
        <ele>450.52</ele>
        <time>2013-04-06T12:00:10Z</time>
      </trkpt>
      <trkpt lat="45.8273" lon="4.79347">
        <ele>446.67</ele>
        <time>2013-04-06T12:00:19Z</time>
      </trkpt>
      <trkpt lat="45.82707" lon="4.79347">
        <ele>444.27</ele>
        <time>2013-04-06T12:00:27Z</time>
      </trkpt>
      <trkpt lat="45.82698" lon="4.79354">
        <ele>442.82</ele>
        <time>2013-04-06T12:00:32Z</time>
      </trkpt>
      <trkpt lat="45.82693" lon="4.79367">
        <ele>441.86</ele>
        <time>2013-04-06T12:00:36Z</time>
      </trkpt>
      <trkpt lat="45.82695" lon="4.79394">
        <ele>439.46</ele>
        <time>2013-04-06T12:00:42Z</time>
      </trkpt>
      <trkpt lat="45.82704" lon="4.79423">
        <ele>435.61</ele>
        <time>2013-04-06T12:00:50Z</time>
      </trkpt>
      <trkpt lat="45.82708" lon="4.79452">
        <ele>432.25</ele>
        <time>2013-04-06T12:00:57Z</time>
      </trkpt>
      <trkpt lat="45.82711" lon="4.7948">
        <ele>429.85</ele>
        <time>2013-04-06T12:01:05Z</time>
      </trkpt>
      <trkpt lat="45.82713" lon="4.79502">
        <ele>428.4</ele>
        <time>2013-04-06T12:01:13Z</time>
      </trkpt>
    </trkseg>
  </trk>
</gpx>